Darstellungsparameter: Aktuell verwendete Einstellungen:
Skalierung der Graphiken ... ?
xyx+y,   Skalierungsfaktor:      Skalierung: Modus: x, Faktor: 1
Darstellungszeitraum ... ?
Vom - - bis: - -   Zeitraum: 10.06.2020 - 30.06.2020
Min/Max/Avg-Anzeige ... ?
Zeige MMA aktuell
Zeige MMA Monat
Zeige MMA alles
Zeige --A aktuell
Zeige --A Monat
Zeige --A alles
Keine MMA-Anzeige
MMA:
Keine MMA-Graphiken
MMA-Basis: 10.06.2020 - 30.06.2020
Quicknavigation für Darstellung... ?
Tage:      1T, 2T, 3T, 5T -1T -2T -3T -5T +1T +2T +3T +5T
Wochen: 1W, 2W, 3W -1W -2W -3W +1W +2W +3W
Monate: 1M, 3M, 6M -1M -3M -6M +1M +3M +6M
Jahre:    1J, 3J, 5J, 10J -1J -3J -5J -10J +1J +3J +5J +10J
Nutze für die Darstellung ... ?
Originaldaten oder Mittelwerte auf ...
Stundenbasis Tagesbasis Wochenbasis
Monatsbasis Jahresbasis      Datenbasis: Original-Daten
Darstellen als:
Statistik (Auto) Statistik J:M      Darstellung:
Zur Graphik,    zurück zur Übersicht aller Sensoren.
 
Tabellarische Datenbersicht: ?
 
Sensor: Nr:Datum:Temp:Abs-Feuchte:Windchill:Wind:
Aussen-T/F 1 10-06-2020 00:00:00 13.1 C 10.95 g/m*3 13.1 C 4.8 km/h
2 10-06-2020 00:05:00 13.1 C 10.95 g/m*3 13.1 C 0 km/h
3 10-06-2020 00:10:00 13 C 10.89 g/m*3 13 C 0 km/h
4 10-06-2020 00:15:00 13 C 10.89 g/m*3 13 C 3.2 km/h
5 10-06-2020 00:20:00 12.9 C 10.82 g/m*3 12.9 C 0 km/h
6 10-06-2020 00:25:00 12.9 C 10.82 g/m*3 12.9 C 0 km/h
7 10-06-2020 00:30:00 12.8 C 10.64 g/m*3 12.8 C 1.6 km/h
8 10-06-2020 00:35:00 12.8 C 10.64 g/m*3 12.8 C 0 km/h
9 10-06-2020 00:40:00 12.8 C 10.64 g/m*3 12.8 C 0 km/h
10 10-06-2020 00:45:00 12.8 C 10.75 g/m*3 12.8 C 0 km/h
11 10-06-2020 00:50:00 12.8 C 10.75 g/m*3 12.8 C 0 km/h
12 10-06-2020 00:55:00 12.8 C 10.75 g/m*3 12.8 C 0 km/h
13 10-06-2020 01:00:00 12.8 C 10.75 g/m*3 12.8 C 0 km/h
14 10-06-2020 01:05:00 12.8 C 10.75 g/m*3 12.8 C 0 km/h
15 10-06-2020 01:10:00 12.8 C 10.75 g/m*3 12.8 C 0 km/h
16 10-06-2020 01:15:00 12.7 C 10.69 g/m*3 12.7 C 0 km/h
17 10-06-2020 01:20:00 12.7 C 10.69 g/m*3 12.7 C 0 km/h
18 10-06-2020 01:25:00 12.7 C 10.69 g/m*3 12.7 C 0 km/h
19 10-06-2020 01:30:00 12.6 C 10.62 g/m*3 12.6 C 0 km/h
20 10-06-2020 01:35:00 12.4 C 10.38 g/m*3 12.4 C 0 km/h
21 10-06-2020 01:40:00 12.4 C 10.38 g/m*3 12.4 C 1.6 km/h
22 10-06-2020 01:45:00 12.3 C 10.42 g/m*3 12.3 C 3.2 km/h
23 10-06-2020 01:50:00 12.3 C 10.42 g/m*3 12.3 C 1.6 km/h
24 10-06-2020 01:55:00 12.3 C 10.42 g/m*3 12.3 C 1.6 km/h
25 10-06-2020 02:00:00 12.3 C 10.42 g/m*3 12.3 C 3.2 km/h
Sensor: Nr:Datum:Temp:Abs-Feuchte:Windchill:Wind:
Aussen-T/F 26 10-06-2020 02:05:00 12.3 C 10.42 g/m*3 12.3 C 1.6 km/h
27 10-06-2020 02:10:00 12.3 C 10.42 g/m*3 12.3 C 1.6 km/h
28 10-06-2020 02:15:00 12.3 C 10.42 g/m*3 12.3 C 1.6 km/h
29 10-06-2020 02:20:00 12.3 C 10.42 g/m*3 12.3 C 0 km/h
30 10-06-2020 02:25:00 12.3 C 10.42 g/m*3 12.3 C 0 km/h
31 10-06-2020 02:30:00 12.3 C 10.42 g/m*3 12.3 C 0 km/h
32 10-06-2020 02:35:00 12.3 C 10.42 g/m*3 12.3 C 0 km/h
33 10-06-2020 02:40:00 12.3 C 10.42 g/m*3 12.3 C 0 km/h
34 10-06-2020 02:45:00 12.3 C 10.42 g/m*3 12.3 C 0 km/h
35 10-06-2020 02:50:00 12.3 C 10.42 g/m*3 12.3 C 0 km/h
36 10-06-2020 02:55:00 12.4 C 10.49 g/m*3 12.4 C 0 km/h
37 10-06-2020 03:00:00 12.4 C 10.49 g/m*3 12.4 C 0 km/h
38 10-06-2020 03:05:00 12.5 C 10.55 g/m*3 12.5 C 0 km/h
39 10-06-2020 03:10:00 12.5 C 10.55 g/m*3 12.5 C 0 km/h
40 10-06-2020 03:15:00 12.6 C 10.62 g/m*3 12.6 C 0 km/h
41 10-06-2020 03:20:00 12.6 C 10.62 g/m*3 12.6 C 0 km/h
42 10-06-2020 03:25:00 12.6 C 10.62 g/m*3 12.6 C 0 km/h
43 10-06-2020 03:30:00 12.6 C 10.62 g/m*3 12.6 C 0 km/h
44 10-06-2020 03:35:00 12.6 C 10.62 g/m*3 12.6 C 0 km/h
45 10-06-2020 03:40:00 12.6 C 10.62 g/m*3 12.6 C 0 km/h
46 10-06-2020 03:45:00 12.6 C 10.62 g/m*3 12.6 C 0 km/h
47 10-06-2020 03:50:00 12.6 C 10.62 g/m*3 12.6 C 0 km/h
48 10-06-2020 03:55:00 12.6 C 10.62 g/m*3 12.6 C 0 km/h
49 10-06-2020 04:00:00 12.6 C 10.62 g/m*3 12.6 C 0 km/h
50 10-06-2020 04:05:00 12.6 C 10.62 g/m*3 12.6 C 1.6 km/h
Sensor: Nr:Datum:Temp:Abs-Feuchte:Windchill:Wind:
Aussen-T/F 51 10-06-2020 04:10:00 12.6 C 10.62 g/m*3 12.6 C 0 km/h
52 10-06-2020 04:15:00 12.6 C 10.62 g/m*3 12.6 C 0 km/h
53 10-06-2020 04:20:00 12.6 C 10.62 g/m*3 12.6 C 0 km/h
54 10-06-2020 04:25:00 12.6 C 10.62 g/m*3 12.6 C 0 km/h
55 10-06-2020 04:30:00 12.6 C 10.62 g/m*3 12.6 C 0 km/h
56 10-06-2020 04:35:00 12.6 C 10.62 g/m*3 12.6 C 0 km/h
57 10-06-2020 04:40:00 12.6 C 10.62 g/m*3 12.6 C 0 km/h
58 10-06-2020 04:45:00 12.6 C 10.62 g/m*3 12.6 C 0 km/h
59 10-06-2020 04:50:00 12.6 C 10.62 g/m*3 12.6 C 0 km/h
60 10-06-2020 04:55:00 12.6 C 10.62 g/m*3 12.6 C 0 km/h
61 10-06-2020 05:00:00 12.6 C 10.62 g/m*3 12.6 C 0 km/h
62 10-06-2020 05:05:00 12.6 C 10.62 g/m*3 12.6 C 0 km/h
63 10-06-2020 05:10:00 12.7 C 10.69 g/m*3 12.7 C 0 km/h
64 10-06-2020 05:15:00 12.7 C 10.69 g/m*3 12.7 C 0 km/h
65 10-06-2020 05:20:00 12.7 C 10.69 g/m*3 12.7 C 0 km/h
66 10-06-2020 05:25:00 12.7 C 10.69 g/m*3 12.7 C 0 km/h
67 10-06-2020 05:30:00 12.7 C 10.69 g/m*3 12.7 C 0 km/h
68 10-06-2020 05:35:00 12.7 C 10.69 g/m*3 12.7 C 0 km/h
69 10-06-2020 05:40:00 12.7 C 10.69 g/m*3 12.7 C 0 km/h
70 10-06-2020 05:45:00 12.7 C 10.69 g/m*3 12.7 C 0 km/h
71 10-06-2020 05:50:00 12.7 C 10.69 g/m*3 12.7 C 0 km/h
72 10-06-2020 05:55:00 12.7 C 10.69 g/m*3 12.7 C 0 km/h
73 10-06-2020 06:00:00 12.7 C 10.8 g/m*3 12.7 C 0 km/h
74 10-06-2020 06:05:00 12.7 C 10.8 g/m*3 12.7 C 0 km/h
75 10-06-2020 06:10:00 12.8 C 10.87 g/m*3 12.8 C 0 km/h
Sensor: Nr:Datum:Temp:Abs-Feuchte:Windchill:Wind:
Aussen-T/F 76 10-06-2020 06:15:00 12.8 C 10.87 g/m*3 12.8 C 0 km/h
77 10-06-2020 06:20:00 12.8 C 10.87 g/m*3 12.8 C 0 km/h
78 10-06-2020 06:25:00 12.9 C 10.93 g/m*3 12.9 C 0 km/h
79 10-06-2020 06:30:00 12.9 C 10.93 g/m*3 12.9 C 0 km/h
80 10-06-2020 06:35:00 13 C 11 g/m*3 13 C 0 km/h
81 10-06-2020 06:40:00 13.1 C 11.07 g/m*3 13.1 C 0 km/h
82 10-06-2020 06:45:00 13.2 C 11.14 g/m*3 13.2 C 0 km/h
83 10-06-2020 06:50:00 13.2 C 11.14 g/m*3 13.2 C 0 km/h
84 10-06-2020 06:55:00 13.3 C 11.21 g/m*3 13.3 C 1.6 km/h
85 10-06-2020 07:00:00 13.3 C 11.21 g/m*3 13.3 C 3.2 km/h
86 10-06-2020 07:05:00 13.3 C 11.21 g/m*3 13.3 C 0 km/h
87 10-06-2020 07:10:00 13.3 C 11.21 g/m*3 13.3 C 1.6 km/h
88 10-06-2020 07:15:00 13.3 C 11.21 g/m*3 13.3 C 0 km/h
89 10-06-2020 07:20:00 13.4 C 11.28 g/m*3 13.4 C 0 km/h
90 10-06-2020 07:25:00 13.3 C 11.09 g/m*3 13.3 C 0 km/h
91 10-06-2020 07:30:00 13.3 C 11.09 g/m*3 13.3 C 0 km/h
92 10-06-2020 07:35:00 13.4 C 11.28 g/m*3 13.4 C 0 km/h
93 10-06-2020 07:40:00 13.4 C 11.28 g/m*3 13.4 C 0 km/h
94 10-06-2020 07:45:00 13.4 C 11.16 g/m*3 13.4 C 0 km/h
95 10-06-2020 07:50:00 13.5 C 11.23 g/m*3 13.5 C 0 km/h
96 10-06-2020 07:55:00 13.6 C 11.3 g/m*3 13.6 C 0 km/h
97 10-06-2020 08:00:00 13.6 C 11.3 g/m*3 13.6 C 0 km/h
98 10-06-2020 08:05:00 13.6 C 11.3 g/m*3 13.6 C 0 km/h
99 10-06-2020 08:10:00 13.7 C 11.37 g/m*3 13.7 C 0 km/h
100 10-06-2020 08:15:00 13.7 C 11.37 g/m*3 13.7 C 0 km/h
Sensor: Nr:Datum:Temp:Abs-Feuchte:Windchill:Wind:
Aussen-T/F 101 10-06-2020 08:20:00 13.8 C 11.44 g/m*3 13.8 C 0 km/h
102 10-06-2020 08:25:00 13.8 C 11.44 g/m*3 13.8 C 0 km/h
103 10-06-2020 08:30:00 13.8 C 11.44 g/m*3 13.8 C 0 km/h
104 10-06-2020 08:35:00 13.9 C 11.51 g/m*3 13.9 C 0 km/h
105 10-06-2020 08:40:00 14 C 11.58 g/m*3 14 C 1.6 km/h
106 10-06-2020 08:45:00 14.1 C 11.65 g/m*3 14.1 C 0 km/h
107 10-06-2020 08:50:00 14.1 C 11.53 g/m*3 14.1 C 0 km/h
108 10-06-2020 08:55:00 14.2 C 11.6 g/m*3 14.2 C 1.6 km/h
109 10-06-2020 09:00:00 14.3 C 11.67 g/m*3 14.3 C 0 km/h
110 10-06-2020 09:05:00 14.3 C 11.67 g/m*3 14.3 C 4.8 km/h
111 10-06-2020 09:10:00 14.5 C 11.69 g/m*3 14.5 C 3.2 km/h
112 10-06-2020 09:15:00 14.6 C 11.64 g/m*3 14.6 C 3.2 km/h
113 10-06-2020 09:20:00 14.7 C 11.71 g/m*3 14.7 C 4.8 km/h
114 10-06-2020 09:25:00 14.8 C 11.65 g/m*3 14.8 C 1.6 km/h
115 10-06-2020 09:30:00 14.9 C 11.73 g/m*3 14.9 C 1.6 km/h
116 10-06-2020 09:35:00 15.1 C 11.74 g/m*3 15.1 C 1.6 km/h
117 10-06-2020 09:40:00 15.1 C 11.74 g/m*3 15.1 C 3.2 km/h
118 10-06-2020 09:45:00 15.2 C 11.68 g/m*3 15.2 C 4.8 km/h
119 10-06-2020 09:50:00 15.2 C 11.55 g/m*3 15.2 C 1.6 km/h
120 10-06-2020 09:55:00 15.3 C 11.62 g/m*3 15.3 C 0 km/h
121 10-06-2020 10:00:00 15.3 C 11.62 g/m*3 15.3 C 1.6 km/h
122 10-06-2020 10:05:00 15.3 C 11.49 g/m*3 15.3 C 3.2 km/h
123 10-06-2020 10:10:00 15.4 C 11.56 g/m*3 15.4 C 3.2 km/h
124 10-06-2020 10:15:00 15.4 C 11.56 g/m*3 15.4 C 3.2 km/h
125 10-06-2020 10:20:00 15.6 C 11.7 g/m*3 15.6 C 0 km/h
Sensor: Nr:Datum:Temp:Abs-Feuchte:Windchill:Wind:
Aussen-T/F 126 10-06-2020 10:25:00 15.6 C 11.57 g/m*3 15.6 C 4.8 km/h
127 10-06-2020 10:30:00 15.6 C 11.57 g/m*3 15.6 C 6.4 km/h
128 10-06-2020 10:35:00 15.6 C 11.57 g/m*3 15.6 C 3.2 km/h
129 10-06-2020 10:40:00 15.6 C 11.57 g/m*3 15.6 C 3.2 km/h
130 10-06-2020 10:45:00 15.7 C 11.64 g/m*3 15.7 C 3.2 km/h
131 10-06-2020 10:50:00 15.7 C 11.64 g/m*3 15.7 C 1.6 km/h
132 10-06-2020 10:55:00 15.7 C 11.51 g/m*3 15.7 C 3.2 km/h
133 10-06-2020 11:00:00 15.7 C 11.64 g/m*3 15.7 C 1.6 km/h
134 10-06-2020 11:05:00 15.8 C 11.58 g/m*3 15.8 C 1.6 km/h
135 10-06-2020 11:10:00 15.8 C 11.58 g/m*3 15.8 C 3.2 km/h
136 10-06-2020 11:15:00 15.8 C 11.58 g/m*3 15.8 C 0 km/h
137 10-06-2020 11:20:00 15.8 C 11.58 g/m*3 15.8 C 1.6 km/h
138 10-06-2020 11:25:00 15.7 C 11.51 g/m*3 15.7 C 3.2 km/h
139 10-06-2020 11:30:00 15.7 C 11.51 g/m*3 15.7 C 1.6 km/h
140 10-06-2020 11:35:00 15.7 C 11.51 g/m*3 15.7 C 0 km/h
141 10-06-2020 11:40:00 15.8 C 11.71 g/m*3 15.8 C 1.6 km/h
142 10-06-2020 11:45:00 15.8 C 11.85 g/m*3 15.8 C 0 km/h
143 10-06-2020 11:50:00 15.7 C 11.77 g/m*3 15.7 C 1.6 km/h
144 10-06-2020 11:55:00 15.7 C 11.77 g/m*3 15.7 C 4.8 km/h
145 10-06-2020 12:00:00 15.6 C 11.57 g/m*3 15.6 C 8.1 km/h
146 10-06-2020 12:05:00 15.5 C 11.37 g/m*3 15.5 C 12.9 km/h
147 10-06-2020 12:10:00 15.4 C 11.17 g/m*3 15.4 C 12.9 km/h
148 10-06-2020 12:15:00 15.4 C 11.17 g/m*3 15.4 C 8.1 km/h
149 10-06-2020 12:20:00 15.4 C 11.3 g/m*3 15.4 C 8.1 km/h
150 10-06-2020 12:25:00 15.4 C 11.3 g/m*3 15.4 C 8.1 km/h
Sensor: Nr:Datum:Temp:Abs-Feuchte:Windchill:Wind:
Aussen-T/F 151 10-06-2020 12:30:00 15.4 C 11.3 g/m*3 15.4 C 6.4 km/h
152 10-06-2020 12:35:00 15.4 C 11.17 g/m*3 15.4 C 11.3 km/h
153 10-06-2020 12:40:00 15.5 C 11.37 g/m*3 15.5 C 3.2 km/h
154 10-06-2020 12:45:00 15.6 C 11.44 g/m*3 15.6 C 3.2 km/h
155 10-06-2020 12:50:00 15.6 C 11.3 g/m*3 15.6 C 8.1 km/h
156 10-06-2020 12:55:00 15.5 C 11.24 g/m*3 15.5 C 6.4 km/h
157 10-06-2020 13:00:00 15.4 C 11.17 g/m*3 15.4 C 6.4 km/h
158 10-06-2020 13:05:00 15.5 C 11.37 g/m*3 15.5 C 4.8 km/h
159 10-06-2020 13:10:00 15.6 C 11.3 g/m*3 15.6 C 6.4 km/h
160 10-06-2020 13:15:00 15.5 C 11.37 g/m*3 15.5 C 9.7 km/h
161 10-06-2020 13:20:00 15.4 C 11.3 g/m*3 15.4 C 8.1 km/h
162 10-06-2020 13:25:00 15.4 C 11.3 g/m*3 15.4 C 8.1 km/h
163 10-06-2020 13:30:00 15.4 C 11.17 g/m*3 15.4 C 9.7 km/h
164 10-06-2020 13:35:00 15.4 C 11.17 g/m*3 15.4 C 9.7 km/h
165 10-06-2020 13:40:00 15.6 C 11.17 g/m*3 15.6 C 8.1 km/h
166 10-06-2020 13:45:00 15.7 C 11.37 g/m*3 15.7 C 9.7 km/h
167 10-06-2020 13:50:00 15.8 C 11.17 g/m*3 15.8 C 11.3 km/h
168 10-06-2020 13:55:00 15.9 C 11.1 g/m*3 15.9 C 9.7 km/h
169 10-06-2020 14:00:00 16.1 C 11.24 g/m*3 16.1 C 4.8 km/h
170 10-06-2020 14:05:00 16.2 C 11.17 g/m*3 16.2 C 6.4 km/h
171 10-06-2020 14:10:00 16.3 C 11.1 g/m*3 16.3 C 6.4 km/h
172 10-06-2020 14:15:00 16.4 C 11.31 g/m*3 16.4 C 6.4 km/h
173 10-06-2020 14:20:00 16.4 C 11.03 g/m*3 16.4 C 6.4 km/h
174 10-06-2020 14:25:00 16.4 C 10.89 g/m*3 16.4 C 6.4 km/h
175 10-06-2020 14:30:00 16.3 C 10.82 g/m*3 16.3 C 6.4 km/h
Sensor: Nr:Datum:Temp:Abs-Feuchte:Windchill:Wind:
Aussen-T/F 176 10-06-2020 14:35:00 16.3 C 10.82 g/m*3 16.3 C 1.6 km/h
177 10-06-2020 14:40:00 16.4 C 11.03 g/m*3 16.4 C 1.6 km/h
178 10-06-2020 14:45:00 16.4 C 10.89 g/m*3 16.4 C 0 km/h
179 10-06-2020 14:50:00 16.6 C 11.02 g/m*3 16.6 C 1.6 km/h
180 10-06-2020 14:55:00 16.6 C 10.88 g/m*3 16.6 C 1.6 km/h
181 10-06-2020 15:00:00 16.6 C 10.88 g/m*3 16.6 C 0 km/h
182 10-06-2020 15:05:00 16.6 C 10.88 g/m*3 16.6 C 1.6 km/h
183 10-06-2020 15:10:00 16.7 C 10.94 g/m*3 16.7 C 0 km/h
184 10-06-2020 15:15:00 16.8 C 11.15 g/m*3 16.8 C 0 km/h
185 10-06-2020 15:20:00 16.9 C 11.08 g/m*3 16.9 C 3.2 km/h
186 10-06-2020 15:25:00 16.9 C 10.93 g/m*3 16.9 C 1.6 km/h
187 10-06-2020 15:30:00 17.1 C 11.06 g/m*3 17.1 C 0 km/h
188 10-06-2020 15:35:00 17.2 C 11.13 g/m*3 17.2 C 0 km/h
189 10-06-2020 15:40:00 17.3 C 11.05 g/m*3 17.3 C 0 km/h
190 10-06-2020 15:45:00 17.5 C 11.18 g/m*3 17.5 C 0 km/h
191 10-06-2020 15:50:00 17.7 C 11.47 g/m*3 17.7 C 0 km/h
192 10-06-2020 15:55:00 17.9 C 11.45 g/m*3 17.9 C 8.1 km/h
193 10-06-2020 16:00:00 18.1 C 11.74 g/m*3 18.1 C 3.2 km/h
194 10-06-2020 16:05:00 18.2 C 11.5 g/m*3 18.2 C 4.8 km/h
195 10-06-2020 16:10:00 18.3 C 11.73 g/m*3 18.3 C 6.4 km/h
196 10-06-2020 16:15:00 18.4 C 11.64 g/m*3 18.4 C 4.8 km/h
197 10-06-2020 16:20:00 18.6 C 11.78 g/m*3 18.6 C 1.6 km/h
198 10-06-2020 16:25:00 18.7 C 11.37 g/m*3 18.7 C 0 km/h
199 10-06-2020 16:30:00 18.9 C 11.34 g/m*3 18.9 C 0 km/h
200 10-06-2020 16:35:00 18.9 C 11.34 g/m*3 18.9 C 3.2 km/h
Sensor: Nr:Datum:Temp:Abs-Feuchte:Windchill:Wind:
Aussen-T/F 201 10-06-2020 16:40:00 18.9 C 11.34 g/m*3 18.9 C 1.6 km/h
202 10-06-2020 16:45:00 18.9 C 11.34 g/m*3 18.9 C 4.8 km/h
203 10-06-2020 16:50:00 18.9 C 11.18 g/m*3 18.9 C 6.4 km/h
204 10-06-2020 16:55:00 19 C 11.24 g/m*3 19 C 6.4 km/h
205 10-06-2020 17:00:00 19 C 11.24 g/m*3 19 C 6.4 km/h
206 10-06-2020 17:05:00 19.2 C 11.38 g/m*3 19.2 C 4.8 km/h
207 10-06-2020 17:10:00 19.2 C 11.54 g/m*3 19.2 C 3.2 km/h
208 10-06-2020 17:15:00 19.3 C 11.61 g/m*3 19.3 C 1.6 km/h
209 10-06-2020 17:20:00 19.6 C 11.65 g/m*3 19.6 C 3.2 km/h
210 10-06-2020 17:25:00 19.7 C 11.55 g/m*3 19.7 C 4.8 km/h
211 10-06-2020 17:30:00 19.9 C 11.34 g/m*3 19.9 C 1.6 km/h
212 10-06-2020 17:35:00 20 C 11.58 g/m*3 20 C 4.8 km/h
213 10-06-2020 17:40:00 20.1 C 11.99 g/m*3 20.1 C 1.6 km/h
214 10-06-2020 17:45:00 19.9 C 11 g/m*3 19.9 C 8.1 km/h
215 10-06-2020 17:50:00 19.8 C 11.27 g/m*3 19.8 C 6.4 km/h
216 10-06-2020 17:55:00 19.8 C 11.1 g/m*3 19.8 C 6.4 km/h
217 10-06-2020 18:00:00 19.8 C 11.1 g/m*3 19.8 C 3.2 km/h
218 10-06-2020 18:05:00 19.8 C 10.76 g/m*3 19.8 C 12.9 km/h
219 10-06-2020 18:10:00 19.7 C 10.87 g/m*3 19.7 C 11.3 km/h
220 10-06-2020 18:15:00 19.9 C 11 g/m*3 19.9 C 9.7 km/h
221 10-06-2020 18:20:00 19.9 C 10.82 g/m*3 19.9 C 8.1 km/h
222 10-06-2020 18:25:00 19.8 C 11.1 g/m*3 19.8 C 6.4 km/h
223 10-06-2020 18:30:00 19.8 C 10.76 g/m*3 19.8 C 6.4 km/h
224 10-06-2020 18:35:00 19.8 C 10.76 g/m*3 19.8 C 8.1 km/h
225 10-06-2020 18:40:00 19.8 C 11.1 g/m*3 19.8 C 6.4 km/h
Sensor: Nr:Datum:Temp:Abs-Feuchte:Windchill:Wind:
Aussen-T/F 226 10-06-2020 18:45:00 19.8 C 11.1 g/m*3 19.8 C 4.8 km/h
227 10-06-2020 18:50:00 19.9 C 11 g/m*3 19.9 C 8.1 km/h
228 10-06-2020 18:55:00 19.8 C 10.93 g/m*3 19.8 C 6.4 km/h
229 10-06-2020 19:00:00 19.7 C 11.04 g/m*3 19.7 C 1.6 km/h
230 10-06-2020 19:05:00 19.6 C 10.97 g/m*3 19.6 C 8.1 km/h
231 10-06-2020 19:10:00 19.4 C 11.01 g/m*3 19.4 C 6.4 km/h
232 10-06-2020 19:15:00 19.3 C 11.28 g/m*3 19.3 C 0 km/h
233 10-06-2020 19:20:00 19.4 C 12.18 g/m*3 19.4 C 0 km/h
234 10-06-2020 19:25:00 19.3 C 11.61 g/m*3 19.3 C 0 km/h
235 10-06-2020 19:30:00 19.3 C 12.44 g/m*3 19.3 C 0 km/h
236 10-06-2020 19:35:00 19.2 C 12.53 g/m*3 19.2 C 0 km/h
237 10-06-2020 19:40:00 19.2 C 12.7 g/m*3 19.2 C 0 km/h
238 10-06-2020 19:45:00 19.1 C 12.79 g/m*3 19.1 C 0 km/h
239 10-06-2020 19:50:00 18.9 C 12.47 g/m*3 18.9 C 0 km/h
240 10-06-2020 19:55:00 18.9 C 12.47 g/m*3 18.9 C 0 km/h
241 10-06-2020 20:00:00 18.8 C 12.72 g/m*3 18.8 C 0 km/h
242 10-06-2020 20:05:00 18.8 C 12.56 g/m*3 18.8 C 0 km/h
243 10-06-2020 20:10:00 18.8 C 12.72 g/m*3 18.8 C 0 km/h
244 10-06-2020 20:15:00 18.7 C 12.65 g/m*3 18.7 C 0 km/h
245 10-06-2020 20:20:00 18.7 C 12.65 g/m*3 18.7 C 0 km/h
246 10-06-2020 20:25:00 18.6 C 12.57 g/m*3 18.6 C 0 km/h
247 10-06-2020 20:30:00 18.6 C 12.57 g/m*3 18.6 C 1.6 km/h
248 10-06-2020 20:35:00 18.4 C 12.43 g/m*3 18.4 C 3.2 km/h
249 10-06-2020 20:40:00 18.3 C 12.35 g/m*3 18.3 C 1.6 km/h
250 10-06-2020 20:45:00 18.2 C 12.12 g/m*3 18.2 C 0 km/h
Sensor: Nr:Datum:Temp:Abs-Feuchte:Windchill:Wind:
Aussen-T/F 251 10-06-2020 20:50:00 18.1 C 12.21 g/m*3 18.1 C 1.6 km/h
252 10-06-2020 20:55:00 17.9 C 12.06 g/m*3 17.9 C 1.6 km/h
253 10-06-2020 21:00:00 17.7 C 11.92 g/m*3 17.7 C 4.8 km/h
254 10-06-2020 21:05:00 17.5 C 11.93 g/m*3 17.5 C 1.6 km/h
255 10-06-2020 21:10:00 17.3 C 11.79 g/m*3 17.3 C 1.6 km/h
256 10-06-2020 21:15:00 17.2 C 11.72 g/m*3 17.2 C 1.6 km/h
257 10-06-2020 21:20:00 16.9 C 11.36 g/m*3 16.9 C 3.2 km/h
258 10-06-2020 21:25:00 16.7 C 11.23 g/m*3 16.7 C 3.2 km/h
259 10-06-2020 21:30:00 16.6 C 11.16 g/m*3 16.6 C 3.2 km/h
260 10-06-2020 21:35:00 16.3 C 10.96 g/m*3 16.3 C 6.4 km/h
261 10-06-2020 21:40:00 16.2 C 10.89 g/m*3 16.2 C 6.4 km/h
262 10-06-2020 21:45:00 16 C 10.76 g/m*3 16 C 6.4 km/h
263 10-06-2020 21:50:00 15.9 C 10.83 g/m*3 15.9 C 6.4 km/h
264 10-06-2020 21:55:00 15.8 C 10.63 g/m*3 15.8 C 8.1 km/h
265 10-06-2020 22:00:00 15.7 C 10.7 g/m*3 15.7 C 4.8 km/h
266 10-06-2020 22:05:00 15.7 C 10.7 g/m*3 15.7 C 3.2 km/h
267 10-06-2020 22:10:00 15.6 C 10.77 g/m*3 15.6 C 4.8 km/h
268 10-06-2020 22:15:00 15.6 C 10.77 g/m*3 15.6 C 4.8 km/h
269 10-06-2020 22:20:00 15.5 C 10.71 g/m*3 15.5 C 4.8 km/h
270 10-06-2020 22:25:00 15.4 C 10.77 g/m*3 15.4 C 0 km/h
271 10-06-2020 22:30:00 15.4 C 10.77 g/m*3 15.4 C 0 km/h
272 10-06-2020 22:35:00 15.3 C 10.84 g/m*3 15.3 C 1.6 km/h
273 10-06-2020 22:40:00 15.3 C 10.84 g/m*3 15.3 C 1.6 km/h
274 10-06-2020 22:45:00 15.2 C 10.77 g/m*3 15.2 C 1.6 km/h
275 10-06-2020 22:50:00 15.2 C 10.9 g/m*3 15.2 C 3.2 km/h
Sensor: Nr:Datum:Temp:Abs-Feuchte:Windchill:Wind:
Aussen-T/F 276 10-06-2020 22:55:00 15.1 C 10.84 g/m*3 15.1 C 1.6 km/h
277 10-06-2020 23:00:00 15.1 C 10.97 g/m*3 15.1 C 0 km/h
278 10-06-2020 23:05:00 15.1 C 10.97 g/m*3 15.1 C 0 km/h
279 10-06-2020 23:10:00 15.1 C 10.97 g/m*3 15.1 C 0 km/h
280 10-06-2020 23:15:00 15.1 C 11.09 g/m*3 15.1 C 0 km/h
281 10-06-2020 23:20:00 15.1 C 11.22 g/m*3 15.1 C 0 km/h
282 10-06-2020 23:25:00 15.1 C 11.22 g/m*3 15.1 C 0 km/h
283 10-06-2020 23:30:00 15.1 C 10.97 g/m*3 15.1 C 3.2 km/h
284 10-06-2020 23:35:00 15.2 C 10.9 g/m*3 15.2 C 0 km/h
285 10-06-2020 23:40:00 15.3 C 10.97 g/m*3 15.3 C 3.2 km/h
286 10-06-2020 23:45:00 15.4 C 10.9 g/m*3 15.4 C 1.6 km/h
287 10-06-2020 23:50:00 15.5 C 10.97 g/m*3 15.5 C 8.1 km/h
288 10-06-2020 23:55:00 15.6 C 11.04 g/m*3 15.6 C 6.4 km/h
289 11-06-2020 00:00:00 15.7 C 11.24 g/m*3 15.7 C 6.4 km/h
290 11-06-2020 00:05:00 15.7 C 11.24 g/m*3 15.7 C 4.8 km/h
291 11-06-2020 00:10:00 15.7 C 11.37 g/m*3 15.7 C 0 km/h
292 11-06-2020 00:15:00 15.6 C 11.3 g/m*3 15.6 C 0 km/h
293 11-06-2020 00:20:00 15.6 C 11.44 g/m*3 15.6 C 0 km/h
294 11-06-2020 00:25:00 15.4 C 11.3 g/m*3 15.4 C 1.6 km/h
295 11-06-2020 00:30:00 15.3 C 11.23 g/m*3 15.3 C 0 km/h
296 11-06-2020 00:35:00 15.2 C 11.16 g/m*3 15.2 C 4.8 km/h
297 11-06-2020 00:40:00 15 C 11.16 g/m*3 15 C 1.6 km/h
298 11-06-2020 00:45:00 14.9 C 11.22 g/m*3 14.9 C 0 km/h
299 11-06-2020 00:50:00 14.8 C 11.15 g/m*3 14.8 C 0 km/h
300 11-06-2020 00:55:00 14.7 C 11.21 g/m*3 14.7 C 1.6 km/h
Sensor: Nr:Datum:Temp:Abs-Feuchte:Windchill:Wind:
Aussen-T/F 301 11-06-2020 01:00:00 14.6 C 11.14 g/m*3 14.6 C 4.8 km/h
302 11-06-2020 01:05:00 14.5 C 11.07 g/m*3 14.5 C 0 km/h
303 11-06-2020 01:10:00 14.4 C 11.13 g/m*3 14.4 C 0 km/h
304 11-06-2020 01:15:00 14.3 C 11.06 g/m*3 14.3 C 1.6 km/h
305 11-06-2020 01:20:00 14.2 C 10.99 g/m*3 14.2 C 0 km/h
306 11-06-2020 01:25:00 14.2 C 10.99 g/m*3 14.2 C 0 km/h
307 11-06-2020 01:30:00 14.1 C 10.92 g/m*3 14.1 C 0 km/h
308 11-06-2020 01:35:00 14.1 C 11.04 g/m*3 14.1 C 0 km/h
309 11-06-2020 01:40:00 14 C 10.98 g/m*3 14 C 0 km/h
310 11-06-2020 01:45:00 14 C 10.98 g/m*3 14 C 0 km/h
311 11-06-2020 01:50:00 14 C 10.98 g/m*3 14 C 0 km/h
312 11-06-2020 01:55:00 14 C 10.98 g/m*3 14 C 0 km/h
313 11-06-2020 02:00:00 13.9 C 11.03 g/m*3 13.9 C 0 km/h
314 11-06-2020 02:05:00 13.9 C 11.03 g/m*3 13.9 C 0 km/h
315 11-06-2020 02:10:00 13.9 C 11.03 g/m*3 13.9 C 0 km/h
316 11-06-2020 02:15:00 13.9 C 11.03 g/m*3 13.9 C 0 km/h
317 11-06-2020 02:20:00 13.9 C 11.03 g/m*3 13.9 C 0 km/h
318 11-06-2020 02:25:00 13.9 C 11.03 g/m*3 13.9 C 0 km/h
319 11-06-2020 02:30:00 13.8 C 11.08 g/m*3 13.8 C 0 km/h
320 11-06-2020 02:35:00 13.8 C 10.96 g/m*3 13.8 C 0 km/h
321 11-06-2020 02:40:00 13.8 C 10.96 g/m*3 13.8 C 0 km/h
322 11-06-2020 02:45:00 13.8 C 11.08 g/m*3 13.8 C 0 km/h
323 11-06-2020 02:50:00 13.8 C 11.08 g/m*3 13.8 C 0 km/h
324 11-06-2020 02:55:00 13.7 C 11.01 g/m*3 13.7 C 0 km/h
325 11-06-2020 03:00:00 13.7 C 11.01 g/m*3 13.7 C 0 km/h
Sensor: Nr:Datum:Temp:Abs-Feuchte:Windchill:Wind:
Aussen-T/F 326 11-06-2020 03:05:00 13.6 C 10.95 g/m*3 13.6 C 1.6 km/h
327 11-06-2020 03:10:00 13.6 C 10.95 g/m*3 13.6 C 0 km/h
328 11-06-2020 03:15:00 13.5 C 10.88 g/m*3 13.5 C 0 km/h
329 11-06-2020 03:20:00 13.5 C 10.88 g/m*3 13.5 C 0 km/h
330 11-06-2020 03:25:00 13.4 C 10.81 g/m*3 13.4 C 0 km/h
331 11-06-2020 03:30:00 13.4 C 10.81 g/m*3 13.4 C 0 km/h
332 11-06-2020 03:35:00 13.3 C 10.74 g/m*3 13.3 C 0 km/h
333 11-06-2020 03:40:00 13.2 C 10.68 g/m*3 13.2 C 0 km/h
334 11-06-2020 03:45:00 13.2 C 10.68 g/m*3 13.2 C 1.6 km/h
335 11-06-2020 03:50:00 13.1 C 10.61 g/m*3 13.1 C 1.6 km/h
336 11-06-2020 03:55:00 13.1 C 10.61 g/m*3 13.1 C 0 km/h
337 11-06-2020 04:00:00 13 C 10.66 g/m*3 13 C 1.6 km/h
338 11-06-2020 04:05:00 13 C 10.66 g/m*3 13 C 0 km/h
339 11-06-2020 04:10:00 12.9 C 10.59 g/m*3 12.9 C 0 km/h
340 11-06-2020 04:15:00 12.9 C 10.48 g/m*3 12.9 C 0 km/h
341 11-06-2020 04:20:00 12.8 C 10.42 g/m*3 12.8 C 0 km/h
342 11-06-2020 04:25:00 12.8 C 10.53 g/m*3 12.8 C 1.6 km/h
343 11-06-2020 04:30:00 12.8 C 10.53 g/m*3 12.8 C 0 km/h
344 11-06-2020 04:35:00 12.7 C 10.46 g/m*3 12.7 C 0 km/h
345 11-06-2020 04:40:00 12.7 C 10.46 g/m*3 12.7 C 0 km/h
346 11-06-2020 04:45:00 12.6 C 10.4 g/m*3 12.6 C 0 km/h
347 11-06-2020 04:50:00 12.6 C 10.4 g/m*3 12.6 C 0 km/h
348 11-06-2020 04:55:00 12.5 C 10.33 g/m*3 12.5 C 1.6 km/h
349 11-06-2020 05:00:00 12.5 C 10.33 g/m*3 12.5 C 1.6 km/h
350 11-06-2020 05:05:00 12.4 C 10.27 g/m*3 12.4 C 1.6 km/h
Sensor: Nr:Datum:Temp:Abs-Feuchte:Windchill:Wind:
Aussen-T/F 351 11-06-2020 05:10:00 12.4 C 10.27 g/m*3 12.4 C 0 km/h
352 11-06-2020 05:15:00 12.4 C 10.27 g/m*3 12.4 C 0 km/h
353 11-06-2020 05:20:00 12.3 C 10.21 g/m*3 12.3 C 0 km/h
354 11-06-2020 05:25:00 12.3 C 10.21 g/m*3 12.3 C 0 km/h
355 11-06-2020 05:30:00 12.3 C 10.21 g/m*3 12.3 C 0 km/h
356 11-06-2020 05:35:00 12.3 C 10.21 g/m*3 12.3 C 0 km/h
357 11-06-2020 05:40:00 12.3 C 10.21 g/m*3 12.3 C 0 km/h
358 11-06-2020 05:45:00 12.3 C 10.32 g/m*3 12.3 C 0 km/h
359 11-06-2020 05:50:00 12.4 C 10.38 g/m*3 12.4 C 0 km/h
360 11-06-2020 05:55:00 12.4 C 10.38 g/m*3 12.4 C 0 km/h
361 11-06-2020 06:00:00 12.4 C 10.38 g/m*3 12.4 C 0 km/h
362 11-06-2020 06:05:00 12.5 C 10.44 g/m*3 12.5 C 0 km/h
363 11-06-2020 06:10:00 12.6 C 10.51 g/m*3 12.6 C 0 km/h
364 11-06-2020 06:15:00 12.6 C 10.51 g/m*3 12.6 C 0 km/h
365 11-06-2020 06:20:00 12.7 C 10.58 g/m*3 12.7 C 0 km/h
366 11-06-2020 06:25:00 12.7 C 10.58 g/m*3 12.7 C 0 km/h
367 11-06-2020 06:30:00 12.8 C 10.64 g/m*3 12.8 C 0 km/h
368 11-06-2020 06:35:00 12.8 C 10.64 g/m*3 12.8 C 0 km/h
369 11-06-2020 06:40:00 12.8 C 10.64 g/m*3 12.8 C 0 km/h
370 11-06-2020 06:45:00 12.9 C 10.71 g/m*3 12.9 C 0 km/h
371 11-06-2020 06:50:00 13 C 10.77 g/m*3 13 C 0 km/h
372 11-06-2020 06:55:00 13.1 C 10.84 g/m*3 13.1 C 0 km/h
373 11-06-2020 07:00:00 13.1 C 10.84 g/m*3 13.1 C 0 km/h
374 11-06-2020 07:05:00 13.1 C 10.84 g/m*3 13.1 C 0 km/h
375 11-06-2020 07:10:00 13.2 C 10.91 g/m*3 13.2 C 1.6 km/h
Sensor: Nr:Datum:Temp:Abs-Feuchte:Windchill:Wind:
Aussen-T/F 376 11-06-2020 07:15:00 13.2 C 10.91 g/m*3 13.2 C 1.6 km/h
377 11-06-2020 07:20:00 13.3 C 11.09 g/m*3 13.3 C 0 km/h
378 11-06-2020 07:25:00 13.4 C 11.16 g/m*3 13.4 C 0 km/h
379 11-06-2020 07:30:00 13.4 C 11.04 g/m*3 13.4 C 0 km/h
380 11-06-2020 07:35:00 13.6 C 11.18 g/m*3 13.6 C 0 km/h
381 11-06-2020 07:40:00 13.6 C 11.3 g/m*3 13.6 C 0 km/h
382 11-06-2020 07:45:00 13.7 C 11.25 g/m*3 13.7 C 0 km/h
383 11-06-2020 07:50:00 13.7 C 11.25 g/m*3 13.7 C 0 km/h
384 11-06-2020 07:55:00 13.8 C 11.32 g/m*3 13.8 C 0 km/h
385 11-06-2020 08:00:00 13.8 C 11.32 g/m*3 13.8 C 0 km/h
386 11-06-2020 08:05:00 13.9 C 11.39 g/m*3 13.9 C 0 km/h
387 11-06-2020 08:10:00 13.9 C 11.39 g/m*3 13.9 C 0 km/h
388 11-06-2020 08:15:00 13.9 C 11.39 g/m*3 13.9 C 0 km/h
389 11-06-2020 08:20:00 14 C 11.46 g/m*3 14 C 0 km/h
390 11-06-2020 08:25:00 14 C 11.46 g/m*3 14 C 0 km/h
391 11-06-2020 08:30:00 14.1 C 11.41 g/m*3 14.1 C 0 km/h
392 11-06-2020 08:35:00 14.1 C 11.53 g/m*3 14.1 C 0 km/h
393 11-06-2020 08:40:00 14.2 C 11.6 g/m*3 14.2 C 0 km/h
394 11-06-2020 08:45:00 14.2 C 11.6 g/m*3 14.2 C 0 km/h
395 11-06-2020 08:50:00 14.2 C 11.48 g/m*3 14.2 C 0 km/h
396 11-06-2020 08:55:00 14.3 C 11.55 g/m*3 14.3 C 0 km/h
397 11-06-2020 09:00:00 14.4 C 11.62 g/m*3 14.4 C 0 km/h
398 11-06-2020 09:05:00 14.5 C 11.69 g/m*3 14.5 C 1.6 km/h
399 11-06-2020 09:10:00 14.6 C 11.76 g/m*3 14.6 C 0 km/h
400 11-06-2020 09:15:00 14.7 C 11.83 g/m*3 14.7 C 0 km/h
Sensor: Nr:Datum:Temp:Abs-Feuchte:Windchill:Wind:
Aussen-T/F 401 11-06-2020 09:20:00 14.9 C 11.98 g/m*3 14.9 C 1.6 km/h
402 11-06-2020 09:25:00 14.9 C 11.85 g/m*3 14.9 C 1.6 km/h
403 11-06-2020 09:30:00 14.8 C 11.78 g/m*3 14.8 C 4.8 km/h
404 11-06-2020 09:35:00 14.7 C 11.58 g/m*3 14.7 C 3.2 km/h
405 11-06-2020 09:40:00 14.7 C 11.58 g/m*3 14.7 C 1.6 km/h
406 11-06-2020 09:45:00 14.8 C 11.78 g/m*3 14.8 C 1.6 km/h
407 11-06-2020 09:50:00 14.9 C 11.85 g/m*3 14.9 C 0 km/h
408 11-06-2020 09:55:00 14.9 C 11.73 g/m*3 14.9 C 3.2 km/h
409 11-06-2020 10:00:00 15 C 11.8 g/m*3 15 C 0 km/h
410 11-06-2020 10:05:00 15.2 C 11.94 g/m*3 15.2 C 0 km/h
411 11-06-2020 10:10:00 15.2 C 11.94 g/m*3 15.2 C 1.6 km/h
412 11-06-2020 10:15:00 15.3 C 12.01 g/m*3 15.3 C 0 km/h
413 11-06-2020 10:20:00 15.3 C 11.88 g/m*3 15.3 C 1.6 km/h
414 11-06-2020 10:25:00 15.4 C 11.96 g/m*3 15.4 C 3.2 km/h
415 11-06-2020 10:30:00 15.6 C 12.1 g/m*3 15.6 C 3.2 km/h
416 11-06-2020 10:35:00 15.6 C 12.1 g/m*3 15.6 C 1.6 km/h
417 11-06-2020 10:40:00 15.7 C 12.18 g/m*3 15.7 C 1.6 km/h
418 11-06-2020 10:45:00 15.8 C 12.11 g/m*3 15.8 C 3.2 km/h
419 11-06-2020 10:50:00 15.9 C 12.19 g/m*3 15.9 C 1.6 km/h
420 11-06-2020 10:55:00 16 C 12.13 g/m*3 16 C 4.8 km/h
421 11-06-2020 11:00:00 16.2 C 12.41 g/m*3 16.2 C 4.8 km/h
422 11-06-2020 11:05:00 16.3 C 12.35 g/m*3 16.3 C 1.6 km/h
423 11-06-2020 11:10:00 16.6 C 12.57 g/m*3 16.6 C 1.6 km/h
424 11-06-2020 11:15:00 16.8 C 12.44 g/m*3 16.8 C 4.8 km/h
425 11-06-2020 11:20:00 16.9 C 12.37 g/m*3 16.9 C 3.2 km/h
Sensor: Nr:Datum:Temp:Abs-Feuchte:Windchill:Wind:
Aussen-T/F 426 11-06-2020 11:25:00 16.9 C 12.23 g/m*3 16.9 C 3.2 km/h
427 11-06-2020 11:30:00 17.1 C 12.37 g/m*3 17.1 C 4.8 km/h
428 11-06-2020 11:35:00 17.1 C 12.23 g/m*3 17.1 C 6.4 km/h
429 11-06-2020 11:40:00 17.2 C 12.15 g/m*3 17.2 C 4.8 km/h
430 11-06-2020 11:45:00 17.2 C 12.01 g/m*3 17.2 C 3.2 km/h
431 11-06-2020 11:50:00 17.3 C 12.08 g/m*3 17.3 C 6.4 km/h
432 11-06-2020 11:55:00 17.3 C 11.93 g/m*3 17.3 C 4.8 km/h
433 11-06-2020 12:00:00 17.1 C 11.79 g/m*3 17.1 C 4.8 km/h
434 11-06-2020 12:05:00 17 C 11.87 g/m*3 17 C 3.2 km/h
435 11-06-2020 12:10:00 17.1 C 11.94 g/m*3 17.1 C 4.8 km/h
436 11-06-2020 12:15:00 17.2 C 12.01 g/m*3 17.2 C 4.8 km/h
437 11-06-2020 12:20:00 17.3 C 11.79 g/m*3 17.3 C 4.8 km/h
438 11-06-2020 12:25:00 17.4 C 11.86 g/m*3 17.4 C 3.2 km/h
439 11-06-2020 12:30:00 17.6 C 12 g/m*3 17.6 C 4.8 km/h
440 11-06-2020 12:35:00 17.6 C 11.85 g/m*3 17.6 C 4.8 km/h
441 11-06-2020 12:40:00 17.7 C 11.77 g/m*3 17.7 C 4.8 km/h
442 11-06-2020 12:45:00 17.7 C 11.77 g/m*3 17.7 C 4.8 km/h
443 11-06-2020 12:50:00 17.8 C 11.99 g/m*3 17.8 C 1.6 km/h
444 11-06-2020 12:55:00 17.9 C 11.76 g/m*3 17.9 C 8.1 km/h
445 11-06-2020 13:00:00 18.2 C 12.12 g/m*3 18.2 C 4.8 km/h
446 11-06-2020 13:05:00 18.3 C 12.04 g/m*3 18.3 C 4.8 km/h
447 11-06-2020 13:10:00 18.2 C 11.81 g/m*3 18.2 C 8.1 km/h
448 11-06-2020 13:15:00 18.2 C 11.97 g/m*3 18.2 C 4.8 km/h
449 11-06-2020 13:20:00 18.2 C 11.81 g/m*3 18.2 C 6.4 km/h
450 11-06-2020 13:25:00 18.2 C 11.97 g/m*3 18.2 C 4.8 km/h
Sensor: Nr:Datum:Temp:Abs-Feuchte:Windchill:Wind:
Aussen-T/F 451 11-06-2020 13:30:00 18.3 C 11.88 g/m*3 18.3 C 6.4 km/h
452 11-06-2020 13:35:00 18.3 C 11.88 g/m*3 18.3 C 0 km/h
453 11-06-2020 13:40:00 18.5 C 11.87 g/m*3 18.5 C 8.1 km/h
454 11-06-2020 13:45:00 18.6 C 12.1 g/m*3 18.6 C 8.1 km/h
455 11-06-2020 13:50:00 18.8 C 12.08 g/m*3 18.8 C 4.8 km/h
456 11-06-2020 13:55:00 18.8 C 11.76 g/m*3 18.8 C 8.1 km/h
457 11-06-2020 14:00:00 18.8 C 11.6 g/m*3 18.8 C 9.7 km/h
458 11-06-2020 14:05:00 18.9 C 11.99 g/m*3 18.9 C 1.6 km/h
459 11-06-2020 14:10:00 19.1 C 11.97 g/m*3 19.1 C 4.8 km/h
460 11-06-2020 14:15:00 19.1 C 11.8 g/m*3 19.1 C 6.4 km/h
461 11-06-2020 14:20:00 19.2 C 11.87 g/m*3 19.2 C 8.1 km/h
462 11-06-2020 14:25:00 19.2 C 11.87 g/m*3 19.2 C 6.4 km/h
463 11-06-2020 14:30:00 19.4 C 11.68 g/m*3 19.4 C 8.1 km/h
464 11-06-2020 14:35:00 19.5 C 11.75 g/m*3 19.5 C 6.4 km/h
465 11-06-2020 14:40:00 19.6 C 11.82 g/m*3 19.6 C 9.7 km/h
466 11-06-2020 14:45:00 19.6 C 11.65 g/m*3 19.6 C 8.1 km/h
467 11-06-2020 14:50:00 19.6 C 11.65 g/m*3 19.6 C 9.7 km/h
468 11-06-2020 14:55:00 19.6 C 11.82 g/m*3 19.6 C 4.8 km/h
469 11-06-2020 15:00:00 19.5 C 11.58 g/m*3 19.5 C 6.4 km/h
470 11-06-2020 15:05:00 19.4 C 11.51 g/m*3 19.4 C 9.7 km/h
471 11-06-2020 15:10:00 19.1 C 11.31 g/m*3 19.1 C 6.4 km/h
472 11-06-2020 15:15:00 18.9 C 11.5 g/m*3 18.9 C 8.1 km/h
473 11-06-2020 15:20:00 18.8 C 12.08 g/m*3 18.8 C 0 km/h
474 11-06-2020 15:25:00 18.8 C 12.24 g/m*3 18.8 C 0 km/h
475 11-06-2020 15:30:00 18.8 C 12.72 g/m*3 18.8 C 1.6 km/h
Sensor: Nr:Datum:Temp:Abs-Feuchte:Windchill:Wind:
Aussen-T/F 476 11-06-2020 15:35:00 18.7 C 13.13 g/m*3 18.7 C 0 km/h
477 11-06-2020 15:40:00 18.4 C 12.58 g/m*3 18.4 C 3.2 km/h
478 11-06-2020 15:45:00 18.2 C 12.12 g/m*3 18.2 C 0 km/h
479 11-06-2020 15:50:00 18.1 C 11.9 g/m*3 18.1 C 0 km/h
480 11-06-2020 15:55:00 18.1 C 11.59 g/m*3 18.1 C 3.2 km/h
481 11-06-2020 16:00:00 18.2 C 11.5 g/m*3 18.2 C 4.8 km/h
482 11-06-2020 16:05:00 18.3 C 11.26 g/m*3 18.3 C 6.4 km/h
483 11-06-2020 16:10:00 18.6 C 11.14 g/m*3 18.6 C 6.4 km/h
484 11-06-2020 16:15:00 18.7 C 11.21 g/m*3 18.7 C 4.8 km/h
485 11-06-2020 16:20:00 18.8 C 10.95 g/m*3 18.8 C 6.4 km/h
486 11-06-2020 16:25:00 18.9 C 11.02 g/m*3 18.9 C 4.8 km/h
487 11-06-2020 16:30:00 19.1 C 10.98 g/m*3 19.1 C 4.8 km/h
488 11-06-2020 16:35:00 19.2 C 11.05 g/m*3 19.2 C 6.4 km/h
489 11-06-2020 16:40:00 19.4 C 10.84 g/m*3 19.4 C 6.4 km/h
490 11-06-2020 16:45:00 19.5 C 10.91 g/m*3 19.5 C 8.1 km/h
491 11-06-2020 16:50:00 19.6 C 10.97 g/m*3 19.6 C 6.4 km/h
492 11-06-2020 16:55:00 19.6 C 10.64 g/m*3 19.6 C 9.7 km/h
493 11-06-2020 17:00:00 19.4 C 10.84 g/m*3 19.4 C 8.1 km/h
494 11-06-2020 17:05:00 19.4 C 10.84 g/m*3 19.4 C 4.8 km/h
495 11-06-2020 17:10:00 19.3 C 10.95 g/m*3 19.3 C 8.1 km/h
496 11-06-2020 17:15:00 19.3 C 10.95 g/m*3 19.3 C 6.4 km/h
497 11-06-2020 17:20:00 19.2 C 11.05 g/m*3 19.2 C 6.4 km/h
498 11-06-2020 17:25:00 19.1 C 11.15 g/m*3 19.1 C 4.8 km/h
499 11-06-2020 17:30:00 19.1 C 11.31 g/m*3 19.1 C 3.2 km/h
500 11-06-2020 17:35:00 19.1 C 11.47 g/m*3 19.1 C 4.8 km/h
Sensor: Nr:Datum:Temp:Abs-Feuchte:Windchill:Wind:
Aussen-T/F 501 11-06-2020 17:40:00 19.1 C 11.31 g/m*3 19.1 C 4.8 km/h
502 11-06-2020 17:45:00 19 C 11.24 g/m*3 19 C 4.8 km/h
503 11-06-2020 17:50:00 19.1 C 12.13 g/m*3 19.1 C 0 km/h
504 11-06-2020 17:55:00 19.1 C 12.62 g/m*3 19.1 C 0 km/h
505 11-06-2020 18:00:00 19 C 12.55 g/m*3 19 C 0 km/h
506 11-06-2020 18:05:00 18.9 C 12.64 g/m*3 18.9 C 0 km/h
507 11-06-2020 18:10:00 18.7 C 12.33 g/m*3 18.7 C 3.2 km/h
508 11-06-2020 18:15:00 18.6 C 12.57 g/m*3 18.6 C 0 km/h
509 11-06-2020 18:20:00 18.4 C 12.58 g/m*3 18.4 C 0 km/h
510 11-06-2020 18:25:00 18.2 C 12.59 g/m*3 18.2 C 0 km/h
511 11-06-2020 18:30:00 18.1 C 12.36 g/m*3 18.1 C 0 km/h
512 11-06-2020 18:35:00 17.9 C 12.37 g/m*3 17.9 C 1.6 km/h
513 11-06-2020 18:40:00 17.8 C 12.45 g/m*3 17.8 C 0 km/h
514 11-06-2020 18:45:00 17.7 C 12.37 g/m*3 17.7 C 1.6 km/h
515 11-06-2020 18:50:00 17.7 C 12.52 g/m*3 17.7 C 1.6 km/h
516 11-06-2020 18:55:00 17.5 C 12.08 g/m*3 17.5 C 1.6 km/h
517 11-06-2020 19:00:00 17.6 C 12 g/m*3 17.6 C 4.8 km/h
518 11-06-2020 19:05:00 17.6 C 11.7 g/m*3 17.6 C 3.2 km/h
519 11-06-2020 19:10:00 17.6 C 11.7 g/m*3 17.6 C 1.6 km/h
520 11-06-2020 19:15:00 17.6 C 11.7 g/m*3 17.6 C 3.2 km/h
521 11-06-2020 19:20:00 17.7 C 11.62 g/m*3 17.7 C 4.8 km/h
522 11-06-2020 19:25:00 17.7 C 11.62 g/m*3 17.7 C 4.8 km/h
523 11-06-2020 19:30:00 17.7 C 11.77 g/m*3 17.7 C 3.2 km/h
524 11-06-2020 19:35:00 17.8 C 12.29 g/m*3 17.8 C 0 km/h
525 11-06-2020 19:40:00 17.8 C 12.45 g/m*3 17.8 C 0 km/h
Sensor: Nr:Datum:Temp:Abs-Feuchte:Windchill:Wind:
Aussen-T/F 526 11-06-2020 19:45:00 17.7 C 12.37 g/m*3 17.7 C 0 km/h
527 11-06-2020 19:50:00 17.6 C 12.45 g/m*3 17.6 C 0 km/h
528 11-06-2020 19:55:00 17.6 C 12.45 g/m*3 17.6 C 0 km/h
529 11-06-2020 20:00:00 17.4 C 12.3 g/m*3 17.4 C 0 km/h
530 11-06-2020 20:05:00 17.4 C 12.45 g/m*3 17.4 C 0 km/h
531 11-06-2020 20:10:00 17.3 C 12.37 g/m*3 17.3 C 0 km/h
532 11-06-2020 20:15:00 17.3 C 12.52 g/m*3 17.3 C 0 km/h
533 11-06-2020 20:20:00 17.2 C 12.45 g/m*3 17.2 C 0 km/h
534 11-06-2020 20:25:00 17.1 C 12.37 g/m*3 17.1 C 0 km/h
535 11-06-2020 20:30:00 17.1 C 12.37 g/m*3 17.1 C 0 km/h
536 11-06-2020 20:35:00 17.1 C 12.37 g/m*3 17.1 C 0 km/h
537 11-06-2020 20:40:00 17 C 12.44 g/m*3 17 C 0 km/h
538 11-06-2020 20:45:00 17 C 12.3 g/m*3 17 C 0 km/h
539 11-06-2020 20:50:00 16.9 C 12.23 g/m*3 16.9 C 0 km/h
540 11-06-2020 20:55:00 16.9 C 12.23 g/m*3 16.9 C 0 km/h
541 11-06-2020 21:00:00 16.8 C 12.15 g/m*3 16.8 C 0 km/h
542 11-06-2020 21:05:00 16.7 C 12.08 g/m*3 16.7 C 0 km/h
543 11-06-2020 21:10:00 16.5 C 11.94 g/m*3 16.5 C 0 km/h
544 11-06-2020 21:15:00 16.4 C 11.86 g/m*3 16.4 C 0 km/h
545 11-06-2020 21:20:00 16.2 C 11.72 g/m*3 16.2 C 0 km/h
546 11-06-2020 21:25:00 16 C 11.58 g/m*3 16 C 0 km/h
547 11-06-2020 21:30:00 15.8 C 11.58 g/m*3 15.8 C 0 km/h
548 11-06-2020 21:35:00 15.7 C 11.51 g/m*3 15.7 C 0 km/h
549 11-06-2020 21:40:00 15.6 C 11.57 g/m*3 15.6 C 0 km/h
550 11-06-2020 21:45:00 15.3 C 11.36 g/m*3 15.3 C 0 km/h
Sensor: Nr:Datum:Temp:Abs-Feuchte:Windchill:Wind:
Aussen-T/F 551 11-06-2020 21:50:00 15.2 C 11.29 g/m*3 15.2 C 0 km/h
552 11-06-2020 21:55:00 15 C 11.16 g/m*3 15 C 0 km/h
553 11-06-2020 22:00:00 14.8 C 11.15 g/m*3 14.8 C 1.6 km/h
554 11-06-2020 22:05:00 14.7 C 11.08 g/m*3 14.7 C 1.6 km/h
555 11-06-2020 22:10:00 14.6 C 11.01 g/m*3 14.6 C 1.6 km/h
556 11-06-2020 22:15:00 14.5 C 10.94 g/m*3 14.5 C 0 km/h
557 11-06-2020 22:20:00 14.4 C 11 g/m*3 14.4 C 4.8 km/h
558 11-06-2020 22:25:00 14.3 C 10.93 g/m*3 14.3 C 0 km/h
559 11-06-2020 22:30:00 14.2 C 10.87 g/m*3 14.2 C 0 km/h
560 11-06-2020 22:35:00 14.1 C 10.92 g/m*3 14.1 C 1.6 km/h
561 11-06-2020 22:40:00 14 C 10.86 g/m*3 14 C 1.6 km/h
562 11-06-2020 22:45:00 13.9 C 10.79 g/m*3 13.9 C 1.6 km/h
563 11-06-2020 22:50:00 13.8 C 10.72 g/m*3 13.8 C 4.8 km/h
564 11-06-2020 22:55:00 13.8 C 10.84 g/m*3 13.8 C 1.6 km/h
565 11-06-2020 23:00:00 13.7 C 10.78 g/m*3 13.7 C 6.4 km/h
566 11-06-2020 23:05:00 13.7 C 10.78 g/m*3 13.7 C 1.6 km/h
567 11-06-2020 23:10:00 13.7 C 10.78 g/m*3 13.7 C 0 km/h
568 11-06-2020 23:15:00 13.6 C 10.71 g/m*3 13.6 C 0 km/h
569 11-06-2020 23:20:00 13.4 C 10.58 g/m*3 13.4 C 0 km/h
570 11-06-2020 23:25:00 13.3 C 10.63 g/m*3 13.3 C 0 km/h
571 11-06-2020 23:30:00 13.3 C 10.63 g/m*3 13.3 C 0 km/h
572 11-06-2020 23:35:00 13.3 C 10.63 g/m*3 13.3 C 0 km/h
573 11-06-2020 23:40:00 13.2 C 10.56 g/m*3 13.2 C 0 km/h
574 11-06-2020 23:45:00 13.1 C 10.5 g/m*3 13.1 C 0 km/h
575 11-06-2020 23:50:00 13.1 C 10.5 g/m*3 13.1 C 0 km/h
Sensor: Nr:Datum:Temp:Abs-Feuchte:Windchill:Wind:
Aussen-T/F 576 11-06-2020 23:55:00 12.9 C 10.37 g/m*3 12.9 C 0 km/h
577 12-06-2020 00:00:00 12.8 C 10.3 g/m*3 12.8 C 0 km/h
578 12-06-2020 00:05:00 12.8 C 10.42 g/m*3 12.8 C 0 km/h
579 12-06-2020 00:10:00 12.7 C 10.24 g/m*3 12.7 C 0 km/h
580 12-06-2020 00:15:00 12.6 C 10.29 g/m*3 12.6 C 0 km/h
581 12-06-2020 00:20:00 12.5 C 10.22 g/m*3 12.5 C 0 km/h
582 12-06-2020 00:25:00 12.4 C 10.16 g/m*3 12.4 C 0 km/h
583 12-06-2020 00:30:00 12.4 C 10.16 g/m*3 12.4 C 0 km/h
584 12-06-2020 00:35:00 12.3 C 10.1 g/m*3 12.3 C 0 km/h
585 12-06-2020 00:40:00 12.3 C 10.21 g/m*3 12.3 C 0 km/h
586 12-06-2020 00:45:00 12.3 C 10.21 g/m*3 12.3 C 0 km/h
587 12-06-2020 00:50:00 12.2 C 10.04 g/m*3 12.2 C 0 km/h
588 12-06-2020 00:55:00 12.1 C 9.97 g/m*3 12.1 C 0 km/h
589 12-06-2020 01:00:00 12 C 10.02 g/m*3 12 C 0 km/h
590 12-06-2020 01:05:00 11.9 C 9.96 g/m*3 11.9 C 0 km/h
591 12-06-2020 01:10:00 11.8 C 9.89 g/m*3 11.8 C 0 km/h
592 12-06-2020 01:15:00 11.8 C 9.89 g/m*3 11.8 C 0 km/h
593 12-06-2020 01:20:00 11.8 C 9.89 g/m*3 11.8 C 0 km/h
594 12-06-2020 01:25:00 11.7 C 9.83 g/m*3 11.7 C 0 km/h
595 12-06-2020 01:30:00 11.7 C 9.83 g/m*3 11.7 C 0 km/h
596 12-06-2020 01:35:00 11.7 C 9.83 g/m*3 11.7 C 0 km/h
597 12-06-2020 01:40:00 11.7 C 9.83 g/m*3 11.7 C 0 km/h
598 12-06-2020 01:45:00 11.6 C 9.77 g/m*3 11.6 C 0 km/h
599 12-06-2020 01:50:00 11.6 C 9.77 g/m*3 11.6 C 0 km/h
600 12-06-2020 01:55:00 11.5 C 9.71 g/m*3 11.5 C 0 km/h
Sensor: Nr:Datum:Temp:Abs-Feuchte:Windchill:Wind:
Aussen-T/F 601 12-06-2020 02:00:00 11.4 C 9.75 g/m*3 11.4 C 0 km/h
602 12-06-2020 02:05:00 11.4 C 9.75 g/m*3 11.4 C 0 km/h
603 12-06-2020 02:10:00 11.3 C 9.59 g/m*3 11.3 C 0 km/h
604 12-06-2020 02:15:00 11.3 C 9.69 g/m*3 11.3 C 0 km/h
605 12-06-2020 02:20:00 11.3 C 9.69 g/m*3 11.3 C 0 km/h
606 12-06-2020 02:25:00 11.3 C 9.69 g/m*3 11.3 C 0 km/h
607 12-06-2020 02:30:00 11.2 C 9.63 g/m*3 11.2 C 0 km/h
608 12-06-2020 02:35:00 11.2 C 9.63 g/m*3 11.2 C 0 km/h
609 12-06-2020 02:40:00 11.1 C 9.57 g/m*3 11.1 C 0 km/h
610 12-06-2020 02:45:00 11 C 9.51 g/m*3 11 C 0 km/h
611 12-06-2020 02:50:00 11 C 9.51 g/m*3 11 C 0 km/h
612 12-06-2020 02:55:00 10.9 C 9.45 g/m*3 10.9 C 0 km/h
613 12-06-2020 03:00:00 10.8 C 9.39 g/m*3 10.8 C 0 km/h
614 12-06-2020 03:05:00 10.8 C 9.39 g/m*3 10.8 C 0 km/h
615 12-06-2020 03:10:00 10.7 C 9.33 g/m*3 10.7 C 0 km/h
616 12-06-2020 03:15:00 10.7 C 9.33 g/m*3 10.7 C 0 km/h
617 12-06-2020 03:20:00 10.7 C 9.33 g/m*3 10.7 C 0 km/h
618 12-06-2020 03:25:00 10.6 C 9.27 g/m*3 10.6 C 0 km/h
619 12-06-2020 03:30:00 10.6 C 9.27 g/m*3 10.6 C 0 km/h
620 12-06-2020 03:35:00 10.6 C 9.27 g/m*3 10.6 C 0 km/h
621 12-06-2020 03:40:00 10.6 C 9.27 g/m*3 10.6 C 0 km/h
622 12-06-2020 03:45:00 10.5 C 9.21 g/m*3 10.5 C 0 km/h
623 12-06-2020 03:50:00 10.4 C 9.16 g/m*3 10.4 C 0 km/h
624 12-06-2020 03:55:00 10.4 C 9.16 g/m*3 10.4 C 0 km/h
625 12-06-2020 04:00:00 10.4 C 9.16 g/m*3 10.4 C 0 km/h
Sensor: Nr:Datum:Temp:Abs-Feuchte:Windchill:Wind:
Aussen-T/F 626 12-06-2020 04:05:00 10.3 C 9.1 g/m*3 10.3 C 0 km/h
627 12-06-2020 04:10:00 10.3 C 9.1 g/m*3 10.3 C 0 km/h
628 12-06-2020 04:15:00 10.3 C 9.19 g/m*3 10.3 C 0 km/h
629 12-06-2020 04:20:00 10.3 C 9.19 g/m*3 10.3 C 0 km/h
630 12-06-2020 04:25:00 10.4 C 9.25 g/m*3 10.4 C 0 km/h
631 12-06-2020 04:30:00 10.4 C 9.25 g/m*3 10.4 C 0 km/h
632 12-06-2020 04:35:00 10.4 C 9.25 g/m*3 10.4 C 0 km/h
633 12-06-2020 04:40:00 10.3 C 9.19 g/m*3 10.3 C 0 km/h
634 12-06-2020 04:45:00 10.3 C 9.19 g/m*3 10.3 C 0 km/h
635 12-06-2020 04:50:00 10.3 C 9.19 g/m*3 10.3 C 0 km/h
636 12-06-2020 04:55:00 10.4 C 9.25 g/m*3 10.4 C 0 km/h
637 12-06-2020 05:00:00 10.4 C 9.25 g/m*3 10.4 C 0 km/h
638 12-06-2020 05:05:00 10.5 C 9.31 g/m*3 10.5 C 0 km/h
639 12-06-2020 05:10:00 10.6 C 9.37 g/m*3 10.6 C 0 km/h
640 12-06-2020 05:15:00 10.7 C 9.43 g/m*3 10.7 C 0 km/h
641 12-06-2020 05:20:00 10.7 C 9.43 g/m*3 10.7 C 0 km/h
642 12-06-2020 05:25:00 10.8 C 9.49 g/m*3 10.8 C 0 km/h
643 12-06-2020 05:30:00 10.8 C 9.49 g/m*3 10.8 C 0 km/h
644 12-06-2020 05:35:00 10.8 C 9.49 g/m*3 10.8 C 0 km/h
645 12-06-2020 05:40:00 10.9 C 9.55 g/m*3 10.9 C 0 km/h
646 12-06-2020 05:45:00 11 C 9.61 g/m*3 11 C 0 km/h
647 12-06-2020 05:50:00 11.2 C 9.83 g/m*3 11.2 C 0 km/h
648 12-06-2020 05:55:00 11.3 C 9.89 g/m*3 11.3 C 0 km/h
649 12-06-2020 06:00:00 11.4 C 9.96 g/m*3 11.4 C 0 km/h
650 12-06-2020 06:05:00 11.6 C 10.08 g/m*3 11.6 C 0 km/h
Sensor: Nr:Datum:Temp:Abs-Feuchte:Windchill:Wind:
Aussen-T/F 651 12-06-2020 06:10:00 11.6 C 10.08 g/m*3 11.6 C 0 km/h
652 12-06-2020 06:15:00 11.6 C 10.08 g/m*3 11.6 C 0 km/h
653 12-06-2020 06:20:00 11.6 C 10.08 g/m*3 11.6 C 1.6 km/h
654 12-06-2020 06:25:00 11.7 C 10.15 g/m*3 11.7 C 1.6 km/h
655 12-06-2020 06:30:00 11.8 C 10.21 g/m*3 11.8 C 0 km/h
656 12-06-2020 06:35:00 11.8 C 10.21 g/m*3 11.8 C 4.8 km/h
657 12-06-2020 06:40:00 11.9 C 10.27 g/m*3 11.9 C 4.8 km/h
658 12-06-2020 06:45:00 11.9 C 10.27 g/m*3 11.9 C 0 km/h
659 12-06-2020 06:50:00 12 C 10.34 g/m*3 12 C 1.6 km/h
660 12-06-2020 06:55:00 12 C 10.34 g/m*3 12 C 0 km/h
661 12-06-2020 07:00:00 12.1 C 10.4 g/m*3 12.1 C 0 km/h
662 12-06-2020 07:05:00 12.2 C 10.47 g/m*3 12.2 C 0 km/h
663 12-06-2020 07:10:00 12.2 C 10.47 g/m*3 12.2 C 0 km/h
664 12-06-2020 07:15:00 12.3 C 10.53 g/m*3 12.3 C 1.6 km/h
665 12-06-2020 07:20:00 12.3 C 10.53 g/m*3 12.3 C 0 km/h
666 12-06-2020 07:25:00 12.5 C 10.66 g/m*3 12.5 C 0 km/h
667 12-06-2020 07:30:00 12.6 C 10.73 g/m*3 12.6 C 0 km/h
668 12-06-2020 07:35:00 12.7 C 10.8 g/m*3 12.7 C 0 km/h
669 12-06-2020 07:40:00 12.7 C 10.8 g/m*3 12.7 C 0 km/h
670 12-06-2020 07:45:00 12.8 C 10.87 g/m*3 12.8 C 0 km/h
671 12-06-2020 07:50:00 12.8 C 10.87 g/m*3 12.8 C 0 km/h
672 12-06-2020 07:55:00 13 C 11 g/m*3 13 C 0 km/h
673 12-06-2020 08:00:00 13.2 C 11.14 g/m*3 13.2 C 0 km/h
674 12-06-2020 08:05:00 13.2 C 11.14 g/m*3 13.2 C 0 km/h
675 12-06-2020 08:10:00 13.3 C 11.21 g/m*3 13.3 C 0 km/h
Sensor: Nr:Datum:Temp:Abs-Feuchte:Windchill:Wind:
Aussen-T/F 676 12-06-2020 08:15:00 13.4 C 11.28 g/m*3 13.4 C 1.6 km/h
677 12-06-2020 08:20:00 13.6 C 11.42 g/m*3 13.6 C 1.6 km/h
678 12-06-2020 08:25:00 13.7 C 11.49 g/m*3 13.7 C 3.2 km/h
679 12-06-2020 08:30:00 13.8 C 11.56 g/m*3 13.8 C 1.6 km/h
680 12-06-2020 08:35:00 14 C 11.7 g/m*3 14 C 3.2 km/h
681 12-06-2020 08:40:00 14.1 C 11.77 g/m*3 14.1 C 1.6 km/h
682 12-06-2020 08:45:00 14.3 C 11.92 g/m*3 14.3 C 1.6 km/h
683 12-06-2020 08:50:00 14.5 C 12.06 g/m*3 14.5 C 3.2 km/h
684 12-06-2020 08:55:00 14.7 C 12.09 g/m*3 14.7 C 4.8 km/h
685 12-06-2020 09:00:00 14.8 C 12.16 g/m*3 14.8 C 4.8 km/h
686 12-06-2020 09:05:00 15.1 C 12.39 g/m*3 15.1 C 8.1 km/h
687 12-06-2020 09:10:00 15.3 C 12.41 g/m*3 15.3 C 8.1 km/h
688 12-06-2020 09:15:00 15.6 C 12.5 g/m*3 15.6 C 6.4 km/h
689 12-06-2020 09:20:00 15.8 C 12.52 g/m*3 15.8 C 8.1 km/h
690 12-06-2020 09:25:00 16 C 12.53 g/m*3 16 C 6.4 km/h
691 12-06-2020 09:30:00 16.2 C 12.41 g/m*3 16.2 C 11.3 km/h
692 12-06-2020 09:35:00 16.4 C 12.42 g/m*3 16.4 C 9.7 km/h
693 12-06-2020 09:40:00 16.7 C 12.65 g/m*3 16.7 C 8.1 km/h
694 12-06-2020 09:45:00 16.8 C 12.58 g/m*3 16.8 C 3.2 km/h
695 12-06-2020 09:50:00 16.9 C 12.51 g/m*3 16.9 C 6.4 km/h
696 12-06-2020 09:55:00 17.2 C 12.74 g/m*3 17.2 C 9.7 km/h
697 12-06-2020 10:00:00 17.3 C 12.67 g/m*3 17.3 C 9.7 km/h
698 12-06-2020 10:05:00 17.3 C 12.67 g/m*3 17.3 C 8.1 km/h
699 12-06-2020 10:10:00 17.4 C 12.6 g/m*3 17.4 C 9.7 km/h
700 12-06-2020 10:15:00 17.7 C 12.82 g/m*3 17.7 C 17.7 km/h
Sensor: Nr:Datum:Temp:Abs-Feuchte:Windchill:Wind:
Aussen-T/F 701 12-06-2020 10:20:00 17.8 C 12.75 g/m*3 17.8 C 16.1 km/h
702 12-06-2020 10:25:00 17.9 C 12.83 g/m*3 17.9 C 12.9 km/h
703 12-06-2020 10:30:00 18.2 C 12.9 g/m*3 18.2 C 14.5 km/h
704 12-06-2020 10:35:00 18.3 C 12.82 g/m*3 18.3 C 8.1 km/h
705 12-06-2020 10:40:00 18.6 C 13.05 g/m*3 18.6 C 11.3 km/h
706 12-06-2020 10:45:00 18.8 C 13.05 g/m*3 18.8 C 9.7 km/h
707 12-06-2020 10:50:00 19.1 C 13.11 g/m*3 19.1 C 6.4 km/h
708 12-06-2020 10:55:00 19.3 C 13.27 g/m*3 19.3 C 11.3 km/h
709 12-06-2020 11:00:00 19.4 C 13.18 g/m*3 19.4 C 9.7 km/h
710 12-06-2020 11:05:00 19.6 C 13.34 g/m*3 19.6 C 6.4 km/h
711 12-06-2020 11:10:00 19.8 C 13.32 g/m*3 19.8 C 9.7 km/h
712 12-06-2020 11:15:00 19.9 C 13.57 g/m*3 19.9 C 4.8 km/h
713 12-06-2020 11:20:00 20.1 C 13.39 g/m*3 20.1 C 12.9 km/h
714 12-06-2020 11:25:00 20.3 C 13.54 g/m*3 20.3 C 12.9 km/h
715 12-06-2020 11:30:00 20.6 C 13.42 g/m*3 20.6 C 9.7 km/h
716 12-06-2020 11:35:00 20.7 C 13.5 g/m*3 20.7 C 11.3 km/h
717 12-06-2020 11:40:00 20.9 C 13.66 g/m*3 20.9 C 9.7 km/h
718 12-06-2020 11:45:00 21.1 C 13.63 g/m*3 21.1 C 4.8 km/h
719 12-06-2020 11:50:00 21.2 C 13.71 g/m*3 21.2 C 8.1 km/h
720 12-06-2020 11:55:00 21.4 C 13.87 g/m*3 21.4 C 0 km/h
721 12-06-2020 12:00:00 21.6 C 13.66 g/m*3 21.6 C 9.7 km/h
722 12-06-2020 12:05:00 21.7 C 13.73 g/m*3 21.7 C 14.5 km/h
723 12-06-2020 12:10:00 21.8 C 13.81 g/m*3 21.8 C 9.7 km/h
724 12-06-2020 12:15:00 21.8 C 13.81 g/m*3 21.8 C 9.7 km/h
725 12-06-2020 12:20:00 21.9 C 13.89 g/m*3 21.9 C 8.1 km/h
Sensor: Nr:Datum:Temp:Abs-Feuchte:Windchill:Wind:
Aussen-T/F 726 12-06-2020 12:25:00 22.2 C 13.74 g/m*3 22.2 C 9.7 km/h
727 12-06-2020 12:30:00 22.4 C 14.1 g/m*3 22.4 C 9.7 km/h
728 12-06-2020 12:35:00 22.6 C 14.06 g/m*3 22.6 C 4.8 km/h
729 12-06-2020 12:40:00 22.8 C 14.02 g/m*3 22.8 C 6.4 km/h
730 12-06-2020 12:45:00 22.9 C 13.9 g/m*3 22.9 C 14.5 km/h
731 12-06-2020 12:50:00 23.1 C 14.06 g/m*3 23.1 C 16.1 km/h
732 12-06-2020 12:55:00 23.3 C 14.22 g/m*3 23.3 C 8.1 km/h
733 12-06-2020 13:00:00 23.5 C 14.38 g/m*3 23.5 C 9.7 km/h
734 12-06-2020 13:05:00 23.7 C 14.33 g/m*3 23.7 C 9.7 km/h
735 12-06-2020 13:10:00 23.9 C 14.28 g/m*3 23.9 C 6.4 km/h
736 12-06-2020 13:15:00 24 C 13.49 g/m*3 24 C 12.9 km/h
737 12-06-2020 13:20:00 24.2 C 13.64 g/m*3 24.2 C 11.3 km/h
738 12-06-2020 13:25:00 24.3 C 12.83 g/m*3 24.3 C 8.1 km/h
739 12-06-2020 13:30:00 24.6 C 12.6 g/m*3 24.6 C 11.3 km/h
740 12-06-2020 13:35:00 24.8 C 12.75 g/m*3 24.8 C 11.3 km/h
741 12-06-2020 13:40:00 24.9 C 12.36 g/m*3 24.9 C 11.3 km/h
742 12-06-2020 13:45:00 25.2 C 12.11 g/m*3 25.2 C 19.3 km/h
743 12-06-2020 13:50:00 25.3 C 12.17 g/m*3 25.3 C 19.3 km/h
744 12-06-2020 13:55:00 25.4 C 12.48 g/m*3 25.4 C 12.9 km/h
745 12-06-2020 14:00:00 25.4 C 12.24 g/m*3 25.4 C 12.9 km/h
746 12-06-2020 14:05:00 25.7 C 12.21 g/m*3 25.7 C 16.1 km/h
747 12-06-2020 14:10:00 25.8 C 12.04 g/m*3 25.8 C 12.9 km/h
748 12-06-2020 14:15:00 25.9 C 11.86 g/m*3 25.9 C 8.1 km/h
749 12-06-2020 14:20:00 26 C 12.17 g/m*3 26 C 16.1 km/h
750 12-06-2020 14:25:00 26.1 C 12.24 g/m*3 26.1 C 8.1 km/h
Sensor: Nr:Datum:Temp:Abs-Feuchte:Windchill:Wind:
Aussen-T/F 751 12-06-2020 14:30:00 26.2 C 12.31 g/m*3 26.2 C 8.1 km/h
752 12-06-2020 14:35:00 26.3 C 12.87 g/m*3 26.3 C 8.1 km/h
753 12-06-2020 14:40:00 26.4 C 12.45 g/m*3 26.4 C 8.1 km/h
754 12-06-2020 14:45:00 26.7 C 12.15 g/m*3 26.7 C 14.5 km/h
755 12-06-2020 14:50:00 26.8 C 11.96 g/m*3 26.8 C 6.4 km/h
756 12-06-2020 14:55:00 26.9 C 12.03 g/m*3 26.9 C 11.3 km/h
757 12-06-2020 15:00:00 27.1 C 12.16 g/m*3 27.1 C 17.7 km/h
758 12-06-2020 15:05:00 27.3 C 12.04 g/m*3 27.3 C 11.3 km/h
759 12-06-2020 15:10:00 27.5 C 11.64 g/m*3 27.5 C 16.1 km/h
760 12-06-2020 15:15:00 27.4 C 11.84 g/m*3 27.4 C 17.7 km/h
761 12-06-2020 15:20:00 27.4 C 11.58 g/m*3 27.4 C 12.9 km/h
762 12-06-2020 15:25:00 27.5 C 12.17 g/m*3 27.5 C 14.5 km/h
763 12-06-2020 15:30:00 27.7 C 11.77 g/m*3 27.7 C 11.3 km/h
764 12-06-2020 15:35:00 27.8 C 11.83 g/m*3 27.8 C 12.9 km/h
765 12-06-2020 15:40:00 28.1 C 12.03 g/m*3 28.1 C 11.3 km/h
766 12-06-2020 15:45:00 28.5 C 11.74 g/m*3 28.5 C 9.7 km/h
767 12-06-2020 15:50:00 28.7 C 11.59 g/m*3 28.7 C 12.9 km/h
768 12-06-2020 15:55:00 28.9 C 11.71 g/m*3 28.9 C 8.1 km/h
769 12-06-2020 16:00:00 29.2 C 11.61 g/m*3 29.2 C 12.9 km/h
770 12-06-2020 16:05:00 29.1 C 11.55 g/m*3 29.1 C 14.5 km/h
771 12-06-2020 16:10:00 29.3 C 11.09 g/m*3 29.3 C 4.8 km/h
772 12-06-2020 16:15:00 29.7 C 11.34 g/m*3 29.7 C 14.5 km/h
773 12-06-2020 16:20:00 29.8 C 12.9 g/m*3 29.8 C 9.7 km/h
774 12-06-2020 16:25:00 30.1 C 11.59 g/m*3 30.1 C 8.1 km/h
775 12-06-2020 16:30:00 29.9 C 11.46 g/m*3 29.9 C 11.3 km/h
Sensor: Nr:Datum:Temp:Abs-Feuchte:Windchill:Wind:
Aussen-T/F 776 12-06-2020 16:35:00 29.9 C 12.06 g/m*3 29.9 C 9.7 km/h
777 12-06-2020 16:40:00 30.2 C 11.65 g/m*3 30.2 C 11.3 km/h
778 12-06-2020 16:45:00 30.1 C 11.59 g/m*3 30.1 C 12.9 km/h
779 12-06-2020 16:50:00 29.6 C 11.28 g/m*3 29.6 C 12.9 km/h
780 12-06-2020 16:55:00 29.4 C 11.45 g/m*3 29.4 C 16.1 km/h
781 12-06-2020 17:00:00 29.4 C 11.45 g/m*3 29.4 C 12.9 km/h
782 12-06-2020 17:05:00 29.4 C 11.15 g/m*3 29.4 C 17.7 km/h
783 12-06-2020 17:10:00 29.3 C 10.8 g/m*3 29.3 C 14.5 km/h
784 12-06-2020 17:15:00 29.2 C 11.61 g/m*3 29.2 C 9.7 km/h
785 12-06-2020 17:20:00 29.4 C 11.45 g/m*3 29.4 C 9.7 km/h
786 12-06-2020 17:25:00 29.3 C 11.68 g/m*3 29.3 C 6.4 km/h
787 12-06-2020 17:30:00 29.5 C 11.81 g/m*3 29.5 C 11.3 km/h
788 12-06-2020 17:35:00 29.7 C 11.64 g/m*3 29.7 C 14.5 km/h
789 12-06-2020 17:40:00 29.6 C 10.98 g/m*3 29.6 C 14.5 km/h
790 12-06-2020 17:45:00 29.6 C 11.28 g/m*3 29.6 C 17.7 km/h
791 12-06-2020 17:50:00 29.8 C 11.1 g/m*3 29.8 C 8.1 km/h
792 12-06-2020 17:55:00 29.8 C 11.4 g/m*3 29.8 C 12.9 km/h
793 12-06-2020 18:00:00 29.8 C 11.4 g/m*3 29.8 C 14.5 km/h
794 12-06-2020 18:05:00 29.4 C 11.15 g/m*3 29.4 C 11.3 km/h
795 12-06-2020 18:10:00 29.4 C 11.45 g/m*3 29.4 C 8.1 km/h
796 12-06-2020 18:15:00 29.6 C 11.28 g/m*3 29.6 C 12.9 km/h
797 12-06-2020 18:20:00 29.6 C 11.28 g/m*3 29.6 C 14.5 km/h
798 12-06-2020 18:25:00 29.2 C 11.32 g/m*3 29.2 C 11.3 km/h
799 12-06-2020 18:30:00 29.1 C 11.26 g/m*3 29.1 C 11.3 km/h
800 12-06-2020 18:35:00 29.3 C 11.09 g/m*3 29.3 C 8.1 km/h
Sensor: Nr:Datum:Temp:Abs-Feuchte:Windchill:Wind:
Aussen-T/F 801 12-06-2020 18:40:00 29.7 C 11.64 g/m*3 29.7 C 8.1 km/h
802 12-06-2020 18:45:00 30.1 C 11.89 g/m*3 30.1 C 6.4 km/h
803 12-06-2020 18:50:00 30.2 C 11.65 g/m*3 30.2 C 12.9 km/h
804 12-06-2020 18:55:00 29.7 C 11.34 g/m*3 29.7 C 9.7 km/h
805 12-06-2020 19:00:00 29.1 C 11.55 g/m*3 29.1 C 8.1 km/h
806 12-06-2020 19:05:00 28.7 C 12.15 g/m*3 28.7 C 6.4 km/h
807 12-06-2020 19:10:00 28.5 C 11.74 g/m*3 28.5 C 1.6 km/h
808 12-06-2020 19:15:00 28.4 C 11.95 g/m*3 28.4 C 8.1 km/h
809 12-06-2020 19:20:00 28.4 C 11.67 g/m*3 28.4 C 6.4 km/h
810 12-06-2020 19:25:00 28.4 C 11.95 g/m*3 28.4 C 6.4 km/h
811 12-06-2020 19:30:00 28.5 C 11.74 g/m*3 28.5 C 9.7 km/h
812 12-06-2020 19:35:00 28.3 C 11.89 g/m*3 28.3 C 9.7 km/h
813 12-06-2020 19:40:00 28.1 C 13.4 g/m*3 28.1 C 3.2 km/h
814 12-06-2020 19:45:00 27.9 C 11.9 g/m*3 27.9 C 6.4 km/h
815 12-06-2020 19:50:00 27.8 C 12.1 g/m*3 27.8 C 9.7 km/h
816 12-06-2020 19:55:00 27.7 C 12.3 g/m*3 27.7 C 6.4 km/h
817 12-06-2020 20:00:00 27.8 C 14.26 g/m*3 27.8 C 4.8 km/h
818 12-06-2020 20:05:00 27.9 C 12.44 g/m*3 27.9 C 6.4 km/h
819 12-06-2020 20:10:00 27.9 C 12.17 g/m*3 27.9 C 4.8 km/h
820 12-06-2020 20:15:00 27.9 C 12.98 g/m*3 27.9 C 4.8 km/h
821 12-06-2020 20:20:00 27.9 C 14.6 g/m*3 27.9 C 3.2 km/h
822 12-06-2020 20:25:00 27.8 C 14.52 g/m*3 27.8 C 4.8 km/h
823 12-06-2020 20:30:00 27.3 C 13.61 g/m*3 27.3 C 4.8 km/h
824 12-06-2020 20:35:00 26.8 C 14.25 g/m*3 26.8 C 3.2 km/h
825 12-06-2020 20:40:00 26.3 C 14.11 g/m*3 26.3 C 3.2 km/h
Sensor: Nr:Datum:Temp:Abs-Feuchte:Windchill:Wind:
Aussen-T/F 826 12-06-2020 20:45:00 25.7 C 13.89 g/m*3 25.7 C 4.8 km/h
827 12-06-2020 20:50:00 25 C 13.81 g/m*3 25 C 6.4 km/h
828 12-06-2020 20:55:00 24.4 C 13.58 g/m*3 24.4 C 3.2 km/h
829 12-06-2020 21:00:00 23.9 C 13.41 g/m*3 23.9 C 4.8 km/h
830 12-06-2020 21:05:00 23.5 C 13.32 g/m*3 23.5 C 4.8 km/h
831 12-06-2020 21:10:00 23.1 C 13.23 g/m*3 23.1 C 6.4 km/h
832 12-06-2020 21:15:00 22.8 C 13.21 g/m*3 22.8 C 8.1 km/h
833 12-06-2020 21:20:00 22.5 C 13.18 g/m*3 22.5 C 8.1 km/h
834 12-06-2020 21:25:00 22.3 C 13.23 g/m*3 22.3 C 8.1 km/h
835 12-06-2020 21:30:00 22.1 C 13.27 g/m*3 22.1 C 4.8 km/h
836 12-06-2020 21:35:00 21.9 C 13.31 g/m*3 21.9 C 4.8 km/h
837 12-06-2020 21:40:00 21.7 C 13.16 g/m*3 21.7 C 0 km/h
838 12-06-2020 21:45:00 21.5 C 13.01 g/m*3 21.5 C 1.6 km/h
839 12-06-2020 21:50:00 21.3 C 12.86 g/m*3 21.3 C 6.4 km/h
840 12-06-2020 21:55:00 21.2 C 12.97 g/m*3 21.2 C 6.4 km/h
841 12-06-2020 22:00:00 21.1 C 12.9 g/m*3 21.1 C 4.8 km/h
842 12-06-2020 22:05:00 20.9 C 12.93 g/m*3 20.9 C 6.4 km/h
843 12-06-2020 22:10:00 20.8 C 13.04 g/m*3 20.8 C 4.8 km/h
844 12-06-2020 22:15:00 20.7 C 13.14 g/m*3 20.7 C 6.4 km/h
845 12-06-2020 22:20:00 20.5 C 12.99 g/m*3 20.5 C 4.8 km/h
846 12-06-2020 22:25:00 20.4 C 12.91 g/m*3 20.4 C 8.1 km/h
847 12-06-2020 22:30:00 20.3 C 12.84 g/m*3 20.3 C 6.4 km/h
848 12-06-2020 22:35:00 20.1 C 12.69 g/m*3 20.1 C 4.8 km/h
849 12-06-2020 22:40:00 20.1 C 13.04 g/m*3 20.1 C 3.2 km/h
850 12-06-2020 22:45:00 19.9 C 12.89 g/m*3 19.9 C 0 km/h
Sensor: Nr:Datum:Temp:Abs-Feuchte:Windchill:Wind:
Aussen-T/F 851 12-06-2020 22:50:00 19.8 C 12.98 g/m*3 19.8 C 0 km/h
852 12-06-2020 22:55:00 19.7 C 12.91 g/m*3 19.7 C 0 km/h
853 12-06-2020 23:00:00 19.4 C 12.85 g/m*3 19.4 C 0 km/h
854 12-06-2020 23:05:00 19.3 C 12.94 g/m*3 19.3 C 3.2 km/h
855 12-06-2020 23:10:00 19.2 C 12.7 g/m*3 19.2 C 6.4 km/h
856 12-06-2020 23:15:00 19.1 C 12.95 g/m*3 19.1 C 3.2 km/h
857 12-06-2020 23:20:00 18.9 C 12.8 g/m*3 18.9 C 1.6 km/h
858 12-06-2020 23:25:00 18.8 C 12.88 g/m*3 18.8 C 0 km/h
859 12-06-2020 23:30:00 18.7 C 12.81 g/m*3 18.7 C 0 km/h
860 12-06-2020 23:35:00 18.6 C 12.89 g/m*3 18.6 C 0 km/h
861 12-06-2020 23:40:00 18.4 C 12.74 g/m*3 18.4 C 0 km/h
862 12-06-2020 23:45:00 18.3 C 12.66 g/m*3 18.3 C 0 km/h
863 12-06-2020 23:50:00 18.2 C 12.59 g/m*3 18.2 C 0 km/h
864 12-06-2020 23:55:00 18.1 C 12.67 g/m*3 18.1 C 0 km/h
865 13-06-2020 00:00:00 18 C 12.59 g/m*3 18 C 0 km/h
866 13-06-2020 00:05:00 17.9 C 12.67 g/m*3 17.9 C 0 km/h
867 13-06-2020 00:10:00 17.8 C 12.6 g/m*3 17.8 C 0 km/h
868 13-06-2020 00:15:00 17.7 C 12.52 g/m*3 17.7 C 0 km/h
869 13-06-2020 00:20:00 17.6 C 12.6 g/m*3 17.6 C 0 km/h
870 13-06-2020 00:25:00 17.5 C 12.52 g/m*3 17.5 C 0 km/h
871 13-06-2020 00:30:00 17.4 C 12.6 g/m*3 17.4 C 0 km/h
872 13-06-2020 00:35:00 17.4 C 12.6 g/m*3 17.4 C 9.7 km/h
873 13-06-2020 00:40:00 17.8 C 12.45 g/m*3 17.8 C 11.3 km/h
874 13-06-2020 00:45:00 18.4 C 12.58 g/m*3 18.4 C 12.9 km/h
875 13-06-2020 00:50:00 18.8 C 12.72 g/m*3 18.8 C 12.9 km/h
Sensor: Nr:Datum:Temp:Abs-Feuchte:Windchill:Wind:
Aussen-T/F 876 13-06-2020 00:55:00 18.9 C 12.8 g/m*3 18.9 C 9.7 km/h
877 13-06-2020 01:00:00 19.2 C 12.86 g/m*3 19.2 C 11.3 km/h
878 13-06-2020 01:05:00 19.2 C 12.86 g/m*3 19.2 C 12.9 km/h
879 13-06-2020 01:10:00 19.3 C 12.94 g/m*3 19.3 C 12.9 km/h
880 13-06-2020 01:15:00 19.3 C 12.94 g/m*3 19.3 C 8.1 km/h
881 13-06-2020 01:20:00 19.2 C 12.86 g/m*3 19.2 C 6.4 km/h
882 13-06-2020 01:25:00 19.2 C 13.03 g/m*3 19.2 C 14.5 km/h
883 13-06-2020 01:30:00 19.2 C 12.86 g/m*3 19.2 C 14.5 km/h
884 13-06-2020 01:35:00 19.3 C 12.94 g/m*3 19.3 C 12.9 km/h
885 13-06-2020 01:40:00 19.3 C 12.94 g/m*3 19.3 C 17.7 km/h
886 13-06-2020 01:45:00 19.4 C 12.85 g/m*3 19.4 C 17.7 km/h
887 13-06-2020 01:50:00 19.4 C 12.68 g/m*3 19.4 C 14.5 km/h
888 13-06-2020 01:55:00 19.5 C 12.42 g/m*3 19.5 C 16.1 km/h
889 13-06-2020 02:00:00 19.7 C 12.23 g/m*3 19.7 C 14.5 km/h
890 13-06-2020 02:05:00 19.7 C 12.23 g/m*3 19.7 C 6.4 km/h
891 13-06-2020 02:10:00 19.7 C 12.23 g/m*3 19.7 C 9.7 km/h
892 13-06-2020 02:15:00 19.5 C 12.08 g/m*3 19.5 C 4.8 km/h
893 13-06-2020 02:20:00 19.3 C 11.94 g/m*3 19.3 C 9.7 km/h
894 13-06-2020 02:25:00 19.2 C 11.87 g/m*3 19.2 C 9.7 km/h
895 13-06-2020 02:30:00 19.2 C 11.87 g/m*3 19.2 C 3.2 km/h
896 13-06-2020 02:35:00 19.1 C 11.8 g/m*3 19.1 C 6.4 km/h
897 13-06-2020 02:40:00 19 C 11.73 g/m*3 19 C 4.8 km/h
898 13-06-2020 02:45:00 18.9 C 11.66 g/m*3 18.9 C 4.8 km/h
899 13-06-2020 02:50:00 18.9 C 11.66 g/m*3 18.9 C 3.2 km/h
900 13-06-2020 02:55:00 18.8 C 11.6 g/m*3 18.8 C 4.8 km/h
Sensor: Nr:Datum:Temp:Abs-Feuchte:Windchill:Wind:
Aussen-T/F 901 13-06-2020 03:00:00 18.8 C 11.6 g/m*3 18.8 C 4.8 km/h
902 13-06-2020 03:05:00 18.7 C 11.53 g/m*3 18.7 C 4.8 km/h
903 13-06-2020 03:10:00 18.7 C 11.69 g/m*3 18.7 C 1.6 km/h
904 13-06-2020 03:15:00 18.6 C 11.62 g/m*3 18.6 C 0 km/h
905 13-06-2020 03:20:00 18.5 C 11.55 g/m*3 18.5 C 1.6 km/h
906 13-06-2020 03:25:00 18.4 C 11.64 g/m*3 18.4 C 1.6 km/h
907 13-06-2020 03:30:00 18.3 C 11.73 g/m*3 18.3 C 3.2 km/h
908 13-06-2020 03:35:00 18.2 C 11.81 g/m*3 18.2 C 3.2 km/h
909 13-06-2020 03:40:00 18.1 C 11.74 g/m*3 18.1 C 4.8 km/h
910 13-06-2020 03:45:00 17.9 C 11.76 g/m*3 17.9 C 4.8 km/h
911 13-06-2020 03:50:00 17.8 C 11.69 g/m*3 17.8 C 4.8 km/h
912 13-06-2020 03:55:00 17.8 C 11.84 g/m*3 17.8 C 3.2 km/h
913 13-06-2020 04:00:00 17.8 C 11.84 g/m*3 17.8 C 1.6 km/h
914 13-06-2020 04:05:00 17.7 C 11.92 g/m*3 17.7 C 4.8 km/h
915 13-06-2020 04:10:00 17.7 C 11.92 g/m*3 17.7 C 4.8 km/h
916 13-06-2020 04:15:00 17.6 C 11.85 g/m*3 17.6 C 4.8 km/h
917 13-06-2020 04:20:00 17.5 C 11.93 g/m*3 17.5 C 3.2 km/h
918 13-06-2020 04:25:00 17.4 C 11.86 g/m*3 17.4 C 1.6 km/h
919 13-06-2020 04:30:00 17.3 C 11.79 g/m*3 17.3 C 3.2 km/h
920 13-06-2020 04:35:00 17.3 C 11.93 g/m*3 17.3 C 3.2 km/h
921 13-06-2020 04:40:00 17.2 C 11.86 g/m*3 17.2 C 3.2 km/h
922 13-06-2020 04:45:00 17.2 C 11.86 g/m*3 17.2 C 0 km/h
923 13-06-2020 04:50:00 17.2 C 11.86 g/m*3 17.2 C 0 km/h
924 13-06-2020 04:55:00 17.1 C 11.94 g/m*3 17.1 C 0 km/h
925 13-06-2020 05:00:00 17.1 C 12.08 g/m*3 17.1 C 0 km/h
Sensor: Nr:Datum:Temp:Abs-Feuchte:Windchill:Wind:
Aussen-T/F 926 13-06-2020 05:05:00 17.1 C 12.08 g/m*3 17.1 C 4.8 km/h
927 13-06-2020 05:10:00 16.9 C 11.94 g/m*3 16.9 C 4.8 km/h
928 13-06-2020 05:15:00 16.8 C 11.87 g/m*3 16.8 C 0 km/h
929 13-06-2020 05:20:00 16.7 C 11.8 g/m*3 16.7 C 0 km/h
930 13-06-2020 05:25:00 16.6 C 11.87 g/m*3 16.6 C 0 km/h
931 13-06-2020 05:30:00 16.4 C 11.72 g/m*3 16.4 C 0 km/h
932 13-06-2020 05:35:00 16.3 C 11.79 g/m*3 16.3 C 0 km/h
933 13-06-2020 05:40:00 16.3 C 11.79 g/m*3 16.3 C 0 km/h
934 13-06-2020 05:45:00 16.2 C 11.86 g/m*3 16.2 C 0 km/h
935 13-06-2020 05:50:00 16.2 C 11.86 g/m*3 16.2 C 0 km/h
936 13-06-2020 05:55:00 16.1 C 11.79 g/m*3 16.1 C 0 km/h
937 13-06-2020 06:00:00 16.1 C 11.79 g/m*3 16.1 C 0 km/h
938 13-06-2020 06:05:00 16.1 C 11.93 g/m*3 16.1 C 0 km/h
939 13-06-2020 06:10:00 16.1 C 11.93 g/m*3 16.1 C 0 km/h
940 13-06-2020 06:15:00 16.1 C 11.93 g/m*3 16.1 C 0 km/h
941 13-06-2020 06:20:00 16.1 C 11.93 g/m*3 16.1 C 0 km/h
942 13-06-2020 06:25:00 16 C 11.85 g/m*3 16 C 0 km/h
943 13-06-2020 06:30:00 16 C 11.99 g/m*3 16 C 0 km/h
944 13-06-2020 06:35:00 16.1 C 12.06 g/m*3 16.1 C 0 km/h
945 13-06-2020 06:40:00 16.1 C 12.06 g/m*3 16.1 C 0 km/h
946 13-06-2020 06:45:00 16.1 C 12.06 g/m*3 16.1 C 0 km/h
947 13-06-2020 06:50:00 16.2 C 12.27 g/m*3 16.2 C 0 km/h
948 13-06-2020 06:55:00 16.3 C 12.21 g/m*3 16.3 C 3.2 km/h
949 13-06-2020 07:00:00 16.4 C 12.28 g/m*3 16.4 C 8.1 km/h
950 13-06-2020 07:05:00 16.6 C 12.29 g/m*3 16.6 C 8.1 km/h
Sensor: Nr:Datum:Temp:Abs-Feuchte:Windchill:Wind:
Aussen-T/F 951 13-06-2020 07:10:00 16.6 C 12.29 g/m*3 16.6 C 4.8 km/h
952 13-06-2020 07:15:00 16.7 C 12.36 g/m*3 16.7 C 3.2 km/h
953 13-06-2020 07:20:00 16.8 C 12.44 g/m*3 16.8 C 1.6 km/h
954 13-06-2020 07:25:00 16.9 C 12.37 g/m*3 16.9 C 0 km/h
955 13-06-2020 07:30:00 16.9 C 12.37 g/m*3 16.9 C 0 km/h
956 13-06-2020 07:35:00 17 C 12.59 g/m*3 17 C 0 km/h
957 13-06-2020 07:40:00 17.1 C 12.52 g/m*3 17.1 C 1.6 km/h
958 13-06-2020 07:45:00 17.1 C 12.52 g/m*3 17.1 C 0 km/h
959 13-06-2020 07:50:00 17.1 C 12.37 g/m*3 17.1 C 1.6 km/h
960 13-06-2020 07:55:00 17.1 C 12.52 g/m*3 17.1 C 0 km/h
961 13-06-2020 08:00:00 17.1 C 12.52 g/m*3 17.1 C 0 km/h
962 13-06-2020 08:05:00 17 C 12.44 g/m*3 17 C 1.6 km/h
963 13-06-2020 08:10:00 16.9 C 12.51 g/m*3 16.9 C 0 km/h
964 13-06-2020 08:15:00 16.9 C 12.51 g/m*3 16.9 C 0 km/h
965 13-06-2020 08:20:00 16.9 C 12.51 g/m*3 16.9 C 0 km/h
966 13-06-2020 08:25:00 16.9 C 12.66 g/m*3 16.9 C 0 km/h
967 13-06-2020 08:30:00 17.1 C 12.96 g/m*3 17.1 C 0 km/h
968 13-06-2020 08:35:00 17.4 C 13.04 g/m*3 17.4 C 0 km/h
969 13-06-2020 08:40:00 17.7 C 13.28 g/m*3 17.7 C 1.6 km/h
970 13-06-2020 08:45:00 18.3 C 13.13 g/m*3 18.3 C 1.6 km/h
971 13-06-2020 08:50:00 18.8 C 13.05 g/m*3 18.8 C 0 km/h
972 13-06-2020 08:55:00 19.2 C 13.19 g/m*3 19.2 C 0 km/h
973 13-06-2020 09:00:00 19.5 C 13.26 g/m*3 19.5 C 4.8 km/h
974 13-06-2020 09:05:00 19.8 C 13.15 g/m*3 19.8 C 4.8 km/h
975 13-06-2020 09:10:00 20 C 13.31 g/m*3 20 C 4.8 km/h
Sensor: Nr:Datum:Temp:Abs-Feuchte:Windchill:Wind:
Aussen-T/F 976 13-06-2020 09:15:00 20.2 C 13.46 g/m*3 20.2 C 6.4 km/h
977 13-06-2020 09:20:00 20.3 C 13.54 g/m*3 20.3 C 8.1 km/h
978 13-06-2020 09:25:00 20.4 C 13.44 g/m*3 20.4 C 9.7 km/h
979 13-06-2020 09:30:00 20.5 C 13.52 g/m*3 20.5 C 6.4 km/h
980 13-06-2020 09:35:00 20.6 C 13.78 g/m*3 20.6 C 1.6 km/h
981 13-06-2020 09:40:00 20.8 C 13.94 g/m*3 20.8 C 3.2 km/h
982 13-06-2020 09:45:00 20.8 C 13.58 g/m*3 20.8 C 4.8 km/h
983 13-06-2020 09:50:00 20.8 C 13.76 g/m*3 20.8 C 4.8 km/h
984 13-06-2020 09:55:00 20.8 C 13.76 g/m*3 20.8 C 4.8 km/h
985 13-06-2020 10:00:00 20.8 C 13.94 g/m*3 20.8 C 8.1 km/h
986 13-06-2020 10:05:00 20.6 C 13.78 g/m*3 20.6 C 4.8 km/h
987 13-06-2020 10:10:00 20.6 C 13.96 g/m*3 20.6 C 0 km/h
988 13-06-2020 10:15:00 20.4 C 13.62 g/m*3 20.4 C 4.8 km/h
989 13-06-2020 10:20:00 20.4 C 13.98 g/m*3 20.4 C 1.6 km/h
990 13-06-2020 10:25:00 20.3 C 13.54 g/m*3 20.3 C 4.8 km/h
991 13-06-2020 10:30:00 20.3 C 13.72 g/m*3 20.3 C 6.4 km/h
992 13-06-2020 10:35:00 20.3 C 13.72 g/m*3 20.3 C 4.8 km/h
993 13-06-2020 10:40:00 20.2 C 13.64 g/m*3 20.2 C 6.4 km/h
994 13-06-2020 10:45:00 20.2 C 13.64 g/m*3 20.2 C 6.4 km/h
995 13-06-2020 10:50:00 20.2 C 13.64 g/m*3 20.2 C 4.8 km/h
996 13-06-2020 10:55:00 20.2 C 13.64 g/m*3 20.2 C 3.2 km/h
997 13-06-2020 11:00:00 20.2 C 13.46 g/m*3 20.2 C 4.8 km/h
998 13-06-2020 11:05:00 20.2 C 13.29 g/m*3 20.2 C 6.4 km/h
999 13-06-2020 11:10:00 20.3 C 13.19 g/m*3 20.3 C 4.8 km/h
1000 13-06-2020 11:15:00 20.4 C 13.09 g/m*3 20.4 C 4.8 km/h
Sensor: Nr:Datum:Temp:Abs-Feuchte:Windchill:Wind:
Aussen-T/F 1001 13-06-2020 11:20:00 20.6 C 12.89 g/m*3 20.6 C 4.8 km/h
1002 13-06-2020 11:25:00 20.7 C 12.96 g/m*3 20.7 C 6.4 km/h
1003 13-06-2020 11:30:00 20.8 C 12.86 g/m*3 20.8 C 6.4 km/h
1004 13-06-2020 11:35:00 20.8 C 12.86 g/m*3 20.8 C 8.1 km/h
1005 13-06-2020 11:40:00 21 C 13.19 g/m*3 21 C 4.8 km/h
1006 13-06-2020 11:45:00 21.1 C 13.08 g/m*3 21.1 C 9.7 km/h
1007 13-06-2020 11:50:00 21.1 C 13.08 g/m*3 21.1 C 8.1 km/h
1008 13-06-2020 11:55:00 21.1 C 13.08 g/m*3 21.1 C 6.4 km/h
1009 13-06-2020 12:00:00 21.1 C 13.08 g/m*3 21.1 C 6.4 km/h
1010 13-06-2020 12:05:00 20.9 C 12.75 g/m*3 20.9 C 6.4 km/h
1011 13-06-2020 12:10:00 20.9 C 13.11 g/m*3 20.9 C 3.2 km/h
1012 13-06-2020 12:15:00 20.9 C 13.11 g/m*3 20.9 C 3.2 km/h
1013 13-06-2020 12:20:00 20.9 C 13.3 g/m*3 20.9 C 1.6 km/h
1014 13-06-2020 12:25:00 20.9 C 13.48 g/m*3 20.9 C 0 km/h
1015 13-06-2020 12:30:00 20.9 C 13.66 g/m*3 20.9 C 0 km/h
1016 13-06-2020 12:35:00 21 C 13.92 g/m*3 21 C 0 km/h
1017 13-06-2020 12:40:00 20.9 C 14.02 g/m*3 20.9 C 0 km/h
1018 13-06-2020 12:45:00 20.9 C 14.21 g/m*3 20.9 C 1.6 km/h
1019 13-06-2020 12:50:00 20.8 C 14.3 g/m*3 20.8 C 0 km/h
1020 13-06-2020 12:55:00 20.8 C 14.3 g/m*3 20.8 C 0 km/h
1021 13-06-2020 13:00:00 20.7 C 14.4 g/m*3 20.7 C 0 km/h
1022 13-06-2020 13:05:00 20.6 C 14.5 g/m*3 20.6 C 0 km/h
1023 13-06-2020 13:10:00 20.5 C 14.41 g/m*3 20.5 C 0 km/h
1024 13-06-2020 13:15:00 20.4 C 14.33 g/m*3 20.4 C 0 km/h
1025 13-06-2020 13:20:00 20.3 C 14.42 g/m*3 20.3 C 0 km/h
Sensor: Nr:Datum:Temp:Abs-Feuchte:Windchill:Wind:
Aussen-T/F 1026 13-06-2020 13:25:00 20.2 C 14.34 g/m*3 20.2 C 0 km/h
1027 13-06-2020 13:30:00 20.2 C 14.51 g/m*3 20.2 C 0 km/h
1028 13-06-2020 13:35:00 20.1 C 14.43 g/m*3 20.1 C 0 km/h
1029 13-06-2020 13:40:00 20.1 C 14.43 g/m*3 20.1 C 0 km/h
1030 13-06-2020 13:45:00 20.1 C 14.25 g/m*3 20.1 C 0 km/h
1031 13-06-2020 13:50:00 20.3 C 14.07 g/m*3 20.3 C 0 km/h
1032 13-06-2020 13:55:00 20.6 C 13.6 g/m*3 20.6 C 0 km/h
1033 13-06-2020 14:00:00 20.8 C 13.4 g/m*3 20.8 C 0 km/h
1034 13-06-2020 14:05:00 21.1 C 13.82 g/m*3 21.1 C 0 km/h
1035 13-06-2020 14:10:00 21.2 C 13.71 g/m*3 21.2 C 0 km/h
1036 13-06-2020 14:15:00 21.3 C 14.35 g/m*3 21.3 C 0 km/h
1037 13-06-2020 14:20:00 21.4 C 14.06 g/m*3 21.4 C 0 km/h
1038 13-06-2020 14:25:00 21.5 C 14.14 g/m*3 21.5 C 0 km/h
1039 13-06-2020 14:30:00 21.6 C 13.66 g/m*3 21.6 C 0 km/h
1040 13-06-2020 14:35:00 21.7 C 13.93 g/m*3 21.7 C 3.2 km/h
1041 13-06-2020 14:40:00 21.8 C 13.24 g/m*3 21.8 C 6.4 km/h
1042 13-06-2020 14:45:00 21.9 C 13.51 g/m*3 21.9 C 6.4 km/h
1043 13-06-2020 14:50:00 22 C 13.39 g/m*3 22 C 4.8 km/h
1044 13-06-2020 14:55:00 22.1 C 13.27 g/m*3 22.1 C 6.4 km/h
1045 13-06-2020 15:00:00 22.2 C 13.15 g/m*3 22.2 C 6.4 km/h
1046 13-06-2020 15:05:00 22.2 C 13.35 g/m*3 22.2 C 4.8 km/h
1047 13-06-2020 15:10:00 22.3 C 13.43 g/m*3 22.3 C 6.4 km/h
1048 13-06-2020 15:15:00 22.4 C 13.5 g/m*3 22.4 C 6.4 km/h
1049 13-06-2020 15:20:00 22.8 C 13.82 g/m*3 22.8 C 9.7 km/h
1050 13-06-2020 15:25:00 23.5 C 13.53 g/m*3 23.5 C 4.8 km/h
Sensor: Nr:Datum:Temp:Abs-Feuchte:Windchill:Wind:
Aussen-T/F 1051 13-06-2020 15:30:00 23.8 C 13.34 g/m*3 23.8 C 9.7 km/h
1052 13-06-2020 15:35:00 24 C 13.71 g/m*3 24 C 8.1 km/h
1053 13-06-2020 15:40:00 24 C 13.49 g/m*3 24 C 6.4 km/h
1054 13-06-2020 15:45:00 23.9 C 13.41 g/m*3 23.9 C 4.8 km/h
1055 13-06-2020 15:50:00 23.9 C 13.63 g/m*3 23.9 C 4.8 km/h
1056 13-06-2020 15:55:00 24 C 13.71 g/m*3 24 C 6.4 km/h
1057 13-06-2020 16:00:00 24.4 C 13.8 g/m*3 24.4 C 9.7 km/h
1058 13-06-2020 16:05:00 25.2 C 13.74 g/m*3 25.2 C 12.9 km/h
1059 13-06-2020 16:10:00 25.4 C 13.65 g/m*3 25.4 C 11.3 km/h
1060 13-06-2020 16:15:00 25.7 C 14.13 g/m*3 25.7 C 9.7 km/h
1061 13-06-2020 16:20:00 25.8 C 14.45 g/m*3 25.8 C 8.1 km/h
1062 13-06-2020 16:25:00 26.3 C 13.86 g/m*3 26.3 C 6.4 km/h
1063 13-06-2020 16:30:00 26.3 C 14.11 g/m*3 26.3 C 8.1 km/h
1064 13-06-2020 16:35:00 26.3 C 13.86 g/m*3 26.3 C 8.1 km/h
1065 13-06-2020 16:40:00 26.2 C 13.79 g/m*3 26.2 C 6.4 km/h
1066 13-06-2020 16:45:00 25.9 C 13.56 g/m*3 25.9 C 6.4 km/h
1067 13-06-2020 16:50:00 25.7 C 14.13 g/m*3 25.7 C 4.8 km/h
1068 13-06-2020 16:55:00 25.8 C 14.2 g/m*3 25.8 C 3.2 km/h
1069 13-06-2020 17:00:00 26.1 C 13.71 g/m*3 26.1 C 3.2 km/h
1070 13-06-2020 17:05:00 26.4 C 13.69 g/m*3 26.4 C 1.6 km/h
1071 13-06-2020 17:10:00 26.8 C 13.24 g/m*3 26.8 C 8.1 km/h
1072 13-06-2020 17:15:00 26.8 C 13.74 g/m*3 26.8 C 9.7 km/h
1073 13-06-2020 17:20:00 27.1 C 12.68 g/m*3 27.1 C 6.4 km/h
1074 13-06-2020 17:25:00 27.3 C 12.56 g/m*3 27.3 C 8.1 km/h
1075 13-06-2020 17:30:00 27.4 C 11.58 g/m*3 27.4 C 8.1 km/h
Sensor: Nr:Datum:Temp:Abs-Feuchte:Windchill:Wind:
Aussen-T/F 1076 13-06-2020 17:35:00 27.2 C 10.93 g/m*3 27.2 C 6.4 km/h
1077 13-06-2020 17:40:00 27.1 C 10.61 g/m*3 27.1 C 8.1 km/h
1078 13-06-2020 17:45:00 27.3 C 10.99 g/m*3 27.3 C 4.8 km/h
1079 13-06-2020 17:50:00 27.6 C 11.17 g/m*3 27.6 C 3.2 km/h
1080 13-06-2020 17:55:00 28 C 11.42 g/m*3 28 C 6.4 km/h
1081 13-06-2020 18:00:00 28.4 C 11.12 g/m*3 28.4 C 9.7 km/h
1082 13-06-2020 18:05:00 28.4 C 10.84 g/m*3 28.4 C 6.4 km/h
1083 13-06-2020 18:10:00 28.7 C 11.59 g/m*3 28.7 C 6.4 km/h
1084 13-06-2020 18:15:00 28.8 C 11.36 g/m*3 28.8 C 8.1 km/h
1085 13-06-2020 18:20:00 28.7 C 11.02 g/m*3 28.7 C 6.4 km/h
1086 13-06-2020 18:25:00 28.7 C 11.3 g/m*3 28.7 C 8.1 km/h
1087 13-06-2020 18:30:00 28.6 C 10.96 g/m*3 28.6 C 8.1 km/h
1088 13-06-2020 18:35:00 28.6 C 11.24 g/m*3 28.6 C 6.4 km/h
1089 13-06-2020 18:40:00 28.4 C 11.12 g/m*3 28.4 C 11.3 km/h
1090 13-06-2020 18:45:00 28.6 C 11.24 g/m*3 28.6 C 6.4 km/h
1091 13-06-2020 18:50:00 28.7 C 11.02 g/m*3 28.7 C 9.7 km/h
1092 13-06-2020 18:55:00 28.7 C 11.02 g/m*3 28.7 C 8.1 km/h
1093 13-06-2020 19:00:00 28.8 C 11.36 g/m*3 28.8 C 9.7 km/h
1094 13-06-2020 19:05:00 28.6 C 11.24 g/m*3 28.6 C 12.9 km/h
1095 13-06-2020 19:10:00 28 C 10.88 g/m*3 28 C 9.7 km/h
1096 13-06-2020 19:15:00 27.4 C 11.05 g/m*3 27.4 C 12.9 km/h
1097 13-06-2020 19:20:00 26.8 C 10.94 g/m*3 26.8 C 8.1 km/h
1098 13-06-2020 19:25:00 26.4 C 11.2 g/m*3 26.4 C 8.1 km/h
1099 13-06-2020 19:30:00 26.2 C 11.82 g/m*3 26.2 C 4.8 km/h
1100 13-06-2020 19:35:00 25.9 C 11.62 g/m*3 25.9 C 1.6 km/h
Sensor: Nr:Datum:Temp:Abs-Feuchte:Windchill:Wind:
Aussen-T/F 1101 13-06-2020 19:40:00 25.8 C 11.8 g/m*3 25.8 C 6.4 km/h
1102 13-06-2020 19:45:00 25.6 C 12.38 g/m*3 25.6 C 4.8 km/h
1103 13-06-2020 19:50:00 25.4 C 12.71 g/m*3 25.4 C 0 km/h
1104 13-06-2020 19:55:00 25.2 C 12.34 g/m*3 25.2 C 3.2 km/h
1105 13-06-2020 20:00:00 25 C 12.66 g/m*3 25 C 3.2 km/h
1106 13-06-2020 20:05:00 24.9 C 11.9 g/m*3 24.9 C 4.8 km/h
1107 13-06-2020 20:10:00 25.1 C 12.27 g/m*3 25.1 C 4.8 km/h
1108 13-06-2020 20:15:00 25.2 C 12.57 g/m*3 25.2 C 0 km/h
1109 13-06-2020 20:20:00 25.2 C 12.8 g/m*3 25.2 C 0 km/h
1110 13-06-2020 20:25:00 25 C 12.66 g/m*3 25 C 4.8 km/h
1111 13-06-2020 20:30:00 24.7 C 12.22 g/m*3 24.7 C 8.1 km/h
1112 13-06-2020 20:35:00 24.4 C 12.24 g/m*3 24.4 C 3.2 km/h
1113 13-06-2020 20:40:00 24.3 C 12.17 g/m*3 24.3 C 1.6 km/h
1114 13-06-2020 20:45:00 24.1 C 12.25 g/m*3 24.1 C 1.6 km/h
1115 13-06-2020 20:50:00 23.8 C 12.26 g/m*3 23.8 C 0 km/h
1116 13-06-2020 20:55:00 23.6 C 12.34 g/m*3 23.6 C 1.6 km/h
1117 13-06-2020 21:00:00 23.4 C 12.2 g/m*3 23.4 C 4.8 km/h
1118 13-06-2020 21:05:00 23.3 C 12.13 g/m*3 23.3 C 3.2 km/h
1119 13-06-2020 21:10:00 23.1 C 12.2 g/m*3 23.1 C 1.6 km/h
1120 13-06-2020 21:15:00 23 C 12.13 g/m*3 23 C 8.1 km/h
1121 13-06-2020 21:20:00 22.9 C 12.26 g/m*3 22.9 C 1.6 km/h
1122 13-06-2020 21:25:00 22.8 C 12.8 g/m*3 22.8 C 6.4 km/h
1123 13-06-2020 21:30:00 22.6 C 12.66 g/m*3 22.6 C 9.7 km/h
1124 13-06-2020 21:35:00 22.3 C 12.64 g/m*3 22.3 C 4.8 km/h
1125 13-06-2020 21:40:00 22.1 C 12.69 g/m*3 22.1 C 6.4 km/h
Sensor: Nr:Datum:Temp:Abs-Feuchte:Windchill:Wind:
Aussen-T/F 1126 13-06-2020 21:45:00 21.8 C 12.66 g/m*3 21.8 C 8.1 km/h
1127 13-06-2020 21:50:00 21.7 C 12.97 g/m*3 21.7 C 4.8 km/h
1128 13-06-2020 21:55:00 21.5 C 12.82 g/m*3 21.5 C 4.8 km/h
1129 13-06-2020 22:00:00 21.4 C 12.94 g/m*3 21.4 C 4.8 km/h
1130 13-06-2020 22:05:00 21.3 C 12.86 g/m*3 21.3 C 4.8 km/h
1131 13-06-2020 22:10:00 21.2 C 12.79 g/m*3 21.2 C 4.8 km/h
1132 13-06-2020 22:15:00 21.2 C 12.79 g/m*3 21.2 C 11.3 km/h
1133 13-06-2020 22:20:00 21.1 C 12.71 g/m*3 21.1 C 11.3 km/h
1134 13-06-2020 22:25:00 21.1 C 12.9 g/m*3 21.1 C 4.8 km/h
1135 13-06-2020 22:30:00 20.9 C 12.57 g/m*3 20.9 C 8.1 km/h
1136 13-06-2020 22:35:00 20.8 C 12.67 g/m*3 20.8 C 4.8 km/h
1137 13-06-2020 22:40:00 20.8 C 12.67 g/m*3 20.8 C 4.8 km/h
1138 13-06-2020 22:45:00 20.7 C 12.6 g/m*3 20.7 C 11.3 km/h
1139 13-06-2020 22:50:00 20.7 C 12.6 g/m*3 20.7 C 8.1 km/h
1140 13-06-2020 22:55:00 20.7 C 12.6 g/m*3 20.7 C 3.2 km/h
1141 13-06-2020 23:00:00 20.7 C 12.6 g/m*3 20.7 C 1.6 km/h
1142 13-06-2020 23:05:00 20.6 C 12.71 g/m*3 20.6 C 3.2 km/h
1143 13-06-2020 23:10:00 20.4 C 12.38 g/m*3 20.4 C 4.8 km/h
1144 13-06-2020 23:15:00 20.3 C 12.49 g/m*3 20.3 C 6.4 km/h
1145 13-06-2020 23:20:00 20.2 C 12.41 g/m*3 20.2 C 1.6 km/h
1146 13-06-2020 23:25:00 20.1 C 12.52 g/m*3 20.1 C 4.8 km/h
1147 13-06-2020 23:30:00 19.9 C 12.37 g/m*3 19.9 C 0 km/h
1148 13-06-2020 23:35:00 19.8 C 12.47 g/m*3 19.8 C 4.8 km/h
1149 13-06-2020 23:40:00 19.7 C 12.23 g/m*3 19.7 C 3.2 km/h
1150 13-06-2020 23:45:00 19.6 C 12.49 g/m*3 19.6 C 3.2 km/h
Sensor: Nr:Datum:Temp:Abs-Feuchte:Windchill:Wind:
Aussen-T/F 1151 13-06-2020 23:50:00 19.4 C 12.35 g/m*3 19.4 C 3.2 km/h
1152 13-06-2020 23:55:00 19.3 C 12.44 g/m*3 19.3 C 0 km/h
1153 14-06-2020 00:00:00 19.1 C 12.46 g/m*3 19.1 C 1.6 km/h
1154 14-06-2020 00:05:00 18.8 C 12.24 g/m*3 18.8 C 4.8 km/h
1155 14-06-2020 00:10:00 18.6 C 12.26 g/m*3 18.6 C 6.4 km/h
1156 14-06-2020 00:15:00 18.5 C 12.34 g/m*3 18.5 C 3.2 km/h
1157 14-06-2020 00:20:00 18.4 C 12.27 g/m*3 18.4 C 0 km/h
1158 14-06-2020 00:25:00 18.3 C 12.35 g/m*3 18.3 C 0 km/h
1159 14-06-2020 00:30:00 18.2 C 12.28 g/m*3 18.2 C 0 km/h
1160 14-06-2020 00:35:00 18.2 C 12.43 g/m*3 18.2 C 0 km/h
1161 14-06-2020 00:40:00 18.2 C 12.43 g/m*3 18.2 C 0 km/h
1162 14-06-2020 00:45:00 18.1 C 12.52 g/m*3 18.1 C 0 km/h
1163 14-06-2020 00:50:00 18.1 C 12.52 g/m*3 18.1 C 0 km/h
1164 14-06-2020 00:55:00 18 C 12.44 g/m*3 18 C 0 km/h
1165 14-06-2020 01:00:00 17.9 C 12.37 g/m*3 17.9 C 0 km/h
1166 14-06-2020 01:05:00 17.9 C 12.37 g/m*3 17.9 C 0 km/h
1167 14-06-2020 01:10:00 17.8 C 12.45 g/m*3 17.8 C 0 km/h
1168 14-06-2020 01:15:00 17.8 C 12.6 g/m*3 17.8 C 0 km/h
1169 14-06-2020 01:20:00 17.8 C 12.45 g/m*3 17.8 C 0 km/h
1170 14-06-2020 01:25:00 17.8 C 12.45 g/m*3 17.8 C 0 km/h
1171 14-06-2020 01:30:00 17.8 C 12.6 g/m*3 17.8 C 0 km/h
1172 14-06-2020 01:35:00 17.8 C 12.6 g/m*3 17.8 C 0 km/h
1173 14-06-2020 01:40:00 17.8 C 12.6 g/m*3 17.8 C 0 km/h
1174 14-06-2020 01:45:00 17.8 C 12.6 g/m*3 17.8 C 0 km/h
1175 14-06-2020 01:50:00 17.8 C 12.6 g/m*3 17.8 C 0 km/h
Sensor: Nr:Datum:Temp:Abs-Feuchte:Windchill:Wind:
Aussen-T/F 1176 14-06-2020 01:55:00 17.8 C 12.75 g/m*3 17.8 C 0 km/h
1177 14-06-2020 02:00:00 17.8 C 12.75 g/m*3 17.8 C 0 km/h
1178 14-06-2020 02:05:00 17.8 C 12.75 g/m*3 17.8 C 0 km/h
1179 14-06-2020 02:10:00 17.8 C 12.75 g/m*3 17.8 C 0 km/h
1180 14-06-2020 02:15:00 17.8 C 12.75 g/m*3 17.8 C 0 km/h
1181 14-06-2020 02:20:00 17.7 C 12.67 g/m*3 17.7 C 0 km/h
1182 14-06-2020 02:25:00 17.7 C 12.67 g/m*3 17.7 C 0 km/h
1183 14-06-2020 02:30:00 17.7 C 12.67 g/m*3 17.7 C 0 km/h
1184 14-06-2020 02:35:00 17.7 C 12.82 g/m*3 17.7 C 0 km/h
1185 14-06-2020 02:40:00 17.6 C 12.75 g/m*3 17.6 C 0 km/h
1186 14-06-2020 02:45:00 17.6 C 12.6 g/m*3 17.6 C 0 km/h
1187 14-06-2020 02:50:00 17.5 C 12.67 g/m*3 17.5 C 0 km/h
1188 14-06-2020 02:55:00 17.4 C 12.6 g/m*3 17.4 C 0 km/h
1189 14-06-2020 03:00:00 17.4 C 12.45 g/m*3 17.4 C 0 km/h
1190 14-06-2020 03:05:00 17.3 C 12.37 g/m*3 17.3 C 0 km/h
1191 14-06-2020 03:10:00 17.3 C 12.52 g/m*3 17.3 C 0 km/h
1192 14-06-2020 03:15:00 17.3 C 12.52 g/m*3 17.3 C 0 km/h
1193 14-06-2020 03:20:00 17.3 C 12.52 g/m*3 17.3 C 0 km/h
1194 14-06-2020 03:25:00 17.3 C 12.52 g/m*3 17.3 C 0 km/h
1195 14-06-2020 03:30:00 17.3 C 12.52 g/m*3 17.3 C 0 km/h
1196 14-06-2020 03:35:00 17.2 C 12.45 g/m*3 17.2 C 0 km/h
1197 14-06-2020 03:40:00 17.2 C 12.45 g/m*3 17.2 C 0 km/h
1198 14-06-2020 03:45:00 17.2 C 12.45 g/m*3 17.2 C 0 km/h
1199 14-06-2020 03:50:00 17.2 C 12.45 g/m*3 17.2 C 0 km/h
1200 14-06-2020 03:55:00 17.1 C 12.37 g/m*3 17.1 C 0 km/h
Sensor: Nr:Datum:Temp:Abs-Feuchte:Windchill:Wind:
Aussen-T/F 1201 14-06-2020 04:00:00 17.1 C 12.37 g/m*3 17.1 C 0 km/h
1202 14-06-2020 04:05:00 17.1 C 12.37 g/m*3 17.1 C 0 km/h
1203 14-06-2020 04:10:00 17.1 C 12.37 g/m*3 17.1 C 0 km/h
1204 14-06-2020 04:15:00 17.1 C 12.37 g/m*3 17.1 C 3.2 km/h
1205 14-06-2020 04:20:00 17.1 C 12.23 g/m*3 17.1 C 4.8 km/h
1206 14-06-2020 04:25:00 17.2 C 12.3 g/m*3 17.2 C 4.8 km/h
1207 14-06-2020 04:30:00 17.3 C 12.37 g/m*3 17.3 C 3.2 km/h
1208 14-06-2020 04:35:00 17.4 C 12.3 g/m*3 17.4 C 4.8 km/h
1209 14-06-2020 04:40:00 17.7 C 12.37 g/m*3 17.7 C 11.3 km/h
1210 14-06-2020 04:45:00 17.8 C 12.45 g/m*3 17.8 C 11.3 km/h
1211 14-06-2020 04:50:00 17.9 C 12.52 g/m*3 17.9 C 6.4 km/h
1212 14-06-2020 04:55:00 17.9 C 12.52 g/m*3 17.9 C 8.1 km/h
1213 14-06-2020 05:00:00 17.8 C 12.45 g/m*3 17.8 C 6.4 km/h
1214 14-06-2020 05:05:00 17.8 C 12.45 g/m*3 17.8 C 6.4 km/h
1215 14-06-2020 05:10:00 17.8 C 12.45 g/m*3 17.8 C 4.8 km/h
1216 14-06-2020 05:15:00 17.8 C 12.45 g/m*3 17.8 C 6.4 km/h
1217 14-06-2020 05:20:00 17.7 C 12.37 g/m*3 17.7 C 6.4 km/h
1218 14-06-2020 05:25:00 17.7 C 12.37 g/m*3 17.7 C 4.8 km/h
1219 14-06-2020 05:30:00 17.7 C 12.37 g/m*3 17.7 C 1.6 km/h
1220 14-06-2020 05:35:00 17.7 C 12.52 g/m*3 17.7 C 4.8 km/h
1221 14-06-2020 05:40:00 17.7 C 12.52 g/m*3 17.7 C 4.8 km/h
1222 14-06-2020 05:45:00 17.6 C 12.45 g/m*3 17.6 C 6.4 km/h
1223 14-06-2020 05:50:00 17.6 C 12.45 g/m*3 17.6 C 6.4 km/h
1224 14-06-2020 05:55:00 17.7 C 12.52 g/m*3 17.7 C 4.8 km/h
1225 14-06-2020 06:00:00 17.7 C 12.52 g/m*3 17.7 C 6.4 km/h
Sensor: Nr:Datum:Temp:Abs-Feuchte:Windchill:Wind:
Aussen-T/F 1226 14-06-2020 06:05:00 17.7 C 12.52 g/m*3 17.7 C 6.4 km/h
1227 14-06-2020 06:10:00 17.7 C 12.52 g/m*3 17.7 C 8.1 km/h
1228 14-06-2020 06:15:00 17.7 C 12.52 g/m*3 17.7 C 4.8 km/h
1229 14-06-2020 06:20:00 17.8 C 12.45 g/m*3 17.8 C 11.3 km/h
1230 14-06-2020 06:25:00 17.8 C 12.45 g/m*3 17.8 C 8.1 km/h
1231 14-06-2020 06:30:00 17.8 C 12.45 g/m*3 17.8 C 8.1 km/h
1232 14-06-2020 06:35:00 17.8 C 12.45 g/m*3 17.8 C 8.1 km/h
1233 14-06-2020 06:40:00 17.9 C 12.67 g/m*3 17.9 C 8.1 km/h
1234 14-06-2020 06:45:00 17.9 C 12.67 g/m*3 17.9 C 9.7 km/h
1235 14-06-2020 06:50:00 17.9 C 12.52 g/m*3 17.9 C 6.4 km/h
1236 14-06-2020 06:55:00 18 C 12.59 g/m*3 18 C 4.8 km/h
1237 14-06-2020 07:00:00 18.1 C 12.67 g/m*3 18.1 C 4.8 km/h
1238 14-06-2020 07:05:00 18.2 C 12.75 g/m*3 18.2 C 4.8 km/h
1239 14-06-2020 07:10:00 18.3 C 12.66 g/m*3 18.3 C 4.8 km/h
1240 14-06-2020 07:15:00 18.4 C 12.74 g/m*3 18.4 C 4.8 km/h
1241 14-06-2020 07:20:00 18.5 C 12.82 g/m*3 18.5 C 1.6 km/h
1242 14-06-2020 07:25:00 18.6 C 12.73 g/m*3 18.6 C 4.8 km/h
1243 14-06-2020 07:30:00 18.7 C 12.81 g/m*3 18.7 C 3.2 km/h
1244 14-06-2020 07:35:00 18.7 C 12.81 g/m*3 18.7 C 4.8 km/h
1245 14-06-2020 07:40:00 18.8 C 12.88 g/m*3 18.8 C 3.2 km/h
1246 14-06-2020 07:45:00 18.8 C 12.88 g/m*3 18.8 C 1.6 km/h
1247 14-06-2020 07:50:00 18.8 C 12.72 g/m*3 18.8 C 1.6 km/h
1248 14-06-2020 07:55:00 18.9 C 12.96 g/m*3 18.9 C 6.4 km/h
1249 14-06-2020 08:00:00 18.9 C 12.8 g/m*3 18.9 C 3.2 km/h
1250 14-06-2020 08:05:00 19 C 12.71 g/m*3 19 C 4.8 km/h
Sensor: Nr:Datum:Temp:Abs-Feuchte:Windchill:Wind:
Aussen-T/F 1251 14-06-2020 08:10:00 19.1 C 12.79 g/m*3 19.1 C 4.8 km/h
1252 14-06-2020 08:15:00 19.1 C 12.79 g/m*3 19.1 C 4.8 km/h
1253 14-06-2020 08:20:00 19.1 C 12.95 g/m*3 19.1 C 3.2 km/h
1254 14-06-2020 08:25:00 19.1 C 12.95 g/m*3 19.1 C 0 km/h
1255 14-06-2020 08:30:00 19.1 C 12.79 g/m*3 19.1 C 0 km/h
1256 14-06-2020 08:35:00 19.1 C 12.79 g/m*3 19.1 C 3.2 km/h
1257 14-06-2020 08:40:00 19.1 C 12.95 g/m*3 19.1 C 3.2 km/h
1258 14-06-2020 08:45:00 19.1 C 12.95 g/m*3 19.1 C 3.2 km/h
1259 14-06-2020 08:50:00 19.1 C 13.11 g/m*3 19.1 C 3.2 km/h
1260 14-06-2020 08:55:00 19.1 C 13.11 g/m*3 19.1 C 1.6 km/h
1261 14-06-2020 09:00:00 19.1 C 13.11 g/m*3 19.1 C 3.2 km/h
1262 14-06-2020 09:05:00 19.1 C 13.44 g/m*3 19.1 C 3.2 km/h
1263 14-06-2020 09:10:00 19.2 C 13.69 g/m*3 19.2 C 0 km/h
1264 14-06-2020 09:15:00 19.2 C 13.69 g/m*3 19.2 C 1.6 km/h
1265 14-06-2020 09:20:00 19.2 C 13.69 g/m*3 19.2 C 0 km/h
1266 14-06-2020 09:25:00 19.1 C 13.61 g/m*3 19.1 C 1.6 km/h
1267 14-06-2020 09:30:00 19.1 C 13.44 g/m*3 19.1 C 0 km/h
1268 14-06-2020 09:35:00 19.1 C 13.61 g/m*3 19.1 C 1.6 km/h
1269 14-06-2020 09:40:00 18.9 C 13.28 g/m*3 18.9 C 1.6 km/h
1270 14-06-2020 09:45:00 18.9 C 13.45 g/m*3 18.9 C 0 km/h
1271 14-06-2020 09:50:00 18.9 C 13.45 g/m*3 18.9 C 3.2 km/h
1272 14-06-2020 09:55:00 18.9 C 13.28 g/m*3 18.9 C 4.8 km/h
1273 14-06-2020 10:00:00 18.8 C 13.21 g/m*3 18.8 C 1.6 km/h
1274 14-06-2020 10:05:00 18.9 C 13.12 g/m*3 18.9 C 0 km/h
1275 14-06-2020 10:10:00 18.9 C 13.12 g/m*3 18.9 C 3.2 km/h
Sensor: Nr:Datum:Temp:Abs-Feuchte:Windchill:Wind:
Aussen-T/F 1276 14-06-2020 10:15:00 18.9 C 13.12 g/m*3 18.9 C 1.6 km/h
1277 14-06-2020 10:20:00 18.9 C 12.96 g/m*3 18.9 C 6.4 km/h
1278 14-06-2020 10:25:00 18.9 C 12.96 g/m*3 18.9 C 6.4 km/h
1279 14-06-2020 10:30:00 18.8 C 13.05 g/m*3 18.8 C 3.2 km/h
1280 14-06-2020 10:35:00 18.9 C 13.12 g/m*3 18.9 C 3.2 km/h
1281 14-06-2020 10:40:00 18.9 C 13.12 g/m*3 18.9 C 4.8 km/h
1282 14-06-2020 10:45:00 18.9 C 13.12 g/m*3 18.9 C 4.8 km/h
1283 14-06-2020 10:50:00 18.8 C 13.21 g/m*3 18.8 C 1.6 km/h
1284 14-06-2020 10:55:00 18.8 C 13.05 g/m*3 18.8 C 9.7 km/h
1285 14-06-2020 11:00:00 18.8 C 13.21 g/m*3 18.8 C 1.6 km/h
1286 14-06-2020 11:05:00 18.7 C 13.29 g/m*3 18.7 C 1.6 km/h
1287 14-06-2020 11:10:00 18.7 C 13.29 g/m*3 18.7 C 3.2 km/h
1288 14-06-2020 11:15:00 18.7 C 13.13 g/m*3 18.7 C 8.1 km/h
1289 14-06-2020 11:20:00 18.7 C 12.81 g/m*3 18.7 C 9.7 km/h
1290 14-06-2020 11:25:00 18.8 C 12.88 g/m*3 18.8 C 4.8 km/h
1291 14-06-2020 11:30:00 18.9 C 12.96 g/m*3 18.9 C 9.7 km/h
1292 14-06-2020 11:35:00 19.1 C 13.11 g/m*3 19.1 C 4.8 km/h
1293 14-06-2020 11:40:00 19.2 C 13.03 g/m*3 19.2 C 8.1 km/h
1294 14-06-2020 11:45:00 19.2 C 13.03 g/m*3 19.2 C 8.1 km/h
1295 14-06-2020 11:50:00 19.3 C 12.94 g/m*3 19.3 C 12.9 km/h
1296 14-06-2020 11:55:00 19.4 C 13.01 g/m*3 19.4 C 12.9 km/h
1297 14-06-2020 12:00:00 19.4 C 12.68 g/m*3 19.4 C 6.4 km/h
1298 14-06-2020 12:05:00 19.4 C 12.35 g/m*3 19.4 C 11.3 km/h
1299 14-06-2020 12:10:00 19.4 C 12.35 g/m*3 19.4 C 12.9 km/h
1300 14-06-2020 12:15:00 19.4 C 12.35 g/m*3 19.4 C 11.3 km/h
Sensor: Nr:Datum:Temp:Abs-Feuchte:Windchill:Wind:
Aussen-T/F 1301 14-06-2020 12:20:00 19.5 C 12.42 g/m*3 19.5 C 8.1 km/h
1302 14-06-2020 12:25:00 19.6 C 12.49 g/m*3 19.6 C 6.4 km/h
1303 14-06-2020 12:30:00 19.6 C 12.66 g/m*3 19.6 C 9.7 km/h
1304 14-06-2020 12:35:00 19.7 C 12.91 g/m*3 19.7 C 4.8 km/h
1305 14-06-2020 12:40:00 19.7 C 12.91 g/m*3 19.7 C 4.8 km/h
1306 14-06-2020 12:45:00 19.6 C 12.66 g/m*3 19.6 C 11.3 km/h
1307 14-06-2020 12:50:00 19.6 C 12.83 g/m*3 19.6 C 6.4 km/h
1308 14-06-2020 12:55:00 19.5 C 12.75 g/m*3 19.5 C 4.8 km/h
1309 14-06-2020 13:00:00 19.5 C 12.75 g/m*3 19.5 C 9.7 km/h
1310 14-06-2020 13:05:00 19.4 C 12.68 g/m*3 19.4 C 9.7 km/h
1311 14-06-2020 13:10:00 19.3 C 12.61 g/m*3 19.3 C 9.7 km/h
1312 14-06-2020 13:15:00 19.3 C 12.77 g/m*3 19.3 C 11.3 km/h
1313 14-06-2020 13:20:00 19.4 C 12.85 g/m*3 19.4 C 8.1 km/h
1314 14-06-2020 13:25:00 19.6 C 13 g/m*3 19.6 C 8.1 km/h
1315 14-06-2020 13:30:00 19.7 C 13.08 g/m*3 19.7 C 8.1 km/h
1316 14-06-2020 13:35:00 19.9 C 13.06 g/m*3 19.9 C 8.1 km/h
1317 14-06-2020 13:40:00 20.1 C 13.04 g/m*3 20.1 C 4.8 km/h
1318 14-06-2020 13:45:00 20.1 C 13.04 g/m*3 20.1 C 11.3 km/h
1319 14-06-2020 13:50:00 20.2 C 13.11 g/m*3 20.2 C 8.1 km/h
1320 14-06-2020 13:55:00 20.2 C 13.11 g/m*3 20.2 C 8.1 km/h
1321 14-06-2020 14:00:00 20.1 C 12.86 g/m*3 20.1 C 9.7 km/h
1322 14-06-2020 14:05:00 20 C 12.96 g/m*3 20 C 11.3 km/h
1323 14-06-2020 14:10:00 20 C 12.96 g/m*3 20 C 6.4 km/h
1324 14-06-2020 14:15:00 20.1 C 13.04 g/m*3 20.1 C 6.4 km/h
1325 14-06-2020 14:20:00 20.1 C 13.21 g/m*3 20.1 C 3.2 km/h
Sensor: Nr:Datum:Temp:Abs-Feuchte:Windchill:Wind:
Aussen-T/F 1326 14-06-2020 14:25:00 20.2 C 13.29 g/m*3 20.2 C 1.6 km/h
1327 14-06-2020 14:30:00 20.2 C 13.11 g/m*3 20.2 C 6.4 km/h
1328 14-06-2020 14:35:00 20.3 C 13.19 g/m*3 20.3 C 4.8 km/h
1329 14-06-2020 14:40:00 20.3 C 13.01 g/m*3 20.3 C 6.4 km/h
1330 14-06-2020 14:45:00 20.4 C 13.09 g/m*3 20.4 C 1.6 km/h
1331 14-06-2020 14:50:00 20.4 C 13.27 g/m*3 20.4 C 1.6 km/h
1332 14-06-2020 14:55:00 20.3 C 12.84 g/m*3 20.3 C 3.2 km/h
1333 14-06-2020 15:00:00 20.4 C 13.09 g/m*3 20.4 C 1.6 km/h
1334 14-06-2020 15:05:00 20.4 C 13.27 g/m*3 20.4 C 0 km/h
1335 14-06-2020 15:10:00 20.4 C 12.91 g/m*3 20.4 C 3.2 km/h
1336 14-06-2020 15:15:00 20.5 C 12.81 g/m*3 20.5 C 4.8 km/h
1337 14-06-2020 15:20:00 20.6 C 13.24 g/m*3 20.6 C 1.6 km/h
1338 14-06-2020 15:25:00 20.6 C 13.07 g/m*3 20.6 C 1.6 km/h
1339 14-06-2020 15:30:00 20.7 C 13.32 g/m*3 20.7 C 0 km/h
1340 14-06-2020 15:35:00 20.7 C 13.14 g/m*3 20.7 C 3.2 km/h
1341 14-06-2020 15:40:00 20.7 C 13.32 g/m*3 20.7 C 1.6 km/h
1342 14-06-2020 15:45:00 20.8 C 13.4 g/m*3 20.8 C 0 km/h
1343 14-06-2020 15:50:00 20.8 C 13.22 g/m*3 20.8 C 0 km/h
1344 14-06-2020 15:55:00 20.8 C 13.04 g/m*3 20.8 C 1.6 km/h
1345 14-06-2020 16:00:00 20.9 C 13.66 g/m*3 20.9 C 0 km/h
1346 14-06-2020 16:05:00 21.1 C 14 g/m*3 21.1 C 0 km/h
1347 14-06-2020 16:10:00 21.1 C 13.63 g/m*3 21.1 C 0 km/h
1348 14-06-2020 16:15:00 21.2 C 14.27 g/m*3 21.2 C 0 km/h
1349 14-06-2020 16:20:00 21.3 C 14.35 g/m*3 21.3 C 0 km/h
1350 14-06-2020 16:25:00 21.2 C 14.27 g/m*3 21.2 C 0 km/h
Sensor: Nr:Datum:Temp:Abs-Feuchte:Windchill:Wind:
Aussen-T/F 1351 14-06-2020 16:30:00 21.2 C 14.08 g/m*3 21.2 C 0 km/h
1352 14-06-2020 16:35:00 21.2 C 14.08 g/m*3 21.2 C 0 km/h
1353 14-06-2020 16:40:00 21.2 C 14.27 g/m*3 21.2 C 0 km/h
1354 14-06-2020 16:45:00 21.3 C 14.54 g/m*3 21.3 C 0 km/h
1355 14-06-2020 16:50:00 21.3 C 13.98 g/m*3 21.3 C 1.6 km/h
1356 14-06-2020 16:55:00 21.3 C 13.79 g/m*3 21.3 C 0 km/h
1357 14-06-2020 17:00:00 21.3 C 12.86 g/m*3 21.3 C 1.6 km/h
1358 14-06-2020 17:05:00 21.2 C 12.6 g/m*3 21.2 C 4.8 km/h
1359 14-06-2020 17:10:00 21.2 C 12.42 g/m*3 21.2 C 4.8 km/h
1360 14-06-2020 17:15:00 21.3 C 12.49 g/m*3 21.3 C 8.1 km/h
1361 14-06-2020 17:20:00 21.3 C 12.49 g/m*3 21.3 C 4.8 km/h
1362 14-06-2020 17:25:00 21.3 C 12.68 g/m*3 21.3 C 1.6 km/h
1363 14-06-2020 17:30:00 21.4 C 12.37 g/m*3 21.4 C 4.8 km/h
1364 14-06-2020 17:35:00 21.4 C 12.75 g/m*3 21.4 C 1.6 km/h
1365 14-06-2020 17:40:00 21.6 C 13.09 g/m*3 21.6 C 1.6 km/h
1366 14-06-2020 17:45:00 21.4 C 13.31 g/m*3 21.4 C 4.8 km/h
1367 14-06-2020 17:50:00 21.3 C 13.42 g/m*3 21.3 C 4.8 km/h
1368 14-06-2020 17:55:00 21.3 C 13.42 g/m*3 21.3 C 3.2 km/h
1369 14-06-2020 18:00:00 21.1 C 13.08 g/m*3 21.1 C 9.7 km/h
1370 14-06-2020 18:05:00 21.1 C 13.45 g/m*3 21.1 C 1.6 km/h
1371 14-06-2020 18:10:00 20.9 C 13.48 g/m*3 20.9 C 4.8 km/h
1372 14-06-2020 18:15:00 20.8 C 13.4 g/m*3 20.8 C 4.8 km/h
1373 14-06-2020 18:20:00 20.7 C 13.5 g/m*3 20.7 C 3.2 km/h
1374 14-06-2020 18:25:00 20.6 C 13.6 g/m*3 20.6 C 9.7 km/h
1375 14-06-2020 18:30:00 20.4 C 13.44 g/m*3 20.4 C 4.8 km/h
Sensor: Nr:Datum:Temp:Abs-Feuchte:Windchill:Wind:
Aussen-T/F 1376 14-06-2020 18:35:00 20.3 C 13.54 g/m*3 20.3 C 3.2 km/h
1377 14-06-2020 18:40:00 20.3 C 13.54 g/m*3 20.3 C 3.2 km/h
1378 14-06-2020 18:45:00 20.2 C 13.46 g/m*3 20.2 C 6.4 km/h
1379 14-06-2020 18:50:00 20.3 C 13.54 g/m*3 20.3 C 4.8 km/h
1380 14-06-2020 18:55:00 20.3 C 13.72 g/m*3 20.3 C 3.2 km/h
1381 14-06-2020 19:00:00 20.4 C 13.98 g/m*3 20.4 C 8.1 km/h
1382 14-06-2020 19:05:00 20.3 C 13.89 g/m*3 20.3 C 3.2 km/h
1383 14-06-2020 19:10:00 20.1 C 13.73 g/m*3 20.1 C 8.1 km/h
1384 14-06-2020 19:15:00 20 C 13.65 g/m*3 20 C 3.2 km/h
1385 14-06-2020 19:20:00 19.9 C 13.74 g/m*3 19.9 C 3.2 km/h
1386 14-06-2020 19:25:00 19.8 C 13.49 g/m*3 19.8 C 6.4 km/h
1387 14-06-2020 19:30:00 19.7 C 13.58 g/m*3 19.7 C 1.6 km/h
1388 14-06-2020 19:35:00 19.7 C 13.41 g/m*3 19.7 C 1.6 km/h
1389 14-06-2020 19:40:00 19.7 C 13.58 g/m*3 19.7 C 1.6 km/h
1390 14-06-2020 19:45:00 19.6 C 13.67 g/m*3 19.6 C 1.6 km/h
1391 14-06-2020 19:50:00 19.5 C 13.59 g/m*3 19.5 C 1.6 km/h
1392 14-06-2020 19:55:00 19.4 C 13.35 g/m*3 19.4 C 8.1 km/h
1393 14-06-2020 20:00:00 19.4 C 13.01 g/m*3 19.4 C 4.8 km/h
1394 14-06-2020 20:05:00 19.3 C 13.1 g/m*3 19.3 C 6.4 km/h
1395 14-06-2020 20:10:00 19.2 C 13.19 g/m*3 19.2 C 0 km/h
1396 14-06-2020 20:15:00 19.2 C 13.52 g/m*3 19.2 C 3.2 km/h
1397 14-06-2020 20:20:00 18.9 C 13.45 g/m*3 18.9 C 6.4 km/h
1398 14-06-2020 20:25:00 18.7 C 13.45 g/m*3 18.7 C 6.4 km/h
1399 14-06-2020 20:30:00 18.6 C 13.53 g/m*3 18.6 C 6.4 km/h
1400 14-06-2020 20:35:00 18.4 C 13.53 g/m*3 18.4 C 8.1 km/h
Sensor: Nr:Datum:Temp:Abs-Feuchte:Windchill:Wind:
Aussen-T/F 1401 14-06-2020 20:40:00 18.2 C 13.52 g/m*3 18.2 C 8.1 km/h
1402 14-06-2020 20:45:00 18.1 C 13.44 g/m*3 18.1 C 8.1 km/h
1403 14-06-2020 20:50:00 18 C 13.52 g/m*3 18 C 4.8 km/h
1404 14-06-2020 20:55:00 17.9 C 13.44 g/m*3 17.9 C 8.1 km/h
1405 14-06-2020 21:00:00 17.8 C 13.36 g/m*3 17.8 C 4.8 km/h
1406 14-06-2020 21:05:00 17.8 C 13.36 g/m*3 17.8 C 8.1 km/h
1407 14-06-2020 21:10:00 17.8 C 13.51 g/m*3 17.8 C 4.8 km/h
1408 14-06-2020 21:15:00 17.8 C 13.51 g/m*3 17.8 C 3.2 km/h
1409 14-06-2020 21:20:00 17.8 C 13.51 g/m*3 17.8 C 1.6 km/h
1410 14-06-2020 21:25:00 17.8 C 13.51 g/m*3 17.8 C 1.6 km/h
1411 14-06-2020 21:30:00 17.8 C 13.51 g/m*3 17.8 C 1.6 km/h
1412 14-06-2020 21:35:00 17.8 C 13.36 g/m*3 17.8 C 3.2 km/h
1413 14-06-2020 21:40:00 17.8 C 13.36 g/m*3 17.8 C 4.8 km/h
1414 14-06-2020 21:45:00 17.8 C 13.2 g/m*3 17.8 C 6.4 km/h
1415 14-06-2020 21:50:00 17.8 C 13.2 g/m*3 17.8 C 0 km/h
1416 14-06-2020 21:55:00 17.8 C 13.2 g/m*3 17.8 C 3.2 km/h
1417 14-06-2020 22:00:00 17.8 C 13.2 g/m*3 17.8 C 6.4 km/h
1418 14-06-2020 22:05:00 17.8 C 13.2 g/m*3 17.8 C 1.6 km/h
1419 14-06-2020 22:10:00 17.8 C 13.05 g/m*3 17.8 C 8.1 km/h
1420 14-06-2020 22:15:00 17.9 C 13.13 g/m*3 17.9 C 4.8 km/h
1421 14-06-2020 22:20:00 18.1 C 13.44 g/m*3 18.1 C 1.6 km/h
1422 14-06-2020 22:25:00 18 C 13.36 g/m*3 18 C 1.6 km/h
1423 14-06-2020 22:30:00 17.9 C 13.44 g/m*3 17.9 C 0 km/h
1424 14-06-2020 22:35:00 17.9 C 13.44 g/m*3 17.9 C 3.2 km/h
1425 14-06-2020 22:40:00 17.8 C 13.36 g/m*3 17.8 C 3.2 km/h
Sensor: Nr:Datum:Temp:Abs-Feuchte:Windchill:Wind:
Aussen-T/F 1426 14-06-2020 22:45:00 17.7 C 13.28 g/m*3 17.7 C 3.2 km/h
1427 14-06-2020 22:50:00 17.6 C 13.35 g/m*3 17.6 C 1.6 km/h
1428 14-06-2020 22:55:00 17.6 C 13.35 g/m*3 17.6 C 0 km/h
1429 14-06-2020 23:00:00 17.4 C 13.19 g/m*3 17.4 C 0 km/h
1430 14-06-2020 23:05:00 17.4 C 13.34 g/m*3 17.4 C 0 km/h
1431 14-06-2020 23:10:00 17.3 C 13.26 g/m*3 17.3 C 0 km/h
1432 14-06-2020 23:15:00 17.3 C 13.26 g/m*3 17.3 C 0 km/h
1433 14-06-2020 23:20:00 17.2 C 13.18 g/m*3 17.2 C 0 km/h
1434 14-06-2020 23:25:00 17.2 C 13.18 g/m*3 17.2 C 0 km/h
1435 14-06-2020 23:30:00 17.2 C 13.18 g/m*3 17.2 C 3.2 km/h
1436 14-06-2020 23:35:00 17.1 C 13.1 g/m*3 17.1 C 4.8 km/h
1437 14-06-2020 23:40:00 17.1 C 13.1 g/m*3 17.1 C 1.6 km/h
1438 14-06-2020 23:45:00 17.1 C 13.1 g/m*3 17.1 C 1.6 km/h
1439 14-06-2020 23:50:00 17.2 C 13.18 g/m*3 17.2 C 3.2 km/h
1440 14-06-2020 23:55:00 17.2 C 13.18 g/m*3 17.2 C 1.6 km/h
1441 15-06-2020 00:00:00 17.3 C 13.26 g/m*3 17.3 C 6.4 km/h
1442 15-06-2020 00:05:00 17.3 C 13.11 g/m*3 17.3 C 1.6 km/h
1443 15-06-2020 00:10:00 17.3 C 13.26 g/m*3 17.3 C 3.2 km/h
1444 15-06-2020 00:15:00 17.4 C 13.19 g/m*3 17.4 C 3.2 km/h
1445 15-06-2020 00:20:00 17.4 C 13.19 g/m*3 17.4 C 6.4 km/h
1446 15-06-2020 00:25:00 17.4 C 13.04 g/m*3 17.4 C 6.4 km/h
1447 15-06-2020 00:30:00 17.3 C 12.67 g/m*3 17.3 C 11.3 km/h
1448 15-06-2020 00:35:00 17.3 C 12.67 g/m*3 17.3 C 11.3 km/h
1449 15-06-2020 00:40:00 17.2 C 12.45 g/m*3 17.2 C 4.8 km/h
1450 15-06-2020 00:45:00 17.2 C 12.45 g/m*3 17.2 C 1.6 km/h
Sensor: Nr:Datum:Temp:Abs-Feuchte:Windchill:Wind:
Aussen-T/F 1451 15-06-2020 00:50:00 17.2 C 12.59 g/m*3 17.2 C 6.4 km/h
1452 15-06-2020 00:55:00 17.1 C 12.52 g/m*3 17.1 C 3.2 km/h
1453 15-06-2020 01:00:00 17.1 C 12.52 g/m*3 17.1 C 1.6 km/h
1454 15-06-2020 01:05:00 17 C 12.44 g/m*3 17 C 1.6 km/h
1455 15-06-2020 01:10:00 17 C 12.44 g/m*3 17 C 3.2 km/h
1456 15-06-2020 01:15:00 16.9 C 12.51 g/m*3 16.9 C 4.8 km/h
1457 15-06-2020 01:20:00 16.9 C 12.51 g/m*3 16.9 C 4.8 km/h
1458 15-06-2020 01:25:00 16.9 C 12.51 g/m*3 16.9 C 6.4 km/h
1459 15-06-2020 01:30:00 16.8 C 12.44 g/m*3 16.8 C 6.4 km/h
1460 15-06-2020 01:35:00 16.8 C 12.44 g/m*3 16.8 C 1.6 km/h
1461 15-06-2020 01:40:00 16.8 C 12.44 g/m*3 16.8 C 0 km/h
1462 15-06-2020 01:45:00 16.8 C 12.58 g/m*3 16.8 C 0 km/h
1463 15-06-2020 01:50:00 16.7 C 12.51 g/m*3 16.7 C 1.6 km/h
1464 15-06-2020 01:55:00 16.7 C 12.51 g/m*3 16.7 C 0 km/h
1465 15-06-2020 02:00:00 16.7 C 12.51 g/m*3 16.7 C 0 km/h
1466 15-06-2020 02:05:00 16.7 C 12.51 g/m*3 16.7 C 3.2 km/h
1467 15-06-2020 02:10:00 16.7 C 12.51 g/m*3 16.7 C 4.8 km/h
1468 15-06-2020 02:15:00 16.6 C 12.57 g/m*3 16.6 C 1.6 km/h
1469 15-06-2020 02:20:00 16.6 C 12.57 g/m*3 16.6 C 0 km/h
1470 15-06-2020 02:25:00 16.6 C 12.57 g/m*3 16.6 C 3.2 km/h
1471 15-06-2020 02:30:00 16.6 C 12.57 g/m*3 16.6 C 3.2 km/h
1472 15-06-2020 02:35:00 16.6 C 12.57 g/m*3 16.6 C 1.6 km/h
1473 15-06-2020 02:40:00 16.6 C 12.57 g/m*3 16.6 C 1.6 km/h
1474 15-06-2020 02:45:00 16.6 C 12.57 g/m*3 16.6 C 4.8 km/h
1475 15-06-2020 02:50:00 16.6 C 12.57 g/m*3 16.6 C 1.6 km/h
Sensor: Nr:Datum:Temp:Abs-Feuchte:Windchill:Wind:
Aussen-T/F 1476 15-06-2020 02:55:00 16.6 C 12.57 g/m*3 16.6 C 0 km/h
1477 15-06-2020 03:00:00 16.6 C 12.57 g/m*3 16.6 C 1.6 km/h
1478 15-06-2020 03:05:00 16.6 C 12.57 g/m*3 16.6 C 3.2 km/h
1479 15-06-2020 03:10:00 16.6 C 12.57 g/m*3 16.6 C 3.2 km/h
1480 15-06-2020 03:15:00 16.6 C 12.57 g/m*3 16.6 C 0 km/h
1481 15-06-2020 03:20:00 16.5 C 12.5 g/m*3 16.5 C 1.6 km/h
1482 15-06-2020 03:25:00 16.5 C 12.5 g/m*3 16.5 C 3.2 km/h
1483 15-06-2020 03:30:00 16.5 C 12.5 g/m*3 16.5 C 3.2 km/h
1484 15-06-2020 03:35:00 16.6 C 12.57 g/m*3 16.6 C 1.6 km/h
1485 15-06-2020 03:40:00 16.6 C 12.57 g/m*3 16.6 C 1.6 km/h
1486 15-06-2020 03:45:00 16.6 C 12.57 g/m*3 16.6 C 0 km/h
1487 15-06-2020 03:50:00 16.6 C 12.57 g/m*3 16.6 C 0 km/h
1488 15-06-2020 03:55:00 16.6 C 12.57 g/m*3 16.6 C 0 km/h
1489 15-06-2020 04:00:00 16.6 C 12.57 g/m*3 16.6 C 0 km/h
1490 15-06-2020 04:05:00 16.6 C 12.57 g/m*3 16.6 C 1.6 km/h
1491 15-06-2020 04:10:00 16.6 C 12.57 g/m*3 16.6 C 1.6 km/h
1492 15-06-2020 04:15:00 16.6 C 12.71 g/m*3 16.6 C 4.8 km/h
1493 15-06-2020 04:20:00 16.6 C 12.71 g/m*3 16.6 C 4.8 km/h
1494 15-06-2020 04:25:00 16.6 C 12.71 g/m*3 16.6 C 4.8 km/h
1495 15-06-2020 04:30:00 16.6 C 12.71 g/m*3 16.6 C 6.4 km/h
1496 15-06-2020 04:35:00 16.7 C 12.79 g/m*3 16.7 C 8.1 km/h
1497 15-06-2020 04:40:00 16.7 C 12.65 g/m*3 16.7 C 4.8 km/h
1498 15-06-2020 04:45:00 16.7 C 12.65 g/m*3 16.7 C 6.4 km/h
1499 15-06-2020 04:50:00 16.7 C 12.65 g/m*3 16.7 C 4.8 km/h
1500 15-06-2020 04:55:00 16.7 C 12.65 g/m*3 16.7 C 4.8 km/h
Sensor: Nr:Datum:Temp:Abs-Feuchte:Windchill:Wind:
Aussen-T/F 1501 15-06-2020 05:00:00 16.7 C 12.65 g/m*3 16.7 C 1.6 km/h
1502 15-06-2020 05:05:00 16.6 C 12.71 g/m*3 16.6 C 0 km/h
1503 15-06-2020 05:10:00 16.6 C 12.71 g/m*3 16.6 C 1.6 km/h
1504 15-06-2020 05:15:00 16.6 C 12.71 g/m*3 16.6 C 1.6 km/h
1505 15-06-2020 05:20:00 16.6 C 12.71 g/m*3 16.6 C 4.8 km/h
1506 15-06-2020 05:25:00 16.5 C 12.64 g/m*3 16.5 C 1.6 km/h
1507 15-06-2020 05:30:00 16.5 C 12.64 g/m*3 16.5 C 8.1 km/h
1508 15-06-2020 05:35:00 16.5 C 12.64 g/m*3 16.5 C 1.6 km/h
1509 15-06-2020 05:40:00 16.4 C 12.56 g/m*3 16.4 C 4.8 km/h
1510 15-06-2020 05:45:00 16.5 C 12.64 g/m*3 16.5 C 4.8 km/h
1511 15-06-2020 05:50:00 16.5 C 12.64 g/m*3 16.5 C 1.6 km/h
1512 15-06-2020 05:55:00 16.5 C 12.64 g/m*3 16.5 C 1.6 km/h
1513 15-06-2020 06:00:00 16.5 C 12.64 g/m*3 16.5 C 4.8 km/h
1514 15-06-2020 06:05:00 16.6 C 12.71 g/m*3 16.6 C 4.8 km/h
1515 15-06-2020 06:10:00 16.6 C 12.71 g/m*3 16.6 C 1.6 km/h
1516 15-06-2020 06:15:00 16.6 C 12.71 g/m*3 16.6 C 0 km/h
1517 15-06-2020 06:20:00 16.6 C 12.71 g/m*3 16.6 C 0 km/h
1518 15-06-2020 06:25:00 16.6 C 12.71 g/m*3 16.6 C 3.2 km/h
1519 15-06-2020 06:30:00 16.6 C 12.71 g/m*3 16.6 C 1.6 km/h
1520 15-06-2020 06:35:00 16.6 C 12.71 g/m*3 16.6 C 1.6 km/h
1521 15-06-2020 06:40:00 16.6 C 12.71 g/m*3 16.6 C 0 km/h
1522 15-06-2020 06:45:00 16.6 C 12.71 g/m*3 16.6 C 0 km/h
1523 15-06-2020 06:50:00 16.6 C 12.71 g/m*3 16.6 C 1.6 km/h
1524 15-06-2020 06:55:00 16.7 C 12.79 g/m*3 16.7 C 0 km/h
1525 15-06-2020 07:00:00 16.7 C 12.79 g/m*3 16.7 C 1.6 km/h
Sensor: Nr:Datum:Temp:Abs-Feuchte:Windchill:Wind:
Aussen-T/F 1526 15-06-2020 07:05:00 16.7 C 12.79 g/m*3 16.7 C 0 km/h
1527 15-06-2020 07:10:00 16.7 C 12.79 g/m*3 16.7 C 0 km/h
1528 15-06-2020 07:15:00 16.7 C 12.79 g/m*3 16.7 C 0 km/h
1529 15-06-2020 07:20:00 16.7 C 12.79 g/m*3 16.7 C 1.6 km/h
1530 15-06-2020 07:25:00 16.7 C 12.79 g/m*3 16.7 C 0 km/h
1531 15-06-2020 07:30:00 16.8 C 12.87 g/m*3 16.8 C 0 km/h
1532 15-06-2020 07:35:00 16.8 C 12.87 g/m*3 16.8 C 4.8 km/h
1533 15-06-2020 07:40:00 16.9 C 12.94 g/m*3 16.9 C 4.8 km/h
1534 15-06-2020 07:45:00 16.9 C 12.94 g/m*3 16.9 C 1.6 km/h
1535 15-06-2020 07:50:00 17 C 13.02 g/m*3 17 C 0 km/h
1536 15-06-2020 07:55:00 17.1 C 13.1 g/m*3 17.1 C 0 km/h
1537 15-06-2020 08:00:00 17.1 C 12.96 g/m*3 17.1 C 6.4 km/h
1538 15-06-2020 08:05:00 17.2 C 13.03 g/m*3 17.2 C 3.2 km/h
1539 15-06-2020 08:10:00 17.2 C 13.03 g/m*3 17.2 C 0 km/h
1540 15-06-2020 08:15:00 17.3 C 13.11 g/m*3 17.3 C 4.8 km/h
1541 15-06-2020 08:20:00 17.4 C 13.19 g/m*3 17.4 C 1.6 km/h
1542 15-06-2020 08:25:00 17.4 C 13.04 g/m*3 17.4 C 3.2 km/h
1543 15-06-2020 08:30:00 17.6 C 13.2 g/m*3 17.6 C 1.6 km/h
1544 15-06-2020 08:35:00 17.7 C 13.13 g/m*3 17.7 C 3.2 km/h
1545 15-06-2020 08:40:00 17.8 C 13.36 g/m*3 17.8 C 1.6 km/h
1546 15-06-2020 08:45:00 17.9 C 13.28 g/m*3 17.9 C 6.4 km/h
1547 15-06-2020 08:50:00 17.9 C 13.28 g/m*3 17.9 C 6.4 km/h
1548 15-06-2020 08:55:00 18 C 13.21 g/m*3 18 C 4.8 km/h
1549 15-06-2020 09:00:00 18.1 C 13.29 g/m*3 18.1 C 3.2 km/h
1550 15-06-2020 09:05:00 18.1 C 13.13 g/m*3 18.1 C 6.4 km/h
Sensor: Nr:Datum:Temp:Abs-Feuchte:Windchill:Wind:
Aussen-T/F 1551 15-06-2020 09:10:00 18.1 C 13.13 g/m*3 18.1 C 4.8 km/h
1552 15-06-2020 09:15:00 18.2 C 13.21 g/m*3 18.2 C 3.2 km/h
1553 15-06-2020 09:20:00 18.2 C 13.21 g/m*3 18.2 C 1.6 km/h
1554 15-06-2020 09:25:00 18.3 C 13.45 g/m*3 18.3 C 3.2 km/h
1555 15-06-2020 09:30:00 18.3 C 13.29 g/m*3 18.3 C 4.8 km/h
1556 15-06-2020 09:35:00 18.3 C 13.45 g/m*3 18.3 C 6.4 km/h
1557 15-06-2020 09:40:00 18.4 C 13.37 g/m*3 18.4 C 9.7 km/h
1558 15-06-2020 09:45:00 18.5 C 13.45 g/m*3 18.5 C 6.4 km/h
1559 15-06-2020 09:50:00 18.6 C 13.53 g/m*3 18.6 C 9.7 km/h
1560 15-06-2020 09:55:00 18.8 C 13.53 g/m*3 18.8 C 4.8 km/h
1561 15-06-2020 10:00:00 18.9 C 13.61 g/m*3 18.9 C 6.4 km/h
1562 15-06-2020 10:05:00 19.1 C 13.77 g/m*3 19.1 C 6.4 km/h
1563 15-06-2020 10:10:00 19.2 C 13.69 g/m*3 19.2 C 9.7 km/h
1564 15-06-2020 10:15:00 19.2 C 13.69 g/m*3 19.2 C 8.1 km/h
1565 15-06-2020 10:20:00 19.4 C 13.85 g/m*3 19.4 C 3.2 km/h
1566 15-06-2020 10:25:00 19.5 C 13.76 g/m*3 19.5 C 9.7 km/h
1567 15-06-2020 10:30:00 19.5 C 13.59 g/m*3 19.5 C 6.4 km/h
1568 15-06-2020 10:35:00 19.5 C 13.59 g/m*3 19.5 C 3.2 km/h
1569 15-06-2020 10:40:00 19.6 C 13.67 g/m*3 19.6 C 6.4 km/h
1570 15-06-2020 10:45:00 19.6 C 13.84 g/m*3 19.6 C 4.8 km/h
1571 15-06-2020 10:50:00 19.7 C 13.75 g/m*3 19.7 C 8.1 km/h
1572 15-06-2020 10:55:00 19.7 C 13.58 g/m*3 19.7 C 6.4 km/h
1573 15-06-2020 11:00:00 19.6 C 13.67 g/m*3 19.6 C 6.4 km/h
1574 15-06-2020 11:05:00 19.7 C 13.58 g/m*3 19.7 C 8.1 km/h
1575 15-06-2020 11:10:00 19.8 C 13.66 g/m*3 19.8 C 4.8 km/h
Sensor: Nr:Datum:Temp:Abs-Feuchte:Windchill:Wind:
Aussen-T/F 1576 15-06-2020 11:15:00 20 C 14 g/m*3 20 C 3.2 km/h
1577 15-06-2020 11:20:00 20.2 C 13.81 g/m*3 20.2 C 4.8 km/h
1578 15-06-2020 11:25:00 20.2 C 13.81 g/m*3 20.2 C 6.4 km/h
1579 15-06-2020 11:30:00 20.2 C 13.46 g/m*3 20.2 C 8.1 km/h
1580 15-06-2020 11:35:00 20.2 C 13.46 g/m*3 20.2 C 6.4 km/h
1581 15-06-2020 11:40:00 20.3 C 13.72 g/m*3 20.3 C 4.8 km/h
1582 15-06-2020 11:45:00 20.3 C 13.54 g/m*3 20.3 C 3.2 km/h
1583 15-06-2020 11:50:00 20.4 C 13.44 g/m*3 20.4 C 4.8 km/h
1584 15-06-2020 11:55:00 20.5 C 13.17 g/m*3 20.5 C 4.8 km/h
1585 15-06-2020 12:00:00 20.6 C 12.89 g/m*3 20.6 C 6.4 km/h
1586 15-06-2020 12:05:00 20.6 C 12.53 g/m*3 20.6 C 8.1 km/h
1587 15-06-2020 12:10:00 20.7 C 12.6 g/m*3 20.7 C 9.7 km/h
1588 15-06-2020 12:15:00 20.6 C 12.53 g/m*3 20.6 C 8.1 km/h
1589 15-06-2020 12:20:00 20.6 C 12.71 g/m*3 20.6 C 3.2 km/h
1590 15-06-2020 12:25:00 20.6 C 12.71 g/m*3 20.6 C 4.8 km/h
1591 15-06-2020 12:30:00 20.6 C 12.71 g/m*3 20.6 C 6.4 km/h
1592 15-06-2020 12:35:00 20.6 C 12.53 g/m*3 20.6 C 4.8 km/h
1593 15-06-2020 12:40:00 20.5 C 12.46 g/m*3 20.5 C 8.1 km/h
1594 15-06-2020 12:45:00 20.5 C 12.46 g/m*3 20.5 C 8.1 km/h
1595 15-06-2020 12:50:00 20.5 C 12.28 g/m*3 20.5 C 4.8 km/h
1596 15-06-2020 12:55:00 20.5 C 11.92 g/m*3 20.5 C 6.4 km/h
1597 15-06-2020 13:00:00 20.4 C 12.03 g/m*3 20.4 C 4.8 km/h
1598 15-06-2020 13:05:00 20.4 C 12.21 g/m*3 20.4 C 4.8 km/h
1599 15-06-2020 13:10:00 20.5 C 12.1 g/m*3 20.5 C 8.1 km/h
1600 15-06-2020 13:15:00 20.5 C 12.1 g/m*3 20.5 C 6.4 km/h
Sensor: Nr:Datum:Temp:Abs-Feuchte:Windchill:Wind:
Aussen-T/F 1601 15-06-2020 13:20:00 20.5 C 11.92 g/m*3 20.5 C 8.1 km/h
1602 15-06-2020 13:25:00 20.5 C 12.1 g/m*3 20.5 C 3.2 km/h
1603 15-06-2020 13:30:00 20.5 C 11.92 g/m*3 20.5 C 11.3 km/h
1604 15-06-2020 13:35:00 20.4 C 12.03 g/m*3 20.4 C 8.1 km/h
1605 15-06-2020 13:40:00 20.4 C 12.03 g/m*3 20.4 C 3.2 km/h
1606 15-06-2020 13:45:00 20.4 C 11.85 g/m*3 20.4 C 6.4 km/h
1607 15-06-2020 13:50:00 20.4 C 12.03 g/m*3 20.4 C 3.2 km/h
1608 15-06-2020 13:55:00 20.4 C 12.03 g/m*3 20.4 C 8.1 km/h
1609 15-06-2020 14:00:00 20.4 C 12.03 g/m*3 20.4 C 4.8 km/h
1610 15-06-2020 14:05:00 20.5 C 12.1 g/m*3 20.5 C 0 km/h
1611 15-06-2020 14:10:00 20.5 C 11.92 g/m*3 20.5 C 8.1 km/h
1612 15-06-2020 14:15:00 20.6 C 12.71 g/m*3 20.6 C 3.2 km/h
1613 15-06-2020 14:20:00 20.5 C 12.1 g/m*3 20.5 C 4.8 km/h
1614 15-06-2020 14:25:00 20.5 C 12.46 g/m*3 20.5 C 4.8 km/h
1615 15-06-2020 14:30:00 20.5 C 12.28 g/m*3 20.5 C 4.8 km/h
1616 15-06-2020 14:35:00 20.5 C 12.28 g/m*3 20.5 C 6.4 km/h
1617 15-06-2020 14:40:00 20.5 C 12.1 g/m*3 20.5 C 0 km/h
1618 15-06-2020 14:45:00 20.6 C 12.53 g/m*3 20.6 C 0 km/h
1619 15-06-2020 14:50:00 20.5 C 12.28 g/m*3 20.5 C 0 km/h
1620 15-06-2020 14:55:00 20.6 C 12.35 g/m*3 20.6 C 0 km/h
1621 15-06-2020 15:00:00 20.6 C 12.35 g/m*3 20.6 C 0 km/h
1622 15-06-2020 15:05:00 20.6 C 12.53 g/m*3 20.6 C 0 km/h
1623 15-06-2020 15:10:00 20.6 C 13.07 g/m*3 20.6 C 0 km/h
1624 15-06-2020 15:15:00 20.6 C 12.89 g/m*3 20.6 C 0 km/h
1625 15-06-2020 15:20:00 20.4 C 12.91 g/m*3 20.4 C 0 km/h
Sensor: Nr:Datum:Temp:Abs-Feuchte:Windchill:Wind:
Aussen-T/F 1626 15-06-2020 15:25:00 20.4 C 13.44 g/m*3 20.4 C 0 km/h
1627 15-06-2020 15:30:00 20.5 C 13.7 g/m*3 20.5 C 0 km/h
1628 15-06-2020 15:35:00 20.6 C 13.96 g/m*3 20.6 C 0 km/h
1629 15-06-2020 15:40:00 20.5 C 13.17 g/m*3 20.5 C 0 km/h
1630 15-06-2020 15:45:00 20.6 C 13.24 g/m*3 20.6 C 0 km/h
1631 15-06-2020 15:50:00 20.6 C 12.89 g/m*3 20.6 C 0 km/h
1632 15-06-2020 15:55:00 20.7 C 12.78 g/m*3 20.7 C 0 km/h
1633 15-06-2020 16:00:00 20.8 C 12.86 g/m*3 20.8 C 0 km/h
1634 15-06-2020 16:05:00 20.8 C 13.04 g/m*3 20.8 C 0 km/h
1635 15-06-2020 16:10:00 21 C 13.01 g/m*3 21 C 0 km/h
1636 15-06-2020 16:15:00 21.1 C 13.27 g/m*3 21.1 C 0 km/h
1637 15-06-2020 16:20:00 21.1 C 12.71 g/m*3 21.1 C 0 km/h
1638 15-06-2020 16:25:00 21.1 C 12.71 g/m*3 21.1 C 0 km/h
1639 15-06-2020 17:35:00 21.1 C 12.16 g/m*3 21.1 C 4.8 km/h
1640 15-06-2020 17:40:00 21.1 C 12.16 g/m*3 21.1 C 3.2 km/h
1641 15-06-2020 17:45:00 21.1 C 12.34 g/m*3 21.1 C 1.6 km/h
1642 15-06-2020 17:50:00 21.1 C 12.16 g/m*3 21.1 C 4.8 km/h
1643 15-06-2020 17:55:00 21.1 C 12.34 g/m*3 21.1 C 0 km/h
1644 15-06-2020 18:00:00 21.2 C 12.42 g/m*3 21.2 C 0 km/h
1645 15-06-2020 18:05:00 21.2 C 12.23 g/m*3 21.2 C 0 km/h
1646 15-06-2020 18:10:00 21.3 C 12.49 g/m*3 21.3 C 0 km/h
1647 15-06-2020 18:15:00 21.3 C 12.3 g/m*3 21.3 C 0 km/h
1648 15-06-2020 18:20:00 21.3 C 12.49 g/m*3 21.3 C 0 km/h
1649 15-06-2020 18:25:00 21.3 C 12.49 g/m*3 21.3 C 0 km/h
1650 15-06-2020 18:30:00 21.4 C 12.37 g/m*3 21.4 C 0 km/h
Sensor: Nr:Datum:Temp:Abs-Feuchte:Windchill:Wind:
Aussen-T/F 1651 15-06-2020 18:35:00 21.3 C 12.12 g/m*3 21.3 C 4.8 km/h
1652 15-06-2020 18:40:00 21.3 C 12.3 g/m*3 21.3 C 1.6 km/h
1653 15-06-2020 18:45:00 21.3 C 11.93 g/m*3 21.3 C 3.2 km/h
1654 15-06-2020 18:50:00 21.3 C 12.12 g/m*3 21.3 C 0 km/h
1655 15-06-2020 18:55:00 21.3 C 12.49 g/m*3 21.3 C 0 km/h
1656 15-06-2020 19:00:00 21.4 C 12.56 g/m*3 21.4 C 0 km/h
1657 15-06-2020 19:05:00 21.4 C 13.12 g/m*3 21.4 C 0 km/h
1658 15-06-2020 19:10:00 21.5 C 13.39 g/m*3 21.5 C 0 km/h
1659 15-06-2020 19:15:00 21.6 C 13.09 g/m*3 21.6 C 0 km/h
1660 15-06-2020 19:20:00 21.6 C 13.28 g/m*3 21.6 C 0 km/h
1661 15-06-2020 19:25:00 21.6 C 13.47 g/m*3 21.6 C 0 km/h
1662 15-06-2020 19:30:00 21.6 C 13.66 g/m*3 21.6 C 0 km/h
1663 15-06-2020 19:35:00 21.5 C 13.58 g/m*3 21.5 C 0 km/h
1664 15-06-2020 19:40:00 21.3 C 13.42 g/m*3 21.3 C 0 km/h
1665 15-06-2020 19:45:00 21.1 C 13.45 g/m*3 21.1 C 0 km/h
1666 15-06-2020 19:50:00 20.8 C 13.22 g/m*3 20.8 C 3.2 km/h
1667 15-06-2020 19:55:00 20.5 C 12.99 g/m*3 20.5 C 3.2 km/h
1668 15-06-2020 20:00:00 20.3 C 12.84 g/m*3 20.3 C 4.8 km/h
1669 15-06-2020 20:05:00 20.1 C 12.69 g/m*3 20.1 C 3.2 km/h
1670 15-06-2020 20:10:00 19.9 C 12.71 g/m*3 19.9 C 0 km/h
1671 15-06-2020 20:15:00 19.8 C 12.64 g/m*3 19.8 C 3.2 km/h
1672 15-06-2020 20:20:00 19.7 C 12.91 g/m*3 19.7 C 3.2 km/h
1673 15-06-2020 20:25:00 19.6 C 13 g/m*3 19.6 C 0 km/h
1674 15-06-2020 20:30:00 19.5 C 12.92 g/m*3 19.5 C 3.2 km/h
1675 15-06-2020 20:35:00 19.4 C 12.68 g/m*3 19.4 C 3.2 km/h
Sensor: Nr:Datum:Temp:Abs-Feuchte:Windchill:Wind:
Aussen-T/F 1676 15-06-2020 20:40:00 19.3 C 12.77 g/m*3 19.3 C 0 km/h
1677 15-06-2020 20:45:00 19.2 C 12.7 g/m*3 19.2 C 4.8 km/h
1678 15-06-2020 20:50:00 19.1 C 12.62 g/m*3 19.1 C 4.8 km/h
1679 15-06-2020 20:55:00 19.1 C 12.46 g/m*3 19.1 C 4.8 km/h
1680 15-06-2020 21:00:00 18.9 C 12.31 g/m*3 18.9 C 4.8 km/h
1681 15-06-2020 21:05:00 18.9 C 12.47 g/m*3 18.9 C 4.8 km/h
1682 15-06-2020 21:10:00 18.8 C 12.4 g/m*3 18.8 C 6.4 km/h
1683 15-06-2020 21:15:00 18.8 C 12.4 g/m*3 18.8 C 4.8 km/h
1684 15-06-2020 21:20:00 18.7 C 12.33 g/m*3 18.7 C 4.8 km/h
1685 15-06-2020 21:25:00 18.7 C 12.49 g/m*3 18.7 C 4.8 km/h
1686 15-06-2020 21:30:00 18.6 C 12.57 g/m*3 18.6 C 4.8 km/h
1687 15-06-2020 21:35:00 18.5 C 12.5 g/m*3 18.5 C 4.8 km/h
1688 15-06-2020 21:40:00 18.4 C 12.58 g/m*3 18.4 C 3.2 km/h
1689 15-06-2020 21:45:00 18.4 C 12.58 g/m*3 18.4 C 0 km/h
1690 15-06-2020 21:50:00 18.3 C 12.51 g/m*3 18.3 C 3.2 km/h
1691 15-06-2020 21:55:00 18.2 C 12.43 g/m*3 18.2 C 3.2 km/h
1692 15-06-2020 22:00:00 18.1 C 12.36 g/m*3 18.1 C 3.2 km/h
1693 15-06-2020 22:05:00 18 C 12.44 g/m*3 18 C 0 km/h
1694 15-06-2020 22:10:00 17.9 C 12.37 g/m*3 17.9 C 0 km/h
1695 15-06-2020 22:15:00 17.8 C 12.45 g/m*3 17.8 C 0 km/h
1696 15-06-2020 22:20:00 17.7 C 12.37 g/m*3 17.7 C 0 km/h
1697 15-06-2020 22:25:00 17.6 C 12.3 g/m*3 17.6 C 0 km/h
1698 15-06-2020 22:30:00 17.6 C 12.3 g/m*3 17.6 C 0 km/h
1699 15-06-2020 22:35:00 17.5 C 12.23 g/m*3 17.5 C 0 km/h
1700 15-06-2020 22:40:00 17.4 C 12.3 g/m*3 17.4 C 0 km/h
Sensor: Nr:Datum:Temp:Abs-Feuchte:Windchill:Wind:
Aussen-T/F 1701 15-06-2020 22:45:00 17.4 C 12.3 g/m*3 17.4 C 0 km/h
1702 15-06-2020 22:50:00 17.4 C 12.3 g/m*3 17.4 C 0 km/h
1703 15-06-2020 22:55:00 17.3 C 12.37 g/m*3 17.3 C 0 km/h
1704 15-06-2020 23:00:00 17.3 C 12.37 g/m*3 17.3 C 0 km/h
1705 15-06-2020 23:05:00 17.3 C 12.37 g/m*3 17.3 C 0 km/h
1706 15-06-2020 23:10:00 17.2 C 12.3 g/m*3 17.2 C 0 km/h
1707 15-06-2020 23:15:00 17.2 C 12.3 g/m*3 17.2 C 0 km/h
1708 15-06-2020 23:20:00 17.2 C 12.3 g/m*3 17.2 C 0 km/h
1709 15-06-2020 23:25:00 17.2 C 12.3 g/m*3 17.2 C 0 km/h
1710 15-06-2020 23:30:00 17.1 C 12.23 g/m*3 17.1 C 0 km/h
1711 15-06-2020 23:35:00 17.1 C 12.37 g/m*3 17.1 C 0 km/h
1712 15-06-2020 23:40:00 17.1 C 12.37 g/m*3 17.1 C 0 km/h
1713 15-06-2020 23:45:00 17.1 C 12.37 g/m*3 17.1 C 0 km/h
1714 15-06-2020 23:50:00 17.1 C 12.37 g/m*3 17.1 C 0 km/h
1715 15-06-2020 23:55:00 17.1 C 12.37 g/m*3 17.1 C 0 km/h
1716 16-06-2020 00:00:00 17.1 C 12.52 g/m*3 17.1 C 0 km/h
1717 16-06-2020 00:05:00 17.1 C 12.52 g/m*3 17.1 C 0 km/h
1718 16-06-2020 00:10:00 17.1 C 12.37 g/m*3 17.1 C 0 km/h
1719 16-06-2020 00:15:00 17.1 C 12.52 g/m*3 17.1 C 0 km/h
1720 16-06-2020 00:20:00 17 C 12.3 g/m*3 17 C 0 km/h
1721 16-06-2020 00:25:00 17.1 C 12.37 g/m*3 17.1 C 0 km/h
1722 16-06-2020 00:30:00 17.1 C 12.52 g/m*3 17.1 C 0 km/h
1723 16-06-2020 00:35:00 17.1 C 12.52 g/m*3 17.1 C 0 km/h
1724 16-06-2020 00:40:00 17.2 C 12.89 g/m*3 17.2 C 0 km/h
1725 16-06-2020 00:45:00 17.2 C 12.89 g/m*3 17.2 C 0 km/h
Sensor: Nr:Datum:Temp:Abs-Feuchte:Windchill:Wind:
Aussen-T/F 1726 16-06-2020 00:50:00 17.2 C 12.89 g/m*3 17.2 C 0 km/h
1727 16-06-2020 00:55:00 17.1 C 12.96 g/m*3 17.1 C 0 km/h
1728 16-06-2020 01:00:00 17.1 C 13.1 g/m*3 17.1 C 0 km/h
1729 16-06-2020 01:05:00 17.1 C 13.1 g/m*3 17.1 C 0 km/h
1730 16-06-2020 01:10:00 17 C 13.02 g/m*3 17 C 0 km/h
1731 16-06-2020 01:15:00 16.9 C 12.94 g/m*3 16.9 C 0 km/h
1732 16-06-2020 01:20:00 16.9 C 12.94 g/m*3 16.9 C 0 km/h
1733 16-06-2020 01:25:00 16.8 C 12.87 g/m*3 16.8 C 0 km/h
1734 16-06-2020 01:30:00 16.8 C 13.01 g/m*3 16.8 C 0 km/h
1735 16-06-2020 01:35:00 16.8 C 13.01 g/m*3 16.8 C 0 km/h
1736 16-06-2020 01:40:00 16.8 C 13.15 g/m*3 16.8 C 0 km/h
1737 16-06-2020 01:45:00 16.8 C 13.15 g/m*3 16.8 C 0 km/h
1738 16-06-2020 01:50:00 16.8 C 13.15 g/m*3 16.8 C 0 km/h
1739 16-06-2020 01:55:00 16.7 C 13.07 g/m*3 16.7 C 0 km/h
1740 16-06-2020 02:00:00 16.7 C 13.07 g/m*3 16.7 C 0 km/h
1741 16-06-2020 02:05:00 16.7 C 13.22 g/m*3 16.7 C 0 km/h
1742 16-06-2020 02:10:00 16.6 C 13.14 g/m*3 16.6 C 0 km/h
1743 16-06-2020 02:15:00 16.6 C 13.14 g/m*3 16.6 C 0 km/h
1744 16-06-2020 02:20:00 16.5 C 13.06 g/m*3 16.5 C 0 km/h
1745 16-06-2020 02:25:00 16.4 C 12.98 g/m*3 16.4 C 0 km/h
1746 16-06-2020 02:30:00 16.4 C 12.98 g/m*3 16.4 C 0 km/h
1747 16-06-2020 02:35:00 16.4 C 12.98 g/m*3 16.4 C 0 km/h
1748 16-06-2020 02:40:00 16.4 C 12.98 g/m*3 16.4 C 0 km/h
1749 16-06-2020 02:45:00 16.3 C 12.9 g/m*3 16.3 C 0 km/h
1750 16-06-2020 02:50:00 16.3 C 12.9 g/m*3 16.3 C 0 km/h
Sensor: Nr:Datum:Temp:Abs-Feuchte:Windchill:Wind:
Aussen-T/F 1751 16-06-2020 02:55:00 16.2 C 12.82 g/m*3 16.2 C 0 km/h
1752 16-06-2020 03:00:00 16.3 C 13.04 g/m*3 16.3 C 0 km/h
1753 16-06-2020 03:05:00 16.2 C 12.96 g/m*3 16.2 C 0 km/h
1754 16-06-2020 03:10:00 16.2 C 12.96 g/m*3 16.2 C 0 km/h
1755 16-06-2020 03:15:00 16.2 C 12.96 g/m*3 16.2 C 0 km/h
1756 16-06-2020 03:20:00 16.2 C 12.96 g/m*3 16.2 C 0 km/h
1757 16-06-2020 03:25:00 16.2 C 12.96 g/m*3 16.2 C 0 km/h
1758 16-06-2020 03:30:00 16.2 C 12.96 g/m*3 16.2 C 0 km/h
1759 16-06-2020 03:35:00 16.2 C 12.96 g/m*3 16.2 C 0 km/h
1760 16-06-2020 03:40:00 16.2 C 12.96 g/m*3 16.2 C 0 km/h
1761 16-06-2020 03:45:00 16.2 C 12.96 g/m*3 16.2 C 0 km/h
1762 16-06-2020 03:50:00 16.2 C 12.96 g/m*3 16.2 C 0 km/h
1763 16-06-2020 03:55:00 16.1 C 13.02 g/m*3 16.1 C 0 km/h
1764 16-06-2020 04:00:00 16.1 C 13.02 g/m*3 16.1 C 0 km/h
1765 16-06-2020 04:05:00 16.1 C 13.02 g/m*3 16.1 C 0 km/h
1766 16-06-2020 04:10:00 16.1 C 13.02 g/m*3 16.1 C 0 km/h
1767 16-06-2020 04:15:00 16.1 C 13.02 g/m*3 16.1 C 0 km/h
1768 16-06-2020 04:20:00 16.1 C 13.02 g/m*3 16.1 C 0 km/h
1769 16-06-2020 04:25:00 16.1 C 13.02 g/m*3 16.1 C 0 km/h
1770 16-06-2020 04:30:00 16.1 C 13.02 g/m*3 16.1 C 0 km/h
1771 16-06-2020 04:35:00 16.1 C 13.02 g/m*3 16.1 C 0 km/h
1772 16-06-2020 04:40:00 16.1 C 13.02 g/m*3 16.1 C 0 km/h
1773 16-06-2020 04:45:00 16.1 C 13.02 g/m*3 16.1 C 0 km/h
1774 16-06-2020 04:50:00 16.2 C 13.1 g/m*3 16.2 C 0 km/h
1775 16-06-2020 04:55:00 16.2 C 13.1 g/m*3 16.2 C 0 km/h
Sensor: Nr:Datum:Temp:Abs-Feuchte:Windchill:Wind:
Aussen-T/F 1776 16-06-2020 05:00:00 16.2 C 13.1 g/m*3 16.2 C 0 km/h
1777 16-06-2020 05:05:00 16.2 C 13.1 g/m*3 16.2 C 0 km/h
1778 16-06-2020 05:10:00 16.1 C 13.02 g/m*3 16.1 C 0 km/h
1779 16-06-2020 05:15:00 16.1 C 13.02 g/m*3 16.1 C 0 km/h
1780 16-06-2020 05:20:00 16.1 C 13.02 g/m*3 16.1 C 0 km/h
1781 16-06-2020 05:25:00 16.1 C 13.02 g/m*3 16.1 C 0 km/h
1782 16-06-2020 05:30:00 16 C 12.94 g/m*3 16 C 0 km/h
1783 16-06-2020 05:35:00 16 C 12.94 g/m*3 16 C 1.6 km/h
1784 16-06-2020 05:40:00 16 C 12.94 g/m*3 16 C 1.6 km/h
1785 16-06-2020 05:45:00 16 C 12.94 g/m*3 16 C 0 km/h
1786 16-06-2020 05:50:00 16 C 12.94 g/m*3 16 C 0 km/h
1787 16-06-2020 05:55:00 15.9 C 12.87 g/m*3 15.9 C 0 km/h
1788 16-06-2020 06:00:00 15.9 C 12.87 g/m*3 15.9 C 0 km/h
1789 16-06-2020 06:05:00 15.9 C 12.87 g/m*3 15.9 C 1.6 km/h
1790 16-06-2020 06:10:00 15.9 C 12.87 g/m*3 15.9 C 1.6 km/h
1791 16-06-2020 06:15:00 15.9 C 12.87 g/m*3 15.9 C 0 km/h
1792 16-06-2020 06:20:00 15.9 C 12.87 g/m*3 15.9 C 0 km/h
1793 16-06-2020 06:25:00 15.9 C 13 g/m*3 15.9 C 0 km/h
1794 16-06-2020 06:30:00 15.9 C 13 g/m*3 15.9 C 0 km/h
1795 16-06-2020 06:35:00 16 C 13.08 g/m*3 16 C 0 km/h
1796 16-06-2020 06:40:00 16 C 13.08 g/m*3 16 C 1.6 km/h
1797 16-06-2020 06:45:00 16 C 13.08 g/m*3 16 C 0 km/h
1798 16-06-2020 06:50:00 16 C 13.08 g/m*3 16 C 0 km/h
1799 16-06-2020 06:55:00 16 C 13.08 g/m*3 16 C 0 km/h
1800 16-06-2020 07:00:00 16 C 13.08 g/m*3 16 C 0 km/h
Sensor: Nr:Datum:Temp:Abs-Feuchte:Windchill:Wind:
Aussen-T/F 1801 16-06-2020 07:05:00 16 C 13.08 g/m*3 16 C 0 km/h
1802 16-06-2020 07:10:00 16 C 13.08 g/m*3 16 C 0 km/h
1803 16-06-2020 07:15:00 16.1 C 13.16 g/m*3 16.1 C 0 km/h
1804 16-06-2020 07:20:00 16.1 C 13.16 g/m*3 16.1 C 0 km/h
1805 16-06-2020 07:25:00 16.1 C 13.16 g/m*3 16.1 C 0 km/h
1806 16-06-2020 07:30:00 16.2 C 13.24 g/m*3 16.2 C 0 km/h
1807 16-06-2020 07:35:00 16.2 C 13.24 g/m*3 16.2 C 0 km/h
1808 16-06-2020 07:40:00 16.3 C 13.32 g/m*3 16.3 C 0 km/h
1809 16-06-2020 07:45:00 16.3 C 13.32 g/m*3 16.3 C 0 km/h
1810 16-06-2020 07:50:00 16.4 C 13.4 g/m*3 16.4 C 0 km/h
1811 16-06-2020 07:55:00 16.5 C 13.48 g/m*3 16.5 C 1.6 km/h
1812 16-06-2020 08:00:00 16.6 C 13.56 g/m*3 16.6 C 0 km/h
1813 16-06-2020 08:05:00 16.6 C 13.56 g/m*3 16.6 C 4.8 km/h
1814 16-06-2020 08:10:00 16.6 C 13.56 g/m*3 16.6 C 1.6 km/h
1815 16-06-2020 08:15:00 16.6 C 13.56 g/m*3 16.6 C 1.6 km/h
1816 16-06-2020 08:20:00 16.6 C 13.56 g/m*3 16.6 C 1.6 km/h
1817 16-06-2020 08:25:00 16.6 C 13.56 g/m*3 16.6 C 1.6 km/h
1818 16-06-2020 08:30:00 16.6 C 13.56 g/m*3 16.6 C 0 km/h
1819 16-06-2020 08:35:00 16.7 C 13.64 g/m*3 16.7 C 4.8 km/h
1820 16-06-2020 08:40:00 16.7 C 13.64 g/m*3 16.7 C 0 km/h
1821 16-06-2020 08:45:00 16.8 C 13.73 g/m*3 16.8 C 1.6 km/h
1822 16-06-2020 08:50:00 16.9 C 13.81 g/m*3 16.9 C 3.2 km/h
1823 16-06-2020 08:55:00 16.9 C 13.81 g/m*3 16.9 C 4.8 km/h
1824 16-06-2020 09:00:00 16.9 C 13.81 g/m*3 16.9 C 6.4 km/h
1825 16-06-2020 09:05:00 16.9 C 13.81 g/m*3 16.9 C 1.6 km/h
Sensor: Nr:Datum:Temp:Abs-Feuchte:Windchill:Wind:
Aussen-T/F 1826 16-06-2020 09:10:00 17 C 13.89 g/m*3 17 C 1.6 km/h
1827 16-06-2020 09:15:00 17 C 13.89 g/m*3 17 C 3.2 km/h
1828 16-06-2020 09:20:00 17.1 C 13.97 g/m*3 17.1 C 1.6 km/h
1829 16-06-2020 09:25:00 17.1 C 13.97 g/m*3 17.1 C 3.2 km/h
1830 16-06-2020 09:30:00 17.2 C 14.06 g/m*3 17.2 C 1.6 km/h
1831 16-06-2020 09:35:00 17.2 C 14.06 g/m*3 17.2 C 3.2 km/h
1832 16-06-2020 09:40:00 17.2 C 14.06 g/m*3 17.2 C 1.6 km/h
1833 16-06-2020 09:45:00 17.3 C 14.14 g/m*3 17.3 C 3.2 km/h
1834 16-06-2020 09:50:00 17.3 C 14.14 g/m*3 17.3 C 1.6 km/h
1835 16-06-2020 09:55:00 17.3 C 14.14 g/m*3 17.3 C 3.2 km/h
1836 16-06-2020 10:00:00 17.5 C 14.31 g/m*3 17.5 C 1.6 km/h
1837 16-06-2020 10:05:00 17.6 C 14.4 g/m*3 17.6 C 0 km/h
1838 16-06-2020 10:10:00 17.7 C 14.48 g/m*3 17.7 C 0 km/h
1839 16-06-2020 10:15:00 17.7 C 14.33 g/m*3 17.7 C 1.6 km/h
1840 16-06-2020 10:20:00 17.7 C 14.33 g/m*3 17.7 C 0 km/h
1841 16-06-2020 10:25:00 17.8 C 14.42 g/m*3 17.8 C 0 km/h
1842 16-06-2020 10:30:00 17.8 C 14.27 g/m*3 17.8 C 0 km/h
1843 16-06-2020 10:35:00 17.9 C 14.35 g/m*3 17.9 C 0 km/h
1844 16-06-2020 10:40:00 18.1 C 14.52 g/m*3 18.1 C 0 km/h
1845 16-06-2020 10:45:00 18.2 C 14.77 g/m*3 18.2 C 0 km/h
1846 16-06-2020 10:50:00 18.5 C 14.87 g/m*3 18.5 C 0 km/h
1847 16-06-2020 10:55:00 18.7 C 15.05 g/m*3 18.7 C 0 km/h
1848 16-06-2020 11:00:00 18.7 C 14.89 g/m*3 18.7 C 0 km/h
1849 16-06-2020 11:05:00 18.7 C 14.73 g/m*3 18.7 C 0 km/h
1850 16-06-2020 11:10:00 18.6 C 14.48 g/m*3 18.6 C 0 km/h
Sensor: Nr:Datum:Temp:Abs-Feuchte:Windchill:Wind:
Aussen-T/F 1851 16-06-2020 11:15:00 18.8 C 14.82 g/m*3 18.8 C 0 km/h
1852 16-06-2020 11:20:00 18.9 C 14.74 g/m*3 18.9 C 0 km/h
1853 16-06-2020 11:25:00 18.9 C 14.58 g/m*3 18.9 C 3.2 km/h
1854 16-06-2020 11:30:00 19 C 14.34 g/m*3 19 C 1.6 km/h
1855 16-06-2020 11:35:00 19.1 C 14.59 g/m*3 19.1 C 1.6 km/h
1856 16-06-2020 11:40:00 19.2 C 14.68 g/m*3 19.2 C 1.6 km/h
1857 16-06-2020 11:45:00 19.3 C 14.6 g/m*3 19.3 C 4.8 km/h
1858 16-06-2020 11:50:00 19.4 C 14.52 g/m*3 19.4 C 6.4 km/h
1859 16-06-2020 11:55:00 19.6 C 14.35 g/m*3 19.6 C 3.2 km/h
1860 16-06-2020 12:00:00 19.7 C 14.43 g/m*3 19.7 C 4.8 km/h
1861 16-06-2020 12:05:00 19.7 C 14.09 g/m*3 19.7 C 4.8 km/h
1862 16-06-2020 12:10:00 19.8 C 14.35 g/m*3 19.8 C 3.2 km/h
1863 16-06-2020 12:15:00 19.9 C 14.26 g/m*3 19.9 C 4.8 km/h
1864 16-06-2020 12:20:00 19.8 C 14.18 g/m*3 19.8 C 4.8 km/h
1865 16-06-2020 12:25:00 19.8 C 13.84 g/m*3 19.8 C 3.2 km/h
1866 16-06-2020 12:30:00 19.8 C 14.01 g/m*3 19.8 C 1.6 km/h
1867 16-06-2020 12:35:00 20 C 14.34 g/m*3 20 C 1.6 km/h
1868 16-06-2020 12:40:00 20.1 C 14.43 g/m*3 20.1 C 3.2 km/h
1869 16-06-2020 12:45:00 20.2 C 14.69 g/m*3 20.2 C 3.2 km/h
1870 16-06-2020 12:50:00 20.1 C 14.43 g/m*3 20.1 C 4.8 km/h
1871 16-06-2020 12:55:00 20.1 C 14.08 g/m*3 20.1 C 4.8 km/h
1872 16-06-2020 13:00:00 20.1 C 14.25 g/m*3 20.1 C 3.2 km/h
1873 16-06-2020 13:05:00 20.1 C 14.08 g/m*3 20.1 C 6.4 km/h
1874 16-06-2020 13:10:00 20.2 C 14.16 g/m*3 20.2 C 6.4 km/h
1875 16-06-2020 13:15:00 20.2 C 14.16 g/m*3 20.2 C 6.4 km/h
Sensor: Nr:Datum:Temp:Abs-Feuchte:Windchill:Wind:
Aussen-T/F 1876 16-06-2020 13:20:00 20.3 C 14.07 g/m*3 20.3 C 6.4 km/h
1877 16-06-2020 13:25:00 20.4 C 13.98 g/m*3 20.4 C 4.8 km/h
1878 16-06-2020 13:30:00 20.6 C 13.78 g/m*3 20.6 C 6.4 km/h
1879 16-06-2020 13:35:00 20.6 C 13.6 g/m*3 20.6 C 6.4 km/h
1880 16-06-2020 13:40:00 20.7 C 13.32 g/m*3 20.7 C 8.1 km/h
1881 16-06-2020 13:45:00 20.8 C 13.4 g/m*3 20.8 C 9.7 km/h
1882 16-06-2020 13:50:00 20.9 C 13.84 g/m*3 20.9 C 9.7 km/h
1883 16-06-2020 13:55:00 20.9 C 13.66 g/m*3 20.9 C 4.8 km/h
1884 16-06-2020 14:00:00 21 C 13.74 g/m*3 21 C 6.4 km/h
1885 16-06-2020 14:05:00 21.1 C 14.37 g/m*3 21.1 C 8.1 km/h
1886 16-06-2020 14:10:00 21.1 C 14.74 g/m*3 21.1 C 4.8 km/h
1887 16-06-2020 14:15:00 21.1 C 14.19 g/m*3 21.1 C 0 km/h
1888 16-06-2020 14:20:00 21.1 C 14.56 g/m*3 21.1 C 0 km/h
1889 16-06-2020 14:25:00 21.2 C 14.27 g/m*3 21.2 C 3.2 km/h
1890 16-06-2020 14:30:00 21.2 C 14.46 g/m*3 21.2 C 0 km/h
1891 16-06-2020 14:35:00 21.1 C 13.82 g/m*3 21.1 C 1.6 km/h
1892 16-06-2020 14:40:00 21.1 C 14 g/m*3 21.1 C 1.6 km/h
1893 16-06-2020 14:45:00 21.1 C 14 g/m*3 21.1 C 0 km/h
1894 16-06-2020 14:50:00 21.2 C 14.27 g/m*3 21.2 C 0 km/h
1895 16-06-2020 14:55:00 21.3 C 14.54 g/m*3 21.3 C 0 km/h
1896 16-06-2020 15:00:00 21.3 C 14.54 g/m*3 21.3 C 0 km/h
1897 16-06-2020 15:05:00 21.3 C 14.17 g/m*3 21.3 C 0 km/h
1898 16-06-2020 15:10:00 21.4 C 14.62 g/m*3 21.4 C 0 km/h
1899 16-06-2020 15:15:00 21.6 C 14.41 g/m*3 21.6 C 3.2 km/h
1900 16-06-2020 15:20:00 21.6 C 14.79 g/m*3 21.6 C 3.2 km/h
Sensor: Nr:Datum:Temp:Abs-Feuchte:Windchill:Wind:
Aussen-T/F 1901 16-06-2020 15:25:00 21.6 C 14.22 g/m*3 21.6 C 4.8 km/h
1902 16-06-2020 15:30:00 21.7 C 14.69 g/m*3 21.7 C 4.8 km/h
1903 16-06-2020 15:35:00 21.5 C 14.33 g/m*3 21.5 C 6.4 km/h
1904 16-06-2020 15:40:00 21.4 C 14.62 g/m*3 21.4 C 1.6 km/h
1905 16-06-2020 15:45:00 21.3 C 14.73 g/m*3 21.3 C 0 km/h
1906 16-06-2020 15:50:00 21.1 C 13.82 g/m*3 21.1 C 6.4 km/h
1907 16-06-2020 15:55:00 20.7 C 13.68 g/m*3 20.7 C 9.7 km/h
1908 16-06-2020 16:00:00 20.2 C 13.64 g/m*3 20.2 C 3.2 km/h
1909 16-06-2020 16:05:00 19.8 C 13.32 g/m*3 19.8 C 3.2 km/h
1910 16-06-2020 16:10:00 19.7 C 13.92 g/m*3 19.7 C 4.8 km/h
1911 16-06-2020 16:15:00 19.4 C 13.68 g/m*3 19.4 C 6.4 km/h
1912 16-06-2020 16:20:00 19.3 C 13.93 g/m*3 19.3 C 4.8 km/h
1913 16-06-2020 16:25:00 19.1 C 13.93 g/m*3 19.1 C 0 km/h
1914 16-06-2020 16:30:00 19 C 14.01 g/m*3 19 C 0 km/h
1915 16-06-2020 16:35:00 18.8 C 13.85 g/m*3 18.8 C 3.2 km/h
1916 16-06-2020 16:40:00 18.4 C 13.68 g/m*3 18.4 C 4.8 km/h
1917 16-06-2020 16:45:00 18.3 C 13.76 g/m*3 18.3 C 3.2 km/h
1918 16-06-2020 16:50:00 18.2 C 13.83 g/m*3 18.2 C 0 km/h
1919 16-06-2020 16:55:00 18.1 C 13.75 g/m*3 18.1 C 0 km/h
1920 16-06-2020 17:00:00 18.2 C 13.99 g/m*3 18.2 C 0 km/h
1921 16-06-2020 17:05:00 18.3 C 14.07 g/m*3 18.3 C 0 km/h
1922 16-06-2020 17:10:00 18.3 C 14.07 g/m*3 18.3 C 0 km/h
1923 16-06-2020 17:15:00 18.3 C 13.92 g/m*3 18.3 C 0 km/h
1924 16-06-2020 17:20:00 18.3 C 13.92 g/m*3 18.3 C 0 km/h
1925 16-06-2020 17:25:00 18.3 C 13.92 g/m*3 18.3 C 0 km/h
Sensor: Nr:Datum:Temp:Abs-Feuchte:Windchill:Wind:
Aussen-T/F 1926 16-06-2020 17:30:00 18.3 C 14.07 g/m*3 18.3 C 0 km/h
1927 16-06-2020 17:35:00 18.4 C 14 g/m*3 18.4 C 0 km/h
1928 16-06-2020 17:40:00 18.6 C 14.32 g/m*3 18.6 C 1.6 km/h
1929 16-06-2020 17:45:00 18.6 C 14.17 g/m*3 18.6 C 1.6 km/h
1930 16-06-2020 17:50:00 18.5 C 13.61 g/m*3 18.5 C 0 km/h
1931 16-06-2020 17:55:00 18.6 C 13.69 g/m*3 18.6 C 3.2 km/h
1932 16-06-2020 18:00:00 18.6 C 13.85 g/m*3 18.6 C 3.2 km/h
1933 16-06-2020 18:05:00 18.7 C 14.09 g/m*3 18.7 C 1.6 km/h
1934 16-06-2020 18:10:00 18.7 C 14.09 g/m*3 18.7 C 3.2 km/h
1935 16-06-2020 18:15:00 18.8 C 14.33 g/m*3 18.8 C 3.2 km/h
1936 16-06-2020 18:20:00 18.8 C 14.49 g/m*3 18.8 C 3.2 km/h
1937 16-06-2020 18:25:00 18.8 C 14.49 g/m*3 18.8 C 1.6 km/h
1938 16-06-2020 18:30:00 18.8 C 14.49 g/m*3 18.8 C 3.2 km/h
1939 16-06-2020 18:35:00 18.8 C 14.33 g/m*3 18.8 C 0 km/h
1940 16-06-2020 18:40:00 18.8 C 14.33 g/m*3 18.8 C 1.6 km/h
1941 16-06-2020 18:45:00 18.9 C 14.58 g/m*3 18.9 C 0 km/h
1942 16-06-2020 18:50:00 19.1 C 14.59 g/m*3 19.1 C 4.8 km/h
1943 16-06-2020 18:55:00 19.2 C 14.35 g/m*3 19.2 C 3.2 km/h
1944 16-06-2020 19:00:00 19.4 C 14.68 g/m*3 19.4 C 6.4 km/h
1945 16-06-2020 19:05:00 19.8 C 14.86 g/m*3 19.8 C 4.8 km/h
1946 16-06-2020 19:10:00 20.2 C 14.86 g/m*3 20.2 C 6.4 km/h
1947 16-06-2020 19:15:00 20.2 C 14.69 g/m*3 20.2 C 6.4 km/h
1948 16-06-2020 19:20:00 20.2 C 14.86 g/m*3 20.2 C 6.4 km/h
1949 16-06-2020 19:25:00 20.4 C 15.21 g/m*3 20.4 C 4.8 km/h
1950 16-06-2020 19:30:00 20.6 C 15.03 g/m*3 20.6 C 6.4 km/h
Sensor: Nr:Datum:Temp:Abs-Feuchte:Windchill:Wind:
Aussen-T/F 1951 16-06-2020 19:35:00 20.6 C 14.86 g/m*3 20.6 C 6.4 km/h
1952 16-06-2020 19:40:00 20.6 C 15.03 g/m*3 20.6 C 6.4 km/h
1953 16-06-2020 19:45:00 20.6 C 15.03 g/m*3 20.6 C 6.4 km/h
1954 16-06-2020 19:50:00 20.6 C 15.03 g/m*3 20.6 C 6.4 km/h
1955 16-06-2020 19:55:00 20.6 C 14.86 g/m*3 20.6 C 6.4 km/h
1956 16-06-2020 20:00:00 20.4 C 14.68 g/m*3 20.4 C 8.1 km/h
1957 16-06-2020 20:05:00 20.4 C 14.68 g/m*3 20.4 C 8.1 km/h
1958 16-06-2020 20:10:00 20.6 C 14.86 g/m*3 20.6 C 3.2 km/h
1959 16-06-2020 20:15:00 20.7 C 14.94 g/m*3 20.7 C 3.2 km/h
1960 16-06-2020 20:20:00 20.8 C 14.85 g/m*3 20.8 C 1.6 km/h
1961 16-06-2020 20:25:00 20.7 C 14.4 g/m*3 20.7 C 0 km/h
1962 16-06-2020 20:30:00 20.7 C 14.58 g/m*3 20.7 C 0 km/h
1963 16-06-2020 20:35:00 20.7 C 14.58 g/m*3 20.7 C 0 km/h
1964 16-06-2020 20:40:00 20.8 C 14.67 g/m*3 20.8 C 0 km/h
1965 16-06-2020 20:45:00 20.7 C 14.58 g/m*3 20.7 C 0 km/h
1966 16-06-2020 20:50:00 20.7 C 14.58 g/m*3 20.7 C 0 km/h
1967 16-06-2020 20:55:00 20.6 C 14.5 g/m*3 20.6 C 0 km/h
1968 16-06-2020 21:00:00 20.6 C 14.86 g/m*3 20.6 C 0 km/h
1969 16-06-2020 21:05:00 20.4 C 14.68 g/m*3 20.4 C 0 km/h
1970 16-06-2020 21:10:00 20.2 C 14.51 g/m*3 20.2 C 0 km/h
1971 16-06-2020 21:15:00 19.9 C 14.26 g/m*3 19.9 C 0 km/h
1972 16-06-2020 21:20:00 19.7 C 14.26 g/m*3 19.7 C 0 km/h
1973 16-06-2020 21:25:00 19.3 C 14.1 g/m*3 19.3 C 4.8 km/h
1974 16-06-2020 21:30:00 18.9 C 13.77 g/m*3 18.9 C 4.8 km/h
1975 16-06-2020 21:35:00 18.6 C 13.69 g/m*3 18.6 C 3.2 km/h
Sensor: Nr:Datum:Temp:Abs-Feuchte:Windchill:Wind:
Aussen-T/F 1976 16-06-2020 21:40:00 18.3 C 13.6 g/m*3 18.3 C 4.8 km/h
1977 16-06-2020 21:45:00 18 C 13.52 g/m*3 18 C 3.2 km/h
1978 16-06-2020 21:50:00 17.8 C 13.36 g/m*3 17.8 C 4.8 km/h
1979 16-06-2020 21:55:00 17.6 C 13.35 g/m*3 17.6 C 4.8 km/h
1980 16-06-2020 22:00:00 17.4 C 13.19 g/m*3 17.4 C 1.6 km/h
1981 16-06-2020 22:05:00 17.3 C 13.11 g/m*3 17.3 C 0 km/h
1982 16-06-2020 22:10:00 17.1 C 12.96 g/m*3 17.1 C 3.2 km/h
1983 16-06-2020 22:15:00 16.9 C 12.94 g/m*3 16.9 C 0 km/h
1984 16-06-2020 22:20:00 16.8 C 12.87 g/m*3 16.8 C 3.2 km/h
1985 16-06-2020 22:25:00 16.7 C 12.93 g/m*3 16.7 C 1.6 km/h
1986 16-06-2020 22:30:00 16.6 C 12.71 g/m*3 16.6 C 0 km/h
1987 16-06-2020 22:35:00 16.5 C 12.78 g/m*3 16.5 C 3.2 km/h
1988 16-06-2020 22:40:00 16.4 C 12.7 g/m*3 16.4 C 3.2 km/h
1989 16-06-2020 22:45:00 16.3 C 12.62 g/m*3 16.3 C 0 km/h
1990 16-06-2020 22:50:00 16.2 C 12.55 g/m*3 16.2 C 1.6 km/h
1991 16-06-2020 22:55:00 16.1 C 12.61 g/m*3 16.1 C 0 km/h
1992 16-06-2020 23:00:00 15.9 C 12.46 g/m*3 15.9 C 1.6 km/h
1993 16-06-2020 23:05:00 15.8 C 12.38 g/m*3 15.8 C 0 km/h
1994 16-06-2020 23:10:00 15.7 C 12.31 g/m*3 15.7 C 0 km/h
1995 16-06-2020 23:15:00 15.6 C 12.23 g/m*3 15.6 C 0 km/h
1996 16-06-2020 23:20:00 15.6 C 12.23 g/m*3 15.6 C 0 km/h
1997 16-06-2020 23:25:00 15.4 C 12.22 g/m*3 15.4 C 0 km/h
1998 16-06-2020 23:30:00 15.4 C 12.22 g/m*3 15.4 C 0 km/h
1999 16-06-2020 23:35:00 15.3 C 12.14 g/m*3 15.3 C 0 km/h
2000 16-06-2020 23:40:00 15.2 C 12.07 g/m*3 15.2 C 0 km/h
Sensor: Nr:Datum:Temp:Abs-Feuchte:Windchill:Wind:
Aussen-T/F 2001 16-06-2020 23:45:00 15.1 C 12 g/m*3 15.1 C 0 km/h
2002 16-06-2020 23:50:00 15 C 11.93 g/m*3 15 C 0 km/h
2003 16-06-2020 23:55:00 14.9 C 11.85 g/m*3 14.9 C 0 km/h
2004 17-06-2020 00:00:00 14.9 C 11.98 g/m*3 14.9 C 0 km/h
2005 17-06-2020 00:05:00 14.8 C 11.91 g/m*3 14.8 C 0 km/h
2006 17-06-2020 00:10:00 14.8 C 11.91 g/m*3 14.8 C 0 km/h
2007 17-06-2020 00:15:00 14.7 C 11.83 g/m*3 14.7 C 0 km/h
2008 17-06-2020 00:20:00 14.7 C 11.83 g/m*3 14.7 C 0 km/h
2009 17-06-2020 00:25:00 14.7 C 11.83 g/m*3 14.7 C 0 km/h
2010 17-06-2020 00:30:00 14.6 C 11.76 g/m*3 14.6 C 0 km/h
2011 17-06-2020 00:35:00 14.6 C 11.76 g/m*3 14.6 C 0 km/h
2012 17-06-2020 00:40:00 14.4 C 11.62 g/m*3 14.4 C 0 km/h
2013 17-06-2020 00:45:00 14.4 C 11.62 g/m*3 14.4 C 0 km/h
2014 17-06-2020 00:50:00 14.3 C 11.55 g/m*3 14.3 C 0 km/h
2015 17-06-2020 00:55:00 14.3 C 11.67 g/m*3 14.3 C 0 km/h
2016 17-06-2020 01:00:00 14.2 C 11.6 g/m*3 14.2 C 0 km/h
2017 17-06-2020 01:05:00 14.2 C 11.6 g/m*3 14.2 C 0 km/h
2018 17-06-2020 01:10:00 14.1 C 11.53 g/m*3 14.1 C 0 km/h
2019 17-06-2020 01:15:00 14.1 C 11.53 g/m*3 14.1 C 0 km/h
2020 17-06-2020 01:20:00 14.1 C 11.53 g/m*3 14.1 C 0 km/h
2021 17-06-2020 01:25:00 14.1 C 11.53 g/m*3 14.1 C 0 km/h
2022 17-06-2020 01:30:00 14 C 11.46 g/m*3 14 C 0 km/h
2023 17-06-2020 01:35:00 13.9 C 11.39 g/m*3 13.9 C 0 km/h
2024 17-06-2020 01:40:00 13.9 C 11.39 g/m*3 13.9 C 0 km/h
2025 17-06-2020 01:45:00 13.8 C 11.32 g/m*3 13.8 C 0 km/h
Sensor: Nr:Datum:Temp:Abs-Feuchte:Windchill:Wind:
Aussen-T/F 2026 17-06-2020 01:50:00 13.8 C 11.32 g/m*3 13.8 C 0 km/h
2027 17-06-2020 01:55:00 13.8 C 11.32 g/m*3 13.8 C 0 km/h
2028 17-06-2020 02:00:00 13.9 C 11.39 g/m*3 13.9 C 0 km/h
2029 17-06-2020 02:05:00 14 C 11.58 g/m*3 14 C 0 km/h
2030 17-06-2020 02:10:00 14.2 C 11.72 g/m*3 14.2 C 0 km/h
2031 17-06-2020 02:15:00 14.3 C 11.79 g/m*3 14.3 C 0 km/h
2032 17-06-2020 02:20:00 14.4 C 11.87 g/m*3 14.4 C 1.6 km/h
2033 17-06-2020 02:25:00 14.6 C 12.01 g/m*3 14.6 C 1.6 km/h
2034 17-06-2020 02:30:00 14.7 C 12.09 g/m*3 14.7 C 0 km/h
2035 17-06-2020 02:35:00 14.7 C 12.09 g/m*3 14.7 C 0 km/h
2036 17-06-2020 02:40:00 14.7 C 12.09 g/m*3 14.7 C 0 km/h
2037 17-06-2020 02:45:00 14.7 C 12.09 g/m*3 14.7 C 0 km/h
2038 17-06-2020 02:50:00 14.7 C 12.09 g/m*3 14.7 C 0 km/h
2039 17-06-2020 02:55:00 14.7 C 12.09 g/m*3 14.7 C 0 km/h
2040 17-06-2020 03:00:00 14.7 C 12.09 g/m*3 14.7 C 0 km/h
2041 17-06-2020 03:05:00 14.7 C 12.09 g/m*3 14.7 C 0 km/h
2042 17-06-2020 03:10:00 14.6 C 12.01 g/m*3 14.6 C 0 km/h
2043 17-06-2020 03:15:00 14.6 C 12.01 g/m*3 14.6 C 1.6 km/h
2044 17-06-2020 03:20:00 14.6 C 12.01 g/m*3 14.6 C 0 km/h
2045 17-06-2020 03:25:00 14.6 C 12.01 g/m*3 14.6 C 0 km/h
2046 17-06-2020 03:30:00 14.6 C 12.01 g/m*3 14.6 C 3.2 km/h
2047 17-06-2020 03:35:00 14.5 C 11.94 g/m*3 14.5 C 0 km/h
2048 17-06-2020 03:40:00 14.4 C 11.87 g/m*3 14.4 C 0 km/h
2049 17-06-2020 03:45:00 14.5 C 12.06 g/m*3 14.5 C 3.2 km/h
2050 17-06-2020 03:50:00 14.4 C 11.87 g/m*3 14.4 C 1.6 km/h
Sensor: Nr:Datum:Temp:Abs-Feuchte:Windchill:Wind:
Aussen-T/F 2051 17-06-2020 03:55:00 14.4 C 11.87 g/m*3 14.4 C 0 km/h
2052 17-06-2020 04:00:00 14.4 C 11.87 g/m*3 14.4 C 0 km/h
2053 17-06-2020 04:05:00 14.4 C 11.99 g/m*3 14.4 C 0 km/h
2054 17-06-2020 04:10:00 14.3 C 11.92 g/m*3 14.3 C 0 km/h
2055 17-06-2020 04:15:00 14.3 C 11.92 g/m*3 14.3 C 0 km/h
2056 17-06-2020 04:20:00 14.2 C 11.84 g/m*3 14.2 C 0 km/h
2057 17-06-2020 04:25:00 14.2 C 11.84 g/m*3 14.2 C 0 km/h
2058 17-06-2020 04:30:00 14.2 C 11.84 g/m*3 14.2 C 0 km/h
2059 17-06-2020 04:35:00 14.2 C 11.84 g/m*3 14.2 C 0 km/h
2060 17-06-2020 04:40:00 14.1 C 11.77 g/m*3 14.1 C 0 km/h
2061 17-06-2020 04:45:00 14.1 C 11.77 g/m*3 14.1 C 0 km/h
2062 17-06-2020 04:50:00 14.1 C 11.77 g/m*3 14.1 C 0 km/h
2063 17-06-2020 04:55:00 14.1 C 11.77 g/m*3 14.1 C 0 km/h
2064 17-06-2020 05:00:00 14.1 C 11.77 g/m*3 14.1 C 0 km/h
2065 17-06-2020 05:05:00 14.1 C 11.77 g/m*3 14.1 C 0 km/h
2066 17-06-2020 05:10:00 14.1 C 11.77 g/m*3 14.1 C 0 km/h
2067 17-06-2020 05:15:00 14.1 C 11.77 g/m*3 14.1 C 0 km/h
2068 17-06-2020 05:20:00 14.1 C 11.77 g/m*3 14.1 C 0 km/h
2069 17-06-2020 05:25:00 14.2 C 11.84 g/m*3 14.2 C 0 km/h
2070 17-06-2020 05:30:00 14.2 C 11.84 g/m*3 14.2 C 0 km/h
2071 17-06-2020 05:35:00 14.2 C 11.84 g/m*3 14.2 C 0 km/h
2072 17-06-2020 05:40:00 14.2 C 11.84 g/m*3 14.2 C 0 km/h
2073 17-06-2020 05:45:00 14.2 C 11.84 g/m*3 14.2 C 0 km/h
2074 17-06-2020 05:50:00 14.2 C 11.84 g/m*3 14.2 C 0 km/h
2075 17-06-2020 05:55:00 14.3 C 11.92 g/m*3 14.3 C 0 km/h
Sensor: Nr:Datum:Temp:Abs-Feuchte:Windchill:Wind:
Aussen-T/F 2076 17-06-2020 06:00:00 14.3 C 11.92 g/m*3 14.3 C 0 km/h
2077 17-06-2020 06:05:00 14.3 C 11.92 g/m*3 14.3 C 0 km/h
2078 17-06-2020 06:10:00 14.3 C 11.92 g/m*3 14.3 C 0 km/h
2079 17-06-2020 06:15:00 14.3 C 11.92 g/m*3 14.3 C 0 km/h
2080 17-06-2020 06:20:00 14.3 C 11.92 g/m*3 14.3 C 0 km/h
2081 17-06-2020 06:25:00 14.3 C 11.92 g/m*3 14.3 C 0 km/h
2082 17-06-2020 06:30:00 14.3 C 11.92 g/m*3 14.3 C 0 km/h
2083 17-06-2020 06:35:00 14.4 C 11.99 g/m*3 14.4 C 0 km/h
2084 17-06-2020 06:40:00 14.4 C 11.99 g/m*3 14.4 C 0 km/h
2085 17-06-2020 06:45:00 14.4 C 11.99 g/m*3 14.4 C 0 km/h
2086 17-06-2020 06:50:00 14.4 C 11.99 g/m*3 14.4 C 0 km/h
2087 17-06-2020 06:55:00 14.4 C 11.99 g/m*3 14.4 C 0 km/h
2088 17-06-2020 07:00:00 14.4 C 11.99 g/m*3 14.4 C 0 km/h
2089 17-06-2020 07:05:00 14.5 C 12.06 g/m*3 14.5 C 0 km/h
2090 17-06-2020 07:10:00 14.6 C 12.14 g/m*3 14.6 C 0 km/h
2091 17-06-2020 07:15:00 14.6 C 12.14 g/m*3 14.6 C 0 km/h
2092 17-06-2020 07:20:00 14.6 C 12.14 g/m*3 14.6 C 0 km/h
2093 17-06-2020 07:25:00 14.6 C 12.14 g/m*3 14.6 C 0 km/h
2094 17-06-2020 07:30:00 14.6 C 12.14 g/m*3 14.6 C 0 km/h
2095 17-06-2020 07:35:00 14.6 C 12.14 g/m*3 14.6 C 0 km/h
2096 17-06-2020 07:40:00 14.6 C 12.14 g/m*3 14.6 C 0 km/h
2097 17-06-2020 07:45:00 14.7 C 12.21 g/m*3 14.7 C 0 km/h
2098 17-06-2020 07:50:00 14.8 C 12.29 g/m*3 14.8 C 0 km/h
2099 17-06-2020 07:55:00 14.8 C 12.29 g/m*3 14.8 C 0 km/h
2100 17-06-2020 08:00:00 14.8 C 12.29 g/m*3 14.8 C 0 km/h
Sensor: Nr:Datum:Temp:Abs-Feuchte:Windchill:Wind:
Aussen-T/F 2101 17-06-2020 08:05:00 14.9 C 12.36 g/m*3 14.9 C 0 km/h
2102 17-06-2020 08:10:00 14.9 C 12.36 g/m*3 14.9 C 0 km/h
2103 17-06-2020 08:15:00 14.9 C 12.36 g/m*3 14.9 C 0 km/h
2104 17-06-2020 08:20:00 14.9 C 12.36 g/m*3 14.9 C 0 km/h
2105 17-06-2020 08:25:00 14.9 C 12.36 g/m*3 14.9 C 0 km/h
2106 17-06-2020 08:30:00 14.9 C 12.36 g/m*3 14.9 C 0 km/h
2107 17-06-2020 08:35:00 14.9 C 12.36 g/m*3 14.9 C 0 km/h
2108 17-06-2020 08:40:00 14.9 C 12.36 g/m*3 14.9 C 0 km/h
2109 17-06-2020 08:45:00 15 C 12.44 g/m*3 15 C 0 km/h
2110 17-06-2020 08:50:00 15 C 12.44 g/m*3 15 C 0 km/h
2111 17-06-2020 08:55:00 15 C 12.44 g/m*3 15 C 0 km/h
2112 17-06-2020 09:00:00 15.1 C 12.51 g/m*3 15.1 C 0 km/h
2113 17-06-2020 09:05:00 15.1 C 12.51 g/m*3 15.1 C 0 km/h
2114 17-06-2020 09:10:00 15.2 C 12.59 g/m*3 15.2 C 0 km/h
2115 17-06-2020 09:15:00 15.2 C 12.59 g/m*3 15.2 C 0 km/h
2116 17-06-2020 09:20:00 15.3 C 12.67 g/m*3 15.3 C 0 km/h
2117 17-06-2020 09:25:00 15.3 C 12.67 g/m*3 15.3 C 0 km/h
2118 17-06-2020 09:30:00 15.4 C 12.74 g/m*3 15.4 C 0 km/h
2119 17-06-2020 09:35:00 15.5 C 12.82 g/m*3 15.5 C 0 km/h
2120 17-06-2020 09:40:00 15.7 C 12.98 g/m*3 15.7 C 0 km/h
2121 17-06-2020 09:45:00 15.7 C 12.98 g/m*3 15.7 C 0 km/h
2122 17-06-2020 09:50:00 15.8 C 13.06 g/m*3 15.8 C 0 km/h
2123 17-06-2020 09:55:00 15.9 C 13.14 g/m*3 15.9 C 0 km/h
2124 17-06-2020 10:00:00 15.9 C 13.14 g/m*3 15.9 C 3.2 km/h
2125 17-06-2020 10:05:00 16 C 13.08 g/m*3 16 C 0 km/h
Sensor: Nr:Datum:Temp:Abs-Feuchte:Windchill:Wind:
Aussen-T/F 2126 17-06-2020 10:10:00 16 C 13.08 g/m*3 16 C 0 km/h
2127 17-06-2020 10:15:00 16.2 C 13.24 g/m*3 16.2 C 0 km/h
2128 17-06-2020 10:20:00 16.4 C 13.4 g/m*3 16.4 C 0 km/h
2129 17-06-2020 10:25:00 16.6 C 13.42 g/m*3 16.6 C 4.8 km/h
2130 17-06-2020 10:30:00 16.7 C 13.5 g/m*3 16.7 C 4.8 km/h
2131 17-06-2020 10:35:00 16.8 C 13.58 g/m*3 16.8 C 3.2 km/h
2132 17-06-2020 10:40:00 16.9 C 13.38 g/m*3 16.9 C 1.6 km/h
2133 17-06-2020 10:45:00 17.1 C 13.68 g/m*3 17.1 C 1.6 km/h
2134 17-06-2020 10:50:00 17.4 C 13.93 g/m*3 17.4 C 0 km/h
2135 17-06-2020 10:55:00 17.6 C 13.8 g/m*3 17.6 C 4.8 km/h
2136 17-06-2020 11:00:00 17.7 C 13.88 g/m*3 17.7 C 0 km/h
2137 17-06-2020 11:05:00 17.8 C 13.81 g/m*3 17.8 C 1.6 km/h
2138 17-06-2020 11:10:00 18 C 13.82 g/m*3 18 C 6.4 km/h
2139 17-06-2020 11:15:00 18.1 C 13.75 g/m*3 18.1 C 6.4 km/h
2140 17-06-2020 11:20:00 18.2 C 13.68 g/m*3 18.2 C 4.8 km/h
2141 17-06-2020 11:25:00 18.3 C 13.92 g/m*3 18.3 C 6.4 km/h
2142 17-06-2020 11:30:00 18.5 C 14.08 g/m*3 18.5 C 4.8 km/h
2143 17-06-2020 11:35:00 18.8 C 14.01 g/m*3 18.8 C 6.4 km/h
2144 17-06-2020 11:40:00 19.1 C 14.1 g/m*3 19.1 C 6.4 km/h
2145 17-06-2020 11:45:00 19.1 C 13.77 g/m*3 19.1 C 8.1 km/h
2146 17-06-2020 11:50:00 19.2 C 13.69 g/m*3 19.2 C 6.4 km/h
2147 17-06-2020 11:55:00 19.3 C 13.77 g/m*3 19.3 C 6.4 km/h
2148 17-06-2020 12:00:00 19.6 C 13.84 g/m*3 19.6 C 6.4 km/h
2149 17-06-2020 12:05:00 19.8 C 13.84 g/m*3 19.8 C 6.4 km/h
2150 17-06-2020 12:10:00 20.1 C 14.08 g/m*3 20.1 C 3.2 km/h
Sensor: Nr:Datum:Temp:Abs-Feuchte:Windchill:Wind:
Aussen-T/F 2151 17-06-2020 12:15:00 20.2 C 13.99 g/m*3 20.2 C 0 km/h
2152 17-06-2020 12:20:00 20.4 C 14.33 g/m*3 20.4 C 1.6 km/h
2153 17-06-2020 12:25:00 20.6 C 14.14 g/m*3 20.6 C 8.1 km/h
2154 17-06-2020 12:30:00 20.6 C 14.14 g/m*3 20.6 C 6.4 km/h
2155 17-06-2020 12:35:00 20.7 C 14.04 g/m*3 20.7 C 4.8 km/h
2156 17-06-2020 12:40:00 20.8 C 14.12 g/m*3 20.8 C 4.8 km/h
2157 17-06-2020 12:45:00 21 C 14.29 g/m*3 21 C 6.4 km/h
2158 17-06-2020 12:50:00 21.2 C 14.27 g/m*3 21.2 C 11.3 km/h
2159 17-06-2020 12:55:00 21.2 C 14.08 g/m*3 21.2 C 4.8 km/h
2160 17-06-2020 13:00:00 21.3 C 14.17 g/m*3 21.3 C 4.8 km/h
2161 17-06-2020 13:05:00 21.3 C 14.17 g/m*3 21.3 C 6.4 km/h
2162 17-06-2020 13:10:00 21.4 C 14.06 g/m*3 21.4 C 4.8 km/h
2163 17-06-2020 13:15:00 21.6 C 14.22 g/m*3 21.6 C 3.2 km/h
2164 17-06-2020 13:20:00 21.7 C 14.5 g/m*3 21.7 C 9.7 km/h
2165 17-06-2020 13:25:00 21.8 C 14.01 g/m*3 21.8 C 8.1 km/h
2166 17-06-2020 13:30:00 21.8 C 14.01 g/m*3 21.8 C 4.8 km/h
2167 17-06-2020 13:35:00 21.9 C 14.28 g/m*3 21.9 C 4.8 km/h
2168 17-06-2020 13:40:00 22.1 C 14.25 g/m*3 22.1 C 4.8 km/h
2169 17-06-2020 13:45:00 22.2 C 14.53 g/m*3 22.2 C 4.8 km/h
2170 17-06-2020 13:50:00 22.3 C 14.41 g/m*3 22.3 C 3.2 km/h
2171 17-06-2020 13:55:00 22.4 C 14.5 g/m*3 22.4 C 1.6 km/h
2172 17-06-2020 14:00:00 22.4 C 14.3 g/m*3 22.4 C 6.4 km/h
2173 17-06-2020 14:05:00 22.4 C 14.1 g/m*3 22.4 C 4.8 km/h
2174 17-06-2020 14:10:00 22.4 C 14.1 g/m*3 22.4 C 1.6 km/h
2175 17-06-2020 14:15:00 22.4 C 14.1 g/m*3 22.4 C 0 km/h
Sensor: Nr:Datum:Temp:Abs-Feuchte:Windchill:Wind:
Aussen-T/F 2176 17-06-2020 14:20:00 22.6 C 14.26 g/m*3 22.6 C 4.8 km/h
2177 17-06-2020 14:25:00 22.6 C 14.26 g/m*3 22.6 C 3.2 km/h
2178 17-06-2020 14:30:00 22.7 C 14.55 g/m*3 22.7 C 1.6 km/h
2179 17-06-2020 14:35:00 22.8 C 14.22 g/m*3 22.8 C 6.4 km/h
2180 17-06-2020 14:40:00 22.9 C 14.1 g/m*3 22.9 C 3.2 km/h
2181 17-06-2020 14:45:00 23.1 C 14.47 g/m*3 23.1 C 4.8 km/h
2182 17-06-2020 14:50:00 23.3 C 14.22 g/m*3 23.3 C 1.6 km/h
2183 17-06-2020 14:55:00 23.4 C 14.3 g/m*3 23.4 C 4.8 km/h
2184 17-06-2020 15:00:00 23.7 C 14.54 g/m*3 23.7 C 4.8 km/h
2185 17-06-2020 15:05:00 23.7 C 13.9 g/m*3 23.7 C 4.8 km/h
2186 17-06-2020 15:10:00 23.7 C 13.9 g/m*3 23.7 C 6.4 km/h
2187 17-06-2020 15:15:00 23.6 C 14.04 g/m*3 23.6 C 9.7 km/h
2188 17-06-2020 15:20:00 23.4 C 14.3 g/m*3 23.4 C 3.2 km/h
2189 17-06-2020 15:25:00 23.4 C 14.51 g/m*3 23.4 C 1.6 km/h
2190 17-06-2020 15:30:00 23.6 C 16.38 g/m*3 23.6 C 3.2 km/h
2191 17-06-2020 15:35:00 23.3 C 16.1 g/m*3 23.3 C 4.8 km/h
2192 17-06-2020 15:40:00 22.9 C 15.94 g/m*3 22.9 C 4.8 km/h
2193 17-06-2020 15:45:00 22.3 C 15.8 g/m*3 22.3 C 6.4 km/h
2194 17-06-2020 15:50:00 21.8 C 15.73 g/m*3 21.8 C 8.1 km/h
2195 17-06-2020 15:55:00 21.3 C 15.47 g/m*3 21.3 C 6.4 km/h
2196 17-06-2020 16:00:00 20.9 C 15.48 g/m*3 20.9 C 6.4 km/h
2197 17-06-2020 16:05:00 20.7 C 15.48 g/m*3 20.7 C 6.4 km/h
2198 17-06-2020 16:10:00 20.4 C 15.57 g/m*3 20.4 C 6.4 km/h
2199 17-06-2020 16:15:00 20.3 C 15.48 g/m*3 20.3 C 3.2 km/h
2200 17-06-2020 16:20:00 20.3 C 15.65 g/m*3 20.3 C 3.2 km/h
Sensor: Nr:Datum:Temp:Abs-Feuchte:Windchill:Wind:
Aussen-T/F 2201 17-06-2020 16:25:00 20.3 C 15.83 g/m*3 20.3 C 0 km/h
2202 17-06-2020 16:30:00 20.3 C 15.83 g/m*3 20.3 C 0 km/h
2203 17-06-2020 16:35:00 20.3 C 16 g/m*3 20.3 C 0 km/h
2204 17-06-2020 16:40:00 20.4 C 16.28 g/m*3 20.4 C 0 km/h
2205 17-06-2020 16:45:00 20.5 C 16.37 g/m*3 20.5 C 0 km/h
2206 17-06-2020 16:50:00 20.7 C 16.56 g/m*3 20.7 C 1.6 km/h
2207 17-06-2020 16:55:00 20.8 C 16.66 g/m*3 20.8 C 1.6 km/h
2208 17-06-2020 17:00:00 20.8 C 16.66 g/m*3 20.8 C 0 km/h
2209 17-06-2020 17:05:00 20.9 C 16.57 g/m*3 20.9 C 0 km/h
2210 17-06-2020 17:10:00 21.1 C 16.77 g/m*3 21.1 C 0 km/h
2211 17-06-2020 17:15:00 21.1 C 16.58 g/m*3 21.1 C 1.6 km/h
2212 17-06-2020 17:20:00 21.2 C 16.68 g/m*3 21.2 C 0 km/h
2213 17-06-2020 17:25:00 21.3 C 16.78 g/m*3 21.3 C 0 km/h
2214 17-06-2020 17:30:00 21.5 C 16.97 g/m*3 21.5 C 0 km/h
2215 17-06-2020 17:35:00 21.7 C 17.17 g/m*3 21.7 C 0 km/h
2216 17-06-2020 17:40:00 21.9 C 17.17 g/m*3 21.9 C 0 km/h
2217 17-06-2020 17:45:00 21.9 C 16.4 g/m*3 21.9 C 1.6 km/h
2218 17-06-2020 17:50:00 22.2 C 15.9 g/m*3 22.2 C 3.2 km/h
2219 17-06-2020 17:55:00 22.5 C 15.38 g/m*3 22.5 C 6.4 km/h
2220 17-06-2020 18:00:00 22.7 C 15.15 g/m*3 22.7 C 6.4 km/h
2221 17-06-2020 18:05:00 22.8 C 15.24 g/m*3 22.8 C 1.6 km/h
2222 17-06-2020 18:10:00 23.2 C 15.38 g/m*3 23.2 C 4.8 km/h
2223 17-06-2020 18:15:00 23.4 C 15.56 g/m*3 23.4 C 4.8 km/h
2224 17-06-2020 18:20:00 23.7 C 15.4 g/m*3 23.7 C 4.8 km/h
2225 17-06-2020 18:25:00 24.1 C 15.75 g/m*3 24.1 C 3.2 km/h
Sensor: Nr:Datum:Temp:Abs-Feuchte:Windchill:Wind:
Aussen-T/F 2226 17-06-2020 18:30:00 24.2 C 14.96 g/m*3 24.2 C 4.8 km/h
2227 17-06-2020 18:35:00 23.8 C 15.06 g/m*3 23.8 C 4.8 km/h
2228 17-06-2020 18:40:00 23.3 C 15.05 g/m*3 23.3 C 4.8 km/h
2229 17-06-2020 18:45:00 23.1 C 15.5 g/m*3 23.1 C 1.6 km/h
2230 17-06-2020 18:50:00 23 C 16.03 g/m*3 23 C 0 km/h
2231 17-06-2020 18:55:00 22.8 C 15.65 g/m*3 22.8 C 1.6 km/h
2232 17-06-2020 19:00:00 22.4 C 15.09 g/m*3 22.4 C 8.1 km/h
2233 17-06-2020 19:05:00 21.8 C 14.01 g/m*3 21.8 C 8.1 km/h
2234 17-06-2020 19:10:00 21.2 C 13.9 g/m*3 21.2 C 11.3 km/h
2235 17-06-2020 19:15:00 20.6 C 13.78 g/m*3 20.6 C 8.1 km/h
2236 17-06-2020 19:20:00 20 C 13.83 g/m*3 20 C 8.1 km/h
2237 17-06-2020 19:25:00 19.6 C 13.84 g/m*3 19.6 C 4.8 km/h
2238 17-06-2020 19:30:00 19.1 C 13.61 g/m*3 19.1 C 0 km/h
2239 17-06-2020 19:35:00 18.8 C 13.85 g/m*3 18.8 C 1.6 km/h
2240 17-06-2020 19:40:00 18.5 C 13.77 g/m*3 18.5 C 0 km/h
2241 17-06-2020 19:45:00 18.2 C 13.68 g/m*3 18.2 C 0 km/h
2242 17-06-2020 19:50:00 17.9 C 13.59 g/m*3 17.9 C 6.4 km/h
2243 17-06-2020 19:55:00 17.7 C 13.58 g/m*3 17.7 C 1.6 km/h
2244 17-06-2020 20:00:00 17.6 C 13.65 g/m*3 17.6 C 1.6 km/h
2245 17-06-2020 20:05:00 17.4 C 13.49 g/m*3 17.4 C 0 km/h
2246 17-06-2020 20:10:00 17.4 C 13.63 g/m*3 17.4 C 0 km/h
2247 17-06-2020 20:15:00 17.3 C 13.55 g/m*3 17.3 C 0 km/h
2248 17-06-2020 20:20:00 17.3 C 13.55 g/m*3 17.3 C 0 km/h
2249 17-06-2020 20:25:00 17.2 C 13.47 g/m*3 17.2 C 3.2 km/h
2250 17-06-2020 20:30:00 17.2 C 13.47 g/m*3 17.2 C 1.6 km/h
Sensor: Nr:Datum:Temp:Abs-Feuchte:Windchill:Wind:
Aussen-T/F 2251 17-06-2020 20:35:00 17.1 C 13.54 g/m*3 17.1 C 1.6 km/h
2252 17-06-2020 20:40:00 17 C 13.46 g/m*3 17 C 1.6 km/h
2253 17-06-2020 20:45:00 16.9 C 13.38 g/m*3 16.9 C 1.6 km/h
2254 17-06-2020 20:50:00 16.9 C 13.38 g/m*3 16.9 C 1.6 km/h
2255 17-06-2020 20:55:00 16.8 C 13.3 g/m*3 16.8 C 0 km/h
2256 17-06-2020 21:00:00 16.8 C 13.44 g/m*3 16.8 C 3.2 km/h
2257 17-06-2020 21:05:00 16.7 C 13.36 g/m*3 16.7 C 4.8 km/h
2258 17-06-2020 21:10:00 16.6 C 13.14 g/m*3 16.6 C 4.8 km/h
2259 17-06-2020 21:15:00 16.6 C 13.28 g/m*3 16.6 C 4.8 km/h
2260 17-06-2020 21:20:00 16.5 C 13.2 g/m*3 16.5 C 4.8 km/h
2261 17-06-2020 21:25:00 16.5 C 13.2 g/m*3 16.5 C 3.2 km/h
2262 17-06-2020 21:30:00 16.5 C 13.2 g/m*3 16.5 C 4.8 km/h
2263 17-06-2020 21:35:00 16.5 C 13.34 g/m*3 16.5 C 3.2 km/h
2264 17-06-2020 21:40:00 16.5 C 13.34 g/m*3 16.5 C 3.2 km/h
2265 17-06-2020 21:45:00 16.5 C 13.34 g/m*3 16.5 C 4.8 km/h
2266 17-06-2020 21:50:00 16.4 C 13.26 g/m*3 16.4 C 4.8 km/h
2267 17-06-2020 21:55:00 16.4 C 13.26 g/m*3 16.4 C 3.2 km/h
2268 17-06-2020 22:00:00 16.4 C 13.26 g/m*3 16.4 C 1.6 km/h
2269 17-06-2020 22:05:00 16.4 C 13.26 g/m*3 16.4 C 1.6 km/h
2270 17-06-2020 22:10:00 16.4 C 13.26 g/m*3 16.4 C 1.6 km/h
2271 17-06-2020 22:15:00 16.4 C 13.26 g/m*3 16.4 C 3.2 km/h
2272 17-06-2020 22:20:00 16.3 C 13.18 g/m*3 16.3 C 0 km/h
2273 17-06-2020 22:25:00 16.3 C 13.18 g/m*3 16.3 C 1.6 km/h
2274 17-06-2020 22:30:00 16.2 C 13.1 g/m*3 16.2 C 0 km/h
2275 17-06-2020 22:35:00 16.1 C 13.02 g/m*3 16.1 C 3.2 km/h
Sensor: Nr:Datum:Temp:Abs-Feuchte:Windchill:Wind:
Aussen-T/F 2276 17-06-2020 22:40:00 16.1 C 13.02 g/m*3 16.1 C 1.6 km/h
2277 17-06-2020 22:45:00 15.9 C 12.87 g/m*3 15.9 C 0 km/h
2278 17-06-2020 22:50:00 15.9 C 12.87 g/m*3 15.9 C 1.6 km/h
2279 17-06-2020 22:55:00 15.8 C 12.79 g/m*3 15.8 C 4.8 km/h
2280 17-06-2020 23:00:00 15.8 C 12.79 g/m*3 15.8 C 8.1 km/h
2281 17-06-2020 23:05:00 15.7 C 12.71 g/m*3 15.7 C 6.4 km/h
2282 17-06-2020 23:10:00 15.6 C 12.63 g/m*3 15.6 C 6.4 km/h
2283 17-06-2020 23:15:00 15.6 C 12.63 g/m*3 15.6 C 4.8 km/h
2284 17-06-2020 23:20:00 15.6 C 12.63 g/m*3 15.6 C 8.1 km/h
2285 17-06-2020 23:25:00 15.6 C 12.63 g/m*3 15.6 C 4.8 km/h
2286 17-06-2020 23:30:00 15.6 C 12.63 g/m*3 15.6 C 3.2 km/h
2287 17-06-2020 23:35:00 15.5 C 12.56 g/m*3 15.5 C 4.8 km/h
2288 17-06-2020 23:40:00 15.4 C 12.48 g/m*3 15.4 C 1.6 km/h
2289 17-06-2020 23:45:00 15.4 C 12.48 g/m*3 15.4 C 3.2 km/h
2290 17-06-2020 23:50:00 15.3 C 12.41 g/m*3 15.3 C 1.6 km/h
2291 17-06-2020 23:55:00 15.3 C 12.41 g/m*3 15.3 C 0 km/h
2292 18-06-2020 00:00:00 15.3 C 12.41 g/m*3 15.3 C 3.2 km/h
2293 18-06-2020 00:05:00 15.2 C 12.33 g/m*3 15.2 C 1.6 km/h
2294 18-06-2020 00:10:00 15.2 C 12.33 g/m*3 15.2 C 3.2 km/h
2295 18-06-2020 00:15:00 15.1 C 12.26 g/m*3 15.1 C 1.6 km/h
2296 18-06-2020 00:20:00 15.1 C 12.39 g/m*3 15.1 C 1.6 km/h
2297 18-06-2020 00:25:00 15.1 C 12.39 g/m*3 15.1 C 1.6 km/h
2298 18-06-2020 00:30:00 15.1 C 12.39 g/m*3 15.1 C 0 km/h
2299 18-06-2020 00:35:00 15.1 C 12.39 g/m*3 15.1 C 0 km/h
2300 18-06-2020 00:40:00 15.1 C 12.39 g/m*3 15.1 C 0 km/h
Sensor: Nr:Datum:Temp:Abs-Feuchte:Windchill:Wind:
Aussen-T/F 2301 18-06-2020 00:45:00 15.1 C 12.39 g/m*3 15.1 C 0 km/h
2302 18-06-2020 00:50:00 15 C 12.31 g/m*3 15 C 0 km/h
2303 18-06-2020 00:55:00 15 C 12.31 g/m*3 15 C 0 km/h
2304 18-06-2020 01:00:00 15 C 12.31 g/m*3 15 C 0 km/h
2305 18-06-2020 01:05:00 15 C 12.31 g/m*3 15 C 0 km/h
2306 18-06-2020 01:10:00 15 C 12.31 g/m*3 15 C 0 km/h
2307 18-06-2020 01:15:00 14.9 C 12.24 g/m*3 14.9 C 1.6 km/h
2308 18-06-2020 01:20:00 14.9 C 12.24 g/m*3 14.9 C 1.6 km/h
2309 18-06-2020 01:25:00 14.8 C 12.16 g/m*3 14.8 C 4.8 km/h
2310 18-06-2020 01:30:00 14.7 C 11.96 g/m*3 14.7 C 6.4 km/h
2311 18-06-2020 01:35:00 14.6 C 11.89 g/m*3 14.6 C 6.4 km/h
2312 18-06-2020 01:40:00 14.6 C 11.89 g/m*3 14.6 C 3.2 km/h
2313 18-06-2020 01:45:00 14.6 C 11.89 g/m*3 14.6 C 3.2 km/h
2314 18-06-2020 01:50:00 14.6 C 12.01 g/m*3 14.6 C 3.2 km/h
2315 18-06-2020 01:55:00 14.5 C 11.82 g/m*3 14.5 C 4.8 km/h
2316 18-06-2020 02:00:00 14.4 C 11.74 g/m*3 14.4 C 1.6 km/h
2317 18-06-2020 02:05:00 14.4 C 11.87 g/m*3 14.4 C 1.6 km/h
2318 18-06-2020 02:10:00 14.4 C 11.87 g/m*3 14.4 C 0 km/h
2319 18-06-2020 02:15:00 14.5 C 11.94 g/m*3 14.5 C 1.6 km/h
2320 18-06-2020 02:20:00 14.4 C 11.87 g/m*3 14.4 C 3.2 km/h
2321 18-06-2020 02:25:00 14.4 C 11.87 g/m*3 14.4 C 4.8 km/h
2322 18-06-2020 02:30:00 14.4 C 11.87 g/m*3 14.4 C 1.6 km/h
2323 18-06-2020 02:35:00 14.4 C 11.87 g/m*3 14.4 C 1.6 km/h
2324 18-06-2020 02:40:00 14.5 C 11.94 g/m*3 14.5 C 6.4 km/h
2325 18-06-2020 02:45:00 14.4 C 11.87 g/m*3 14.4 C 8.1 km/h
Sensor: Nr:Datum:Temp:Abs-Feuchte:Windchill:Wind:
Aussen-T/F 2326 18-06-2020 02:50:00 14.4 C 11.87 g/m*3 14.4 C 3.2 km/h
2327 18-06-2020 02:55:00 14.4 C 11.87 g/m*3 14.4 C 4.8 km/h
2328 18-06-2020 03:00:00 14.4 C 11.87 g/m*3 14.4 C 4.8 km/h
2329 18-06-2020 03:05:00 14.4 C 11.87 g/m*3 14.4 C 4.8 km/h
2330 18-06-2020 03:10:00 14.4 C 11.87 g/m*3 14.4 C 6.4 km/h
2331 18-06-2020 03:15:00 14.4 C 11.87 g/m*3 14.4 C 8.1 km/h
2332 18-06-2020 03:20:00 14.4 C 11.87 g/m*3 14.4 C 6.4 km/h
2333 18-06-2020 03:25:00 14.4 C 11.87 g/m*3 14.4 C 6.4 km/h
2334 18-06-2020 03:30:00 14.4 C 11.87 g/m*3 14.4 C 4.8 km/h
2335 18-06-2020 03:35:00 14.4 C 11.87 g/m*3 14.4 C 9.7 km/h
2336 18-06-2020 03:40:00 14.4 C 11.87 g/m*3 14.4 C 9.7 km/h
2337 18-06-2020 03:45:00 14.4 C 11.87 g/m*3 14.4 C 3.2 km/h
2338 18-06-2020 03:50:00 14.4 C 11.87 g/m*3 14.4 C 8.1 km/h
2339 18-06-2020 03:55:00 14.4 C 11.87 g/m*3 14.4 C 6.4 km/h
2340 18-06-2020 04:00:00 14.4 C 11.87 g/m*3 14.4 C 1.6 km/h
2341 18-06-2020 04:05:00 14.4 C 11.87 g/m*3 14.4 C 8.1 km/h
2342 18-06-2020 04:10:00 14.3 C 11.79 g/m*3 14.3 C 4.8 km/h
2343 18-06-2020 04:15:00 14.3 C 11.79 g/m*3 14.3 C 4.8 km/h
2344 18-06-2020 04:20:00 14.3 C 11.79 g/m*3 14.3 C 4.8 km/h
2345 18-06-2020 04:25:00 14.3 C 11.79 g/m*3 14.3 C 4.8 km/h
2346 18-06-2020 04:30:00 14.3 C 11.79 g/m*3 14.3 C 3.2 km/h
2347 18-06-2020 04:35:00 14.3 C 11.79 g/m*3 14.3 C 1.6 km/h
2348 18-06-2020 04:40:00 14.3 C 11.79 g/m*3 14.3 C 6.4 km/h
2349 18-06-2020 04:45:00 14.3 C 11.79 g/m*3 14.3 C 4.8 km/h
2350 18-06-2020 04:50:00 14.2 C 11.72 g/m*3 14.2 C 1.6 km/h
Sensor: Nr:Datum:Temp:Abs-Feuchte:Windchill:Wind:
Aussen-T/F 2351 18-06-2020 04:55:00 14.2 C 11.72 g/m*3 14.2 C 3.2 km/h
2352 18-06-2020 05:00:00 14.2 C 11.72 g/m*3 14.2 C 3.2 km/h
2353 18-06-2020 05:05:00 14.2 C 11.72 g/m*3 14.2 C 4.8 km/h
2354 18-06-2020 05:10:00 14.1 C 11.65 g/m*3 14.1 C 1.6 km/h
2355 18-06-2020 05:15:00 14.1 C 11.65 g/m*3 14.1 C 4.8 km/h
2356 18-06-2020 05:20:00 14.1 C 11.65 g/m*3 14.1 C 1.6 km/h
2357 18-06-2020 05:25:00 14.1 C 11.65 g/m*3 14.1 C 0 km/h
2358 18-06-2020 05:30:00 14.1 C 11.65 g/m*3 14.1 C 0 km/h
2359 18-06-2020 05:35:00 14.1 C 11.65 g/m*3 14.1 C 4.8 km/h
2360 18-06-2020 05:40:00 14.1 C 11.65 g/m*3 14.1 C 3.2 km/h
2361 18-06-2020 05:45:00 14.1 C 11.65 g/m*3 14.1 C 3.2 km/h
2362 18-06-2020 05:50:00 14 C 11.58 g/m*3 14 C 1.6 km/h
2363 18-06-2020 05:55:00 14 C 11.58 g/m*3 14 C 1.6 km/h
2364 18-06-2020 06:00:00 13.9 C 11.51 g/m*3 13.9 C 1.6 km/h
2365 18-06-2020 06:05:00 13.9 C 11.51 g/m*3 13.9 C 1.6 km/h
2366 18-06-2020 06:10:00 13.9 C 11.51 g/m*3 13.9 C 4.8 km/h
2367 18-06-2020 06:15:00 13.9 C 11.51 g/m*3 13.9 C 6.4 km/h
2368 18-06-2020 06:20:00 13.9 C 11.51 g/m*3 13.9 C 6.4 km/h
2369 18-06-2020 06:25:00 13.9 C 11.51 g/m*3 13.9 C 4.8 km/h
2370 18-06-2020 06:30:00 13.9 C 11.51 g/m*3 13.9 C 6.4 km/h
2371 18-06-2020 06:35:00 14 C 11.58 g/m*3 14 C 3.2 km/h
2372 18-06-2020 06:40:00 14 C 11.58 g/m*3 14 C 1.6 km/h
2373 18-06-2020 06:45:00 14.1 C 11.65 g/m*3 14.1 C 4.8 km/h
2374 18-06-2020 06:50:00 14.1 C 11.65 g/m*3 14.1 C 3.2 km/h
2375 18-06-2020 06:55:00 14.1 C 11.65 g/m*3 14.1 C 4.8 km/h
Sensor: Nr:Datum:Temp:Abs-Feuchte:Windchill:Wind:
Aussen-T/F 2376 18-06-2020 07:00:00 14.1 C 11.65 g/m*3 14.1 C 3.2 km/h
2377 18-06-2020 07:05:00 14.1 C 11.65 g/m*3 14.1 C 1.6 km/h
2378 18-06-2020 07:10:00 14.1 C 11.65 g/m*3 14.1 C 6.4 km/h
2379 18-06-2020 07:15:00 14.1 C 11.65 g/m*3 14.1 C 3.2 km/h
2380 18-06-2020 07:20:00 14.2 C 11.72 g/m*3 14.2 C 0 km/h
2381 18-06-2020 07:25:00 14.2 C 11.72 g/m*3 14.2 C 0 km/h
2382 18-06-2020 07:30:00 14.3 C 11.79 g/m*3 14.3 C 1.6 km/h
2383 18-06-2020 07:35:00 14.4 C 11.87 g/m*3 14.4 C 0 km/h
2384 18-06-2020 07:40:00 14.6 C 12.01 g/m*3 14.6 C 3.2 km/h
2385 18-06-2020 07:45:00 14.6 C 12.01 g/m*3 14.6 C 0 km/h
2386 18-06-2020 07:50:00 14.7 C 12.09 g/m*3 14.7 C 1.6 km/h
2387 18-06-2020 07:55:00 14.7 C 12.09 g/m*3 14.7 C 4.8 km/h
2388 18-06-2020 08:00:00 14.8 C 12.16 g/m*3 14.8 C 4.8 km/h
2389 18-06-2020 08:05:00 14.9 C 12.11 g/m*3 14.9 C 1.6 km/h
2390 18-06-2020 08:10:00 15.1 C 12.39 g/m*3 15.1 C 3.2 km/h
2391 18-06-2020 08:15:00 15.2 C 12.33 g/m*3 15.2 C 3.2 km/h
2392 18-06-2020 08:20:00 15.3 C 12.28 g/m*3 15.3 C 8.1 km/h
2393 18-06-2020 08:25:00 15.4 C 12.22 g/m*3 15.4 C 4.8 km/h
2394 18-06-2020 08:30:00 15.4 C 12.22 g/m*3 15.4 C 8.1 km/h
2395 18-06-2020 08:35:00 15.4 C 12.09 g/m*3 15.4 C 6.4 km/h
2396 18-06-2020 08:40:00 15.5 C 12.16 g/m*3 15.5 C 4.8 km/h
2397 18-06-2020 08:45:00 15.6 C 12.23 g/m*3 15.6 C 8.1 km/h
2398 18-06-2020 08:50:00 15.6 C 12.1 g/m*3 15.6 C 6.4 km/h
2399 18-06-2020 08:55:00 15.7 C 12.31 g/m*3 15.7 C 0 km/h
2400 18-06-2020 09:00:00 15.8 C 12.25 g/m*3 15.8 C 4.8 km/h
Sensor: Nr:Datum:Temp:Abs-Feuchte:Windchill:Wind:
Aussen-T/F 2401 18-06-2020 09:05:00 15.9 C 12.19 g/m*3 15.9 C 6.4 km/h
2402 18-06-2020 09:10:00 16.1 C 12.47 g/m*3 16.1 C 3.2 km/h
2403 18-06-2020 09:15:00 16.1 C 12.2 g/m*3 16.1 C 6.4 km/h
2404 18-06-2020 09:20:00 16.3 C 12.49 g/m*3 16.3 C 1.6 km/h
2405 18-06-2020 09:25:00 16.4 C 12.28 g/m*3 16.4 C 8.1 km/h
2406 18-06-2020 09:30:00 16.5 C 12.22 g/m*3 16.5 C 9.7 km/h
2407 18-06-2020 09:35:00 16.6 C 12.29 g/m*3 16.6 C 8.1 km/h
2408 18-06-2020 09:40:00 16.8 C 12.3 g/m*3 16.8 C 8.1 km/h
2409 18-06-2020 09:45:00 16.9 C 12.37 g/m*3 16.9 C 6.4 km/h
2410 18-06-2020 09:50:00 17 C 12.3 g/m*3 17 C 6.4 km/h
2411 18-06-2020 09:55:00 17.1 C 12.23 g/m*3 17.1 C 12.9 km/h
2412 18-06-2020 10:00:00 17.1 C 12.23 g/m*3 17.1 C 8.1 km/h
2413 18-06-2020 10:05:00 17.2 C 12.45 g/m*3 17.2 C 0 km/h
2414 18-06-2020 10:10:00 17.3 C 12.23 g/m*3 17.3 C 6.4 km/h
2415 18-06-2020 10:15:00 17.3 C 12.23 g/m*3 17.3 C 6.4 km/h
2416 18-06-2020 10:20:00 17.6 C 12.6 g/m*3 17.6 C 6.4 km/h
2417 18-06-2020 10:25:00 17.7 C 12.52 g/m*3 17.7 C 11.3 km/h
2418 18-06-2020 10:30:00 17.7 C 12.37 g/m*3 17.7 C 4.8 km/h
2419 18-06-2020 10:35:00 17.7 C 12.22 g/m*3 17.7 C 6.4 km/h
2420 18-06-2020 10:40:00 17.8 C 12.45 g/m*3 17.8 C 8.1 km/h
2421 18-06-2020 10:45:00 18 C 12.44 g/m*3 18 C 8.1 km/h
2422 18-06-2020 10:50:00 18.3 C 12.66 g/m*3 18.3 C 8.1 km/h
2423 18-06-2020 10:55:00 18.4 C 12.9 g/m*3 18.4 C 8.1 km/h
2424 18-06-2020 11:00:00 18.4 C 12.58 g/m*3 18.4 C 8.1 km/h
2425 18-06-2020 11:05:00 18.4 C 12.58 g/m*3 18.4 C 1.6 km/h
Sensor: Nr:Datum:Temp:Abs-Feuchte:Windchill:Wind:
Aussen-T/F 2426 18-06-2020 11:10:00 18.5 C 12.66 g/m*3 18.5 C 3.2 km/h
2427 18-06-2020 11:15:00 18.6 C 12.41 g/m*3 18.6 C 9.7 km/h
2428 18-06-2020 11:20:00 18.7 C 12.65 g/m*3 18.7 C 3.2 km/h
2429 18-06-2020 11:25:00 18.8 C 12.4 g/m*3 18.8 C 4.8 km/h
2430 18-06-2020 11:30:00 18.9 C 12.64 g/m*3 18.9 C 6.4 km/h
2431 18-06-2020 11:35:00 18.8 C 12.08 g/m*3 18.8 C 9.7 km/h
2432 18-06-2020 11:40:00 18.8 C 12.72 g/m*3 18.8 C 4.8 km/h
2433 18-06-2020 11:45:00 18.8 C 12.4 g/m*3 18.8 C 8.1 km/h
2434 18-06-2020 11:50:00 19.1 C 12.29 g/m*3 19.1 C 9.7 km/h
2435 18-06-2020 11:55:00 19.2 C 12.53 g/m*3 19.2 C 4.8 km/h
2436 18-06-2020 12:00:00 19.3 C 12.44 g/m*3 19.3 C 9.7 km/h
2437 18-06-2020 12:05:00 19.4 C 12.35 g/m*3 19.4 C 9.7 km/h
2438 18-06-2020 12:10:00 19.6 C 12.66 g/m*3 19.6 C 6.4 km/h
2439 18-06-2020 12:15:00 19.6 C 12.32 g/m*3 19.6 C 8.1 km/h
2440 18-06-2020 12:20:00 19.7 C 12.23 g/m*3 19.7 C 6.4 km/h
2441 18-06-2020 12:25:00 19.9 C 12.54 g/m*3 19.9 C 14.5 km/h
2442 18-06-2020 12:30:00 19.9 C 12.37 g/m*3 19.9 C 9.7 km/h
2443 18-06-2020 12:35:00 20 C 12.44 g/m*3 20 C 14.5 km/h
2444 18-06-2020 12:40:00 19.9 C 12.2 g/m*3 19.9 C 16.1 km/h
2445 18-06-2020 12:45:00 19.6 C 11.99 g/m*3 19.6 C 9.7 km/h
2446 18-06-2020 12:50:00 19.7 C 12.23 g/m*3 19.7 C 9.7 km/h
2447 18-06-2020 12:55:00 20 C 12.1 g/m*3 20 C 8.1 km/h
2448 18-06-2020 13:00:00 20.2 C 12.06 g/m*3 20.2 C 9.7 km/h
2449 18-06-2020 13:05:00 20.3 C 12.14 g/m*3 20.3 C 12.9 km/h
2450 18-06-2020 13:10:00 20.3 C 12.14 g/m*3 20.3 C 12.9 km/h
Sensor: Nr:Datum:Temp:Abs-Feuchte:Windchill:Wind:
Aussen-T/F 2451 18-06-2020 13:15:00 20.5 C 12.46 g/m*3 20.5 C 12.9 km/h
2452 18-06-2020 13:20:00 20.5 C 11.74 g/m*3 20.5 C 14.5 km/h
2453 18-06-2020 13:25:00 20.6 C 12.17 g/m*3 20.6 C 9.7 km/h
2454 18-06-2020 13:30:00 20.8 C 11.77 g/m*3 20.8 C 11.3 km/h
2455 18-06-2020 13:35:00 21.1 C 11.98 g/m*3 21.1 C 11.3 km/h
2456 18-06-2020 13:40:00 21.2 C 11.86 g/m*3 21.2 C 17.7 km/h
2457 18-06-2020 13:45:00 21.3 C 12.12 g/m*3 21.3 C 14.5 km/h
2458 18-06-2020 13:50:00 21.3 C 11.74 g/m*3 21.3 C 11.3 km/h
2459 18-06-2020 13:55:00 21.4 C 11.62 g/m*3 21.4 C 16.1 km/h
2460 18-06-2020 14:00:00 21.6 C 11.95 g/m*3 21.6 C 14.5 km/h
2461 18-06-2020 14:05:00 21.7 C 12.02 g/m*3 21.7 C 9.7 km/h
2462 18-06-2020 14:10:00 21.9 C 11.96 g/m*3 21.9 C 11.3 km/h
2463 18-06-2020 14:15:00 22.1 C 11.91 g/m*3 22.1 C 12.9 km/h
2464 18-06-2020 14:20:00 22.2 C 11.78 g/m*3 22.2 C 11.3 km/h
2465 18-06-2020 14:25:00 22.3 C 11.26 g/m*3 22.3 C 11.3 km/h
2466 18-06-2020 14:30:00 22.4 C 11.52 g/m*3 22.4 C 11.3 km/h
2467 18-06-2020 14:35:00 22.4 C 12.11 g/m*3 22.4 C 8.1 km/h
2468 18-06-2020 14:40:00 22.4 C 12.51 g/m*3 22.4 C 8.1 km/h
2469 18-06-2020 14:45:00 22.6 C 12.25 g/m*3 22.6 C 12.9 km/h
2470 18-06-2020 14:50:00 22.4 C 12.51 g/m*3 22.4 C 9.7 km/h
2471 18-06-2020 14:55:00 22.4 C 12.71 g/m*3 22.4 C 11.3 km/h
2472 18-06-2020 15:00:00 22.8 C 12.4 g/m*3 22.8 C 11.3 km/h
2473 18-06-2020 15:05:00 23.1 C 12.4 g/m*3 23.1 C 11.3 km/h
2474 18-06-2020 15:10:00 23.2 C 11.64 g/m*3 23.2 C 11.3 km/h
2475 18-06-2020 15:15:00 22.8 C 11.58 g/m*3 22.8 C 11.3 km/h
Sensor: Nr:Datum:Temp:Abs-Feuchte:Windchill:Wind:
Aussen-T/F 2476 18-06-2020 15:20:00 22.9 C 11.65 g/m*3 22.9 C 6.4 km/h
2477 18-06-2020 15:25:00 23.2 C 11.85 g/m*3 23.2 C 11.3 km/h
2478 18-06-2020 15:30:00 23.3 C 11.92 g/m*3 23.3 C 6.4 km/h
2479 18-06-2020 15:35:00 23.6 C 11.27 g/m*3 23.6 C 8.1 km/h
2480 18-06-2020 15:40:00 24.1 C 11.38 g/m*3 24.1 C 12.9 km/h
2481 18-06-2020 15:45:00 24.3 C 11.06 g/m*3 24.3 C 9.7 km/h
2482 18-06-2020 15:50:00 24.4 C 11.13 g/m*3 24.4 C 12.9 km/h
2483 18-06-2020 15:55:00 24.8 C 11.61 g/m*3 24.8 C 11.3 km/h
2484 18-06-2020 16:00:00 25.2 C 10.48 g/m*3 25.2 C 12.9 km/h
2485 18-06-2020 16:05:00 25.3 C 10.77 g/m*3 25.3 C 12.9 km/h
2486 18-06-2020 16:10:00 25.1 C 11.57 g/m*3 25.1 C 11.3 km/h
2487 18-06-2020 16:15:00 25.2 C 11.41 g/m*3 25.2 C 9.7 km/h
2488 18-06-2020 16:20:00 25.3 C 11.47 g/m*3 25.3 C 8.1 km/h
2489 18-06-2020 16:25:00 25.4 C 11.54 g/m*3 25.4 C 9.7 km/h
2490 18-06-2020 16:30:00 25.2 C 11.64 g/m*3 25.2 C 14.5 km/h
2491 18-06-2020 16:35:00 24.9 C 11.67 g/m*3 24.9 C 14.5 km/h
2492 18-06-2020 16:40:00 24.8 C 12.29 g/m*3 24.8 C 9.7 km/h
2493 18-06-2020 16:45:00 24.9 C 11.67 g/m*3 24.9 C 12.9 km/h
2494 18-06-2020 16:50:00 24.9 C 11.67 g/m*3 24.9 C 11.3 km/h
2495 18-06-2020 16:55:00 24.9 C 11.67 g/m*3 24.9 C 11.3 km/h
2496 18-06-2020 17:00:00 25 C 11.51 g/m*3 25 C 16.1 km/h
2497 18-06-2020 17:05:00 25.2 C 11.87 g/m*3 25.2 C 17.7 km/h
2498 18-06-2020 17:10:00 25.3 C 11.71 g/m*3 25.3 C 11.3 km/h
2499 18-06-2020 17:15:00 25.4 C 11.54 g/m*3 25.4 C 16.1 km/h
2500 18-06-2020 17:20:00 25.3 C 11.24 g/m*3 25.3 C 14.5 km/h
Sensor: Nr:Datum:Temp:Abs-Feuchte:Windchill:Wind:
Aussen-T/F 2501 18-06-2020 17:25:00 25.2 C 11.41 g/m*3 25.2 C 16.1 km/h
2502 18-06-2020 17:30:00 25.1 C 11.57 g/m*3 25.1 C 16.1 km/h
2503 18-06-2020 17:35:00 25.1 C 11.57 g/m*3 25.1 C 22.5 km/h
2504 18-06-2020 17:40:00 25.1 C 10.88 g/m*3 25.1 C 19.3 km/h
2505 18-06-2020 17:45:00 24.4 C 10.9 g/m*3 24.4 C 19.3 km/h
2506 18-06-2020 17:50:00 23.8 C 10.76 g/m*3 23.8 C 11.3 km/h
2507 18-06-2020 17:55:00 23.6 C 10.42 g/m*3 23.6 C 9.7 km/h
2508 18-06-2020 18:00:00 23.7 C 10.48 g/m*3 23.7 C 14.5 km/h
2509 18-06-2020 18:05:00 23.9 C 10.6 g/m*3 23.9 C 19.3 km/h
2510 18-06-2020 18:10:00 23.7 C 10.69 g/m*3 23.7 C 11.3 km/h
2511 18-06-2020 18:15:00 23.4 C 10.51 g/m*3 23.4 C 16.1 km/h
2512 18-06-2020 18:20:00 23.9 C 11.03 g/m*3 23.9 C 11.3 km/h
2513 18-06-2020 18:25:00 24.5 C 10.74 g/m*3 24.5 C 19.3 km/h
2514 18-06-2020 18:30:00 24.1 C 10.28 g/m*3 24.1 C 17.7 km/h
2515 18-06-2020 18:35:00 23.7 C 11.12 g/m*3 23.7 C 11.3 km/h
2516 18-06-2020 18:40:00 23.5 C 10.79 g/m*3 23.5 C 17.7 km/h
2517 18-06-2020 18:45:00 23.7 C 11.34 g/m*3 23.7 C 16.1 km/h
2518 18-06-2020 18:50:00 23.9 C 11.25 g/m*3 23.9 C 12.9 km/h
2519 18-06-2020 18:55:00 24.4 C 11.79 g/m*3 24.4 C 12.9 km/h
2520 18-06-2020 19:00:00 24.8 C 11.38 g/m*3 24.8 C 12.9 km/h
2521 18-06-2020 19:05:00 24.6 C 11.48 g/m*3 24.6 C 11.3 km/h
2522 18-06-2020 19:10:00 24.1 C 11.16 g/m*3 24.1 C 12.9 km/h
2523 18-06-2020 19:15:00 23.6 C 11.27 g/m*3 23.6 C 8.1 km/h
2524 18-06-2020 19:20:00 23.4 C 11.78 g/m*3 23.4 C 9.7 km/h
2525 18-06-2020 19:25:00 23.7 C 11.55 g/m*3 23.7 C 9.7 km/h
Sensor: Nr:Datum:Temp:Abs-Feuchte:Windchill:Wind:
Aussen-T/F 2526 18-06-2020 19:30:00 23.6 C 11.48 g/m*3 23.6 C 11.3 km/h
2527 18-06-2020 19:35:00 23.6 C 11.7 g/m*3 23.6 C 11.3 km/h
2528 18-06-2020 19:40:00 23.8 C 11.62 g/m*3 23.8 C 11.3 km/h
2529 18-06-2020 19:45:00 23.9 C 11.68 g/m*3 23.9 C 9.7 km/h
2530 18-06-2020 19:50:00 23.8 C 11.62 g/m*3 23.8 C 9.7 km/h
2531 18-06-2020 19:55:00 23.8 C 11.83 g/m*3 23.8 C 11.3 km/h
2532 18-06-2020 20:00:00 23.8 C 11.19 g/m*3 23.8 C 14.5 km/h
2533 18-06-2020 20:05:00 23.7 C 11.12 g/m*3 23.7 C 11.3 km/h
2534 18-06-2020 20:10:00 23.6 C 11.27 g/m*3 23.6 C 11.3 km/h
2535 18-06-2020 20:15:00 23.4 C 11.14 g/m*3 23.4 C 9.7 km/h
2536 18-06-2020 20:20:00 23.3 C 11.5 g/m*3 23.3 C 11.3 km/h
2537 18-06-2020 20:25:00 23.3 C 11.5 g/m*3 23.3 C 11.3 km/h
2538 18-06-2020 20:30:00 23.2 C 11.23 g/m*3 23.2 C 6.4 km/h
2539 18-06-2020 20:35:00 23 C 11.3 g/m*3 23 C 8.1 km/h
2540 18-06-2020 20:40:00 22.9 C 11.44 g/m*3 22.9 C 11.3 km/h
2541 18-06-2020 20:45:00 22.8 C 11.38 g/m*3 22.8 C 8.1 km/h
2542 18-06-2020 20:50:00 22.8 C 11.58 g/m*3 22.8 C 9.7 km/h
2543 18-06-2020 20:55:00 22.6 C 11.65 g/m*3 22.6 C 6.4 km/h
2544 18-06-2020 21:00:00 22.3 C 11.65 g/m*3 22.3 C 9.7 km/h
2545 18-06-2020 21:05:00 22.1 C 12.1 g/m*3 22.1 C 0 km/h
2546 18-06-2020 21:10:00 21.9 C 12.93 g/m*3 21.9 C 0 km/h
2547 18-06-2020 21:15:00 21.7 C 12.97 g/m*3 21.7 C 0 km/h
2548 18-06-2020 21:20:00 21.4 C 12.94 g/m*3 21.4 C 0 km/h
2549 18-06-2020 21:25:00 21 C 12.82 g/m*3 21 C 6.4 km/h
2550 18-06-2020 21:30:00 20.6 C 12.53 g/m*3 20.6 C 6.4 km/h
Sensor: Nr:Datum:Temp:Abs-Feuchte:Windchill:Wind:
Aussen-T/F 2551 18-06-2020 21:35:00 20.1 C 12.52 g/m*3 20.1 C 0 km/h
2552 18-06-2020 21:40:00 19.7 C 12.4 g/m*3 19.7 C 6.4 km/h
2553 18-06-2020 21:45:00 19.3 C 12.27 g/m*3 19.3 C 4.8 km/h
2554 18-06-2020 21:50:00 18.9 C 11.99 g/m*3 18.9 C 6.4 km/h
2555 18-06-2020 21:55:00 18.6 C 12.1 g/m*3 18.6 C 6.4 km/h
2556 18-06-2020 22:00:00 18.3 C 12.04 g/m*3 18.3 C 4.8 km/h
2557 18-06-2020 22:05:00 18.1 C 11.9 g/m*3 18.1 C 4.8 km/h
2558 18-06-2020 22:10:00 17.8 C 11.84 g/m*3 17.8 C 6.4 km/h
2559 18-06-2020 22:15:00 17.6 C 11.85 g/m*3 17.6 C 6.4 km/h
2560 18-06-2020 22:20:00 17.3 C 11.79 g/m*3 17.3 C 6.4 km/h
2561 18-06-2020 22:25:00 17.2 C 11.72 g/m*3 17.2 C 4.8 km/h
2562 18-06-2020 22:30:00 17 C 11.72 g/m*3 17 C 4.8 km/h
2563 18-06-2020 22:35:00 16.9 C 11.79 g/m*3 16.9 C 4.8 km/h
2564 18-06-2020 22:40:00 16.7 C 11.65 g/m*3 16.7 C 4.8 km/h
2565 18-06-2020 22:45:00 16.7 C 11.8 g/m*3 16.7 C 4.8 km/h
2566 18-06-2020 22:50:00 16.5 C 11.65 g/m*3 16.5 C 4.8 km/h
2567 18-06-2020 22:55:00 16.4 C 11.72 g/m*3 16.4 C 3.2 km/h
2568 18-06-2020 23:00:00 16.3 C 11.65 g/m*3 16.3 C 0 km/h
2569 18-06-2020 23:05:00 16.2 C 11.72 g/m*3 16.2 C 0 km/h
2570 18-06-2020 23:10:00 16.1 C 11.65 g/m*3 16.1 C 1.6 km/h
2571 18-06-2020 23:15:00 15.9 C 11.65 g/m*3 15.9 C 0 km/h
2572 18-06-2020 23:20:00 15.8 C 11.58 g/m*3 15.8 C 0 km/h
2573 18-06-2020 23:25:00 15.8 C 11.58 g/m*3 15.8 C 0 km/h
2574 18-06-2020 23:30:00 15.7 C 11.51 g/m*3 15.7 C 0 km/h
2575 18-06-2020 23:35:00 15.6 C 11.57 g/m*3 15.6 C 0 km/h
Sensor: Nr:Datum:Temp:Abs-Feuchte:Windchill:Wind:
Aussen-T/F 2576 18-06-2020 23:40:00 15.5 C 11.5 g/m*3 15.5 C 3.2 km/h
2577 18-06-2020 23:45:00 15.4 C 11.43 g/m*3 15.4 C 1.6 km/h
2578 18-06-2020 23:50:00 15.3 C 11.36 g/m*3 15.3 C 0 km/h
2579 18-06-2020 23:55:00 15.2 C 11.42 g/m*3 15.2 C 4.8 km/h
2580 19-06-2020 00:00:00 15.2 C 11.42 g/m*3 15.2 C 0 km/h
2581 19-06-2020 00:05:00 15.2 C 11.42 g/m*3 15.2 C 1.6 km/h
2582 19-06-2020 00:10:00 15.2 C 11.42 g/m*3 15.2 C 1.6 km/h
2583 19-06-2020 00:15:00 15.1 C 11.35 g/m*3 15.1 C 1.6 km/h
2584 19-06-2020 00:20:00 15.1 C 11.35 g/m*3 15.1 C 0 km/h
2585 19-06-2020 00:25:00 15 C 11.28 g/m*3 15 C 0 km/h
2586 19-06-2020 00:30:00 15.1 C 11.48 g/m*3 15.1 C 4.8 km/h
2587 19-06-2020 00:35:00 15.2 C 11.55 g/m*3 15.2 C 3.2 km/h
2588 19-06-2020 00:40:00 15.3 C 11.62 g/m*3 15.3 C 8.1 km/h
2589 19-06-2020 00:45:00 15.4 C 11.69 g/m*3 15.4 C 1.6 km/h
2590 19-06-2020 00:50:00 15.4 C 11.69 g/m*3 15.4 C 0 km/h
2591 19-06-2020 00:55:00 15.4 C 11.69 g/m*3 15.4 C 0 km/h
2592 19-06-2020 01:00:00 15.4 C 11.56 g/m*3 15.4 C 1.6 km/h
2593 19-06-2020 01:05:00 15.3 C 11.49 g/m*3 15.3 C 0 km/h
2594 19-06-2020 01:10:00 15.2 C 11.42 g/m*3 15.2 C 0 km/h
2595 19-06-2020 01:15:00 15.1 C 11.35 g/m*3 15.1 C 0 km/h
2596 19-06-2020 01:20:00 14.8 C 11.15 g/m*3 14.8 C 0 km/h
2597 19-06-2020 01:25:00 14.7 C 11.08 g/m*3 14.7 C 0 km/h
2598 19-06-2020 01:30:00 14.5 C 11.07 g/m*3 14.5 C 0 km/h
2599 19-06-2020 01:35:00 14.4 C 11 g/m*3 14.4 C 0 km/h
2600 19-06-2020 01:40:00 14.3 C 11.06 g/m*3 14.3 C 0 km/h
Sensor: Nr:Datum:Temp:Abs-Feuchte:Windchill:Wind:
Aussen-T/F 2601 19-06-2020 01:45:00 14.2 C 10.99 g/m*3 14.2 C 0 km/h
2602 19-06-2020 01:50:00 14.2 C 10.99 g/m*3 14.2 C 0 km/h
2603 19-06-2020 01:55:00 14.1 C 10.92 g/m*3 14.1 C 1.6 km/h
2604 19-06-2020 02:00:00 14 C 10.98 g/m*3 14 C 0 km/h
2605 19-06-2020 02:05:00 13.9 C 10.91 g/m*3 13.9 C 0 km/h
2606 19-06-2020 02:10:00 13.8 C 10.84 g/m*3 13.8 C 0 km/h
2607 19-06-2020 02:15:00 13.7 C 10.78 g/m*3 13.7 C 0 km/h
2608 19-06-2020 02:20:00 13.6 C 10.71 g/m*3 13.6 C 0 km/h
2609 19-06-2020 02:25:00 13.5 C 10.64 g/m*3 13.5 C 0 km/h
2610 19-06-2020 02:30:00 13.4 C 10.69 g/m*3 13.4 C 0 km/h
2611 19-06-2020 02:35:00 13.3 C 10.63 g/m*3 13.3 C 0 km/h
2612 19-06-2020 02:40:00 13.3 C 10.63 g/m*3 13.3 C 1.6 km/h
2613 19-06-2020 02:45:00 13.3 C 10.63 g/m*3 13.3 C 1.6 km/h
2614 19-06-2020 02:50:00 13.3 C 10.63 g/m*3 13.3 C 3.2 km/h
2615 19-06-2020 02:55:00 13.2 C 10.68 g/m*3 13.2 C 0 km/h
2616 19-06-2020 03:00:00 13.2 C 10.68 g/m*3 13.2 C 1.6 km/h
2617 19-06-2020 03:05:00 13.2 C 10.68 g/m*3 13.2 C 3.2 km/h
2618 19-06-2020 03:10:00 13.1 C 10.61 g/m*3 13.1 C 0 km/h
2619 19-06-2020 03:15:00 13.1 C 10.61 g/m*3 13.1 C 0 km/h
2620 19-06-2020 03:20:00 13 C 10.55 g/m*3 13 C 0 km/h
2621 19-06-2020 03:25:00 12.9 C 10.48 g/m*3 12.9 C 0 km/h
2622 19-06-2020 03:30:00 12.8 C 10.42 g/m*3 12.8 C 0 km/h
2623 19-06-2020 03:35:00 12.7 C 10.35 g/m*3 12.7 C 0 km/h
2624 19-06-2020 03:40:00 12.7 C 10.35 g/m*3 12.7 C 0 km/h
2625 19-06-2020 03:45:00 12.6 C 10.29 g/m*3 12.6 C 0 km/h
Sensor: Nr:Datum:Temp:Abs-Feuchte:Windchill:Wind:
Aussen-T/F 2626 19-06-2020 03:50:00 12.6 C 10.29 g/m*3 12.6 C 0 km/h
2627 19-06-2020 03:55:00 12.6 C 10.29 g/m*3 12.6 C 0 km/h
2628 19-06-2020 04:00:00 12.4 C 10.16 g/m*3 12.4 C 0 km/h
2629 19-06-2020 04:05:00 12.4 C 10.27 g/m*3 12.4 C 1.6 km/h
2630 19-06-2020 04:10:00 12.5 C 10.33 g/m*3 12.5 C 1.6 km/h
2631 19-06-2020 04:15:00 12.5 C 10.33 g/m*3 12.5 C 1.6 km/h
2632 19-06-2020 04:20:00 12.4 C 10.27 g/m*3 12.4 C 1.6 km/h
2633 19-06-2020 04:25:00 12.4 C 10.27 g/m*3 12.4 C 0 km/h
2634 19-06-2020 04:30:00 12.3 C 10.21 g/m*3 12.3 C 0 km/h
2635 19-06-2020 04:35:00 12.3 C 10.21 g/m*3 12.3 C 1.6 km/h
2636 19-06-2020 04:40:00 12.2 C 10.14 g/m*3 12.2 C 0 km/h
2637 19-06-2020 04:45:00 12.2 C 10.14 g/m*3 12.2 C 3.2 km/h
2638 19-06-2020 04:50:00 12.2 C 10.14 g/m*3 12.2 C 3.2 km/h
2639 19-06-2020 04:55:00 12.2 C 10.14 g/m*3 12.2 C 1.6 km/h
2640 19-06-2020 05:00:00 12.2 C 10.14 g/m*3 12.2 C 0 km/h
2641 19-06-2020 05:05:00 12.2 C 10.25 g/m*3 12.2 C 3.2 km/h
2642 19-06-2020 05:10:00 12.4 C 10.38 g/m*3 12.4 C 6.4 km/h
2643 19-06-2020 05:15:00 12.4 C 10.38 g/m*3 12.4 C 0 km/h
2644 19-06-2020 05:20:00 12.3 C 10.21 g/m*3 12.3 C 1.6 km/h
2645 19-06-2020 05:25:00 12.2 C 10.14 g/m*3 12.2 C 0 km/h
2646 19-06-2020 05:30:00 12.2 C 10.14 g/m*3 12.2 C 0 km/h
2647 19-06-2020 05:35:00 12.1 C 10.19 g/m*3 12.1 C 0 km/h
2648 19-06-2020 05:40:00 12.1 C 10.19 g/m*3 12.1 C 0 km/h
2649 19-06-2020 05:45:00 12.2 C 10.25 g/m*3 12.2 C 0 km/h
2650 19-06-2020 05:50:00 12.2 C 10.25 g/m*3 12.2 C 0 km/h
Sensor: Nr:Datum:Temp:Abs-Feuchte:Windchill:Wind:
Aussen-T/F 2651 19-06-2020 05:55:00 12.2 C 10.25 g/m*3 12.2 C 1.6 km/h
2652 19-06-2020 06:00:00 12.3 C 10.32 g/m*3 12.3 C 0 km/h
2653 19-06-2020 06:05:00 12.3 C 10.32 g/m*3 12.3 C 0 km/h
2654 19-06-2020 06:10:00 12.4 C 10.38 g/m*3 12.4 C 0 km/h
2655 19-06-2020 06:15:00 12.4 C 10.38 g/m*3 12.4 C 0 km/h
2656 19-06-2020 06:20:00 12.4 C 10.38 g/m*3 12.4 C 0 km/h
2657 19-06-2020 06:25:00 12.5 C 10.44 g/m*3 12.5 C 0 km/h
2658 19-06-2020 06:30:00 12.6 C 10.51 g/m*3 12.6 C 0 km/h
2659 19-06-2020 06:35:00 12.7 C 10.58 g/m*3 12.7 C 3.2 km/h
2660 19-06-2020 06:40:00 12.7 C 10.58 g/m*3 12.7 C 1.6 km/h
2661 19-06-2020 06:45:00 12.8 C 10.64 g/m*3 12.8 C 0 km/h
2662 19-06-2020 06:50:00 12.9 C 10.71 g/m*3 12.9 C 3.2 km/h
2663 19-06-2020 06:55:00 12.9 C 10.71 g/m*3 12.9 C 0 km/h
2664 19-06-2020 07:00:00 13 C 10.77 g/m*3 13 C 3.2 km/h
2665 19-06-2020 07:05:00 13.1 C 10.84 g/m*3 13.1 C 1.6 km/h
2666 19-06-2020 07:10:00 13.2 C 10.91 g/m*3 13.2 C 0 km/h
2667 19-06-2020 07:15:00 13.3 C 10.98 g/m*3 13.3 C 0 km/h
2668 19-06-2020 07:20:00 13.4 C 11.04 g/m*3 13.4 C 0 km/h
2669 19-06-2020 07:25:00 13.5 C 11.11 g/m*3 13.5 C 0 km/h
2670 19-06-2020 07:30:00 13.6 C 11.18 g/m*3 13.6 C 0 km/h
2671 19-06-2020 07:35:00 13.8 C 11.32 g/m*3 13.8 C 0 km/h
2672 19-06-2020 07:40:00 13.9 C 11.39 g/m*3 13.9 C 0 km/h
2673 19-06-2020 07:45:00 14.1 C 11.53 g/m*3 14.1 C 0 km/h
2674 19-06-2020 07:50:00 14.3 C 11.67 g/m*3 14.3 C 1.6 km/h
2675 19-06-2020 07:55:00 14.5 C 11.82 g/m*3 14.5 C 0 km/h
Sensor: Nr:Datum:Temp:Abs-Feuchte:Windchill:Wind:
Aussen-T/F 2676 19-06-2020 08:00:00 14.6 C 11.76 g/m*3 14.6 C 0 km/h
2677 19-06-2020 08:05:00 14.8 C 11.91 g/m*3 14.8 C 1.6 km/h
2678 19-06-2020 08:10:00 14.9 C 11.85 g/m*3 14.9 C 9.7 km/h
2679 19-06-2020 08:15:00 15.2 C 11.81 g/m*3 15.2 C 9.7 km/h
2680 19-06-2020 08:20:00 15.4 C 11.82 g/m*3 15.4 C 6.4 km/h
2681 19-06-2020 08:25:00 15.6 C 11.7 g/m*3 15.6 C 9.7 km/h
2682 19-06-2020 08:30:00 15.9 C 11.78 g/m*3 15.9 C 11.3 km/h
2683 19-06-2020 08:35:00 16.1 C 11.79 g/m*3 16.1 C 8.1 km/h
2684 19-06-2020 08:40:00 16.3 C 11.79 g/m*3 16.3 C 9.7 km/h
2685 19-06-2020 08:45:00 16.6 C 11.87 g/m*3 16.6 C 12.9 km/h
2686 19-06-2020 08:50:00 16.7 C 11.8 g/m*3 16.7 C 11.3 km/h
2687 19-06-2020 08:55:00 16.9 C 11.94 g/m*3 16.9 C 11.3 km/h
2688 19-06-2020 09:00:00 17.1 C 11.94 g/m*3 17.1 C 11.3 km/h
2689 19-06-2020 09:05:00 17.2 C 11.86 g/m*3 17.2 C 11.3 km/h
2690 19-06-2020 09:10:00 17.3 C 11.79 g/m*3 17.3 C 8.1 km/h
2691 19-06-2020 09:15:00 17.3 C 11.79 g/m*3 17.3 C 9.7 km/h
2692 19-06-2020 09:20:00 17.3 C 11.79 g/m*3 17.3 C 6.4 km/h
2693 19-06-2020 09:25:00 17.4 C 11.86 g/m*3 17.4 C 12.9 km/h
2694 19-06-2020 09:30:00 17.5 C 11.78 g/m*3 17.5 C 11.3 km/h
2695 19-06-2020 09:35:00 17.6 C 11.85 g/m*3 17.6 C 11.3 km/h
2696 19-06-2020 09:40:00 17.8 C 11.99 g/m*3 17.8 C 11.3 km/h
2697 19-06-2020 09:45:00 17.9 C 12.06 g/m*3 17.9 C 4.8 km/h
2698 19-06-2020 09:50:00 18 C 12.13 g/m*3 18 C 9.7 km/h
2699 19-06-2020 09:55:00 18.2 C 12.12 g/m*3 18.2 C 9.7 km/h
2700 19-06-2020 10:00:00 18.3 C 12.2 g/m*3 18.3 C 8.1 km/h
Sensor: Nr:Datum:Temp:Abs-Feuchte:Windchill:Wind:
Aussen-T/F 2701 19-06-2020 10:05:00 18.3 C 12.2 g/m*3 18.3 C 8.1 km/h
2702 19-06-2020 10:10:00 18.4 C 12.11 g/m*3 18.4 C 6.4 km/h
2703 19-06-2020 10:15:00 18.6 C 12.41 g/m*3 18.6 C 6.4 km/h
2704 19-06-2020 10:20:00 18.8 C 12.4 g/m*3 18.8 C 6.4 km/h
2705 19-06-2020 10:25:00 19.1 C 12.46 g/m*3 19.1 C 3.2 km/h
2706 19-06-2020 10:30:00 19.4 C 12.51 g/m*3 19.4 C 3.2 km/h
2707 19-06-2020 10:35:00 19.5 C 12.42 g/m*3 19.5 C 6.4 km/h
2708 19-06-2020 10:40:00 19.7 C 12.4 g/m*3 19.7 C 6.4 km/h
2709 19-06-2020 10:45:00 19.8 C 12.3 g/m*3 19.8 C 6.4 km/h
2710 19-06-2020 10:50:00 19.9 C 12.37 g/m*3 19.9 C 3.2 km/h
2711 19-06-2020 10:55:00 20.1 C 12.34 g/m*3 20.1 C 4.8 km/h
2712 19-06-2020 11:00:00 20.2 C 12.41 g/m*3 20.2 C 6.4 km/h
2713 19-06-2020 11:05:00 20.4 C 12.56 g/m*3 20.4 C 4.8 km/h
2714 19-06-2020 11:10:00 20.6 C 12.17 g/m*3 20.6 C 9.7 km/h
2715 19-06-2020 11:15:00 20.7 C 12.24 g/m*3 20.7 C 8.1 km/h
2716 19-06-2020 11:20:00 20.8 C 12.13 g/m*3 20.8 C 11.3 km/h
2717 19-06-2020 11:25:00 20.9 C 11.84 g/m*3 20.9 C 11.3 km/h
2718 19-06-2020 11:30:00 20.9 C 12.02 g/m*3 20.9 C 9.7 km/h
2719 19-06-2020 11:35:00 21 C 12.09 g/m*3 21 C 11.3 km/h
2720 19-06-2020 11:40:00 21.1 C 12.53 g/m*3 21.1 C 11.3 km/h
2721 19-06-2020 11:45:00 21.1 C 11.98 g/m*3 21.1 C 6.4 km/h
2722 19-06-2020 11:50:00 21.2 C 11.68 g/m*3 21.2 C 14.5 km/h
2723 19-06-2020 11:55:00 21.3 C 11.74 g/m*3 21.3 C 14.5 km/h
2724 19-06-2020 12:00:00 21.4 C 12 g/m*3 21.4 C 9.7 km/h
2725 19-06-2020 12:05:00 21.6 C 11.76 g/m*3 21.6 C 11.3 km/h
Sensor: Nr:Datum:Temp:Abs-Feuchte:Windchill:Wind:
Aussen-T/F 2726 19-06-2020 12:10:00 21.7 C 11.83 g/m*3 21.7 C 14.5 km/h
2727 19-06-2020 12:15:00 21.8 C 11.7 g/m*3 21.8 C 11.3 km/h
2728 19-06-2020 12:20:00 21.9 C 12.16 g/m*3 21.9 C 17.7 km/h
2729 19-06-2020 12:25:00 22.1 C 11.91 g/m*3 22.1 C 17.7 km/h
2730 19-06-2020 12:30:00 22.1 C 11.71 g/m*3 22.1 C 12.9 km/h
2731 19-06-2020 12:35:00 22.2 C 11.98 g/m*3 22.2 C 9.7 km/h
2732 19-06-2020 12:40:00 22.2 C 11.98 g/m*3 22.2 C 11.3 km/h
2733 19-06-2020 12:45:00 22.1 C 11.91 g/m*3 22.1 C 9.7 km/h
2734 19-06-2020 12:50:00 22 C 12.23 g/m*3 22 C 9.7 km/h
2735 19-06-2020 12:55:00 21.8 C 12.09 g/m*3 21.8 C 8.1 km/h
2736 19-06-2020 13:00:00 21.6 C 11.95 g/m*3 21.6 C 9.7 km/h
2737 19-06-2020 13:05:00 21.4 C 12.19 g/m*3 21.4 C 9.7 km/h
2738 19-06-2020 13:10:00 21.3 C 12.3 g/m*3 21.3 C 6.4 km/h
2739 19-06-2020 13:15:00 21.2 C 12.05 g/m*3 21.2 C 4.8 km/h
2740 19-06-2020 13:20:00 21.2 C 12.42 g/m*3 21.2 C 0 km/h
2741 19-06-2020 13:25:00 21.3 C 12.12 g/m*3 21.3 C 8.1 km/h
2742 19-06-2020 13:30:00 21.4 C 12.19 g/m*3 21.4 C 8.1 km/h
2743 19-06-2020 13:35:00 21.6 C 11.95 g/m*3 21.6 C 11.3 km/h
2744 19-06-2020 13:40:00 21.7 C 12.21 g/m*3 21.7 C 6.4 km/h
2745 19-06-2020 13:45:00 21.8 C 12.28 g/m*3 21.8 C 6.4 km/h
2746 19-06-2020 13:50:00 21.8 C 12.09 g/m*3 21.8 C 4.8 km/h
2747 19-06-2020 13:55:00 21.8 C 11.9 g/m*3 21.8 C 0 km/h
2748 19-06-2020 14:00:00 22.1 C 12.49 g/m*3 22.1 C 0 km/h
2749 19-06-2020 14:05:00 22.4 C 12.11 g/m*3 22.4 C 6.4 km/h
2750 19-06-2020 14:10:00 22.5 C 12.18 g/m*3 22.5 C 4.8 km/h
Sensor: Nr:Datum:Temp:Abs-Feuchte:Windchill:Wind:
Aussen-T/F 2751 19-06-2020 14:15:00 22.4 C 12.11 g/m*3 22.4 C 6.4 km/h
2752 19-06-2020 14:20:00 22.3 C 11.85 g/m*3 22.3 C 0 km/h
2753 19-06-2020 14:25:00 22.3 C 11.85 g/m*3 22.3 C 4.8 km/h
2754 19-06-2020 14:30:00 22.4 C 11.32 g/m*3 22.4 C 16.1 km/h
2755 19-06-2020 14:35:00 22.4 C 11.32 g/m*3 22.4 C 16.1 km/h
2756 19-06-2020 14:40:00 22.3 C 11.26 g/m*3 22.3 C 16.1 km/h
2757 19-06-2020 14:45:00 22.2 C 10.8 g/m*3 22.2 C 11.3 km/h
2758 19-06-2020 14:50:00 22.3 C 11.06 g/m*3 22.3 C 8.1 km/h
2759 19-06-2020 14:55:00 22.5 C 10.59 g/m*3 22.5 C 14.5 km/h
2760 19-06-2020 15:00:00 22.6 C 10.85 g/m*3 22.6 C 11.3 km/h
2761 19-06-2020 15:05:00 22.8 C 11.58 g/m*3 22.8 C 3.2 km/h
2762 19-06-2020 15:10:00 22.9 C 11.04 g/m*3 22.9 C 14.5 km/h
2763 19-06-2020 15:15:00 23.3 C 11.5 g/m*3 23.3 C 16.1 km/h
2764 19-06-2020 15:20:00 23.4 C 11.14 g/m*3 23.4 C 11.3 km/h
2765 19-06-2020 15:25:00 23.4 C 11.14 g/m*3 23.4 C 9.7 km/h
2766 19-06-2020 15:30:00 23.3 C 11.08 g/m*3 23.3 C 8.1 km/h
2767 19-06-2020 15:35:00 23.1 C 10.96 g/m*3 23.1 C 14.5 km/h
2768 19-06-2020 15:40:00 22.4 C 11.12 g/m*3 22.4 C 19.3 km/h
2769 19-06-2020 15:45:00 21.3 C 11.74 g/m*3 21.3 C 27.4 km/h
2770 19-06-2020 15:50:00 19.8 C 11.96 g/m*3 19.8 C 22.5 km/h
2771 19-06-2020 15:55:00 18.9 C 12.31 g/m*3 18.9 C 9.7 km/h
2772 19-06-2020 16:00:00 18.3 C 12.66 g/m*3 18.3 C 6.4 km/h
2773 19-06-2020 16:05:00 17.8 C 12.6 g/m*3 17.8 C 3.2 km/h
2774 19-06-2020 16:10:00 17.4 C 12.75 g/m*3 17.4 C 6.4 km/h
2775 19-06-2020 16:15:00 17.1 C 12.81 g/m*3 17.1 C 9.7 km/h
Sensor: Nr:Datum:Temp:Abs-Feuchte:Windchill:Wind:
Aussen-T/F 2776 19-06-2020 16:20:00 16.8 C 12.58 g/m*3 16.8 C 11.3 km/h
2777 19-06-2020 16:25:00 16.3 C 12.35 g/m*3 16.3 C 12.9 km/h
2778 19-06-2020 16:30:00 16.2 C 12.41 g/m*3 16.2 C 8.1 km/h
2779 19-06-2020 16:35:00 15.9 C 12.19 g/m*3 15.9 C 12.9 km/h
2780 19-06-2020 16:40:00 15.7 C 12.18 g/m*3 15.7 C 12.9 km/h
2781 19-06-2020 16:45:00 15.4 C 12.09 g/m*3 15.4 C 12.9 km/h
2782 19-06-2020 16:50:00 15.4 C 12.22 g/m*3 15.4 C 6.4 km/h
2783 19-06-2020 16:55:00 15.5 C 12.29 g/m*3 15.5 C 9.7 km/h
2784 19-06-2020 17:00:00 15.7 C 12.58 g/m*3 15.7 C 12.9 km/h
2785 19-06-2020 17:05:00 15.7 C 12.58 g/m*3 15.7 C 11.3 km/h
2786 19-06-2020 17:10:00 15.8 C 12.65 g/m*3 15.8 C 16.1 km/h
2787 19-06-2020 17:15:00 15.8 C 12.65 g/m*3 15.8 C 12.9 km/h
2788 19-06-2020 17:20:00 15.8 C 12.65 g/m*3 15.8 C 12.9 km/h
2789 19-06-2020 17:25:00 15.8 C 12.65 g/m*3 15.8 C 16.1 km/h
2790 19-06-2020 17:30:00 15.9 C 12.87 g/m*3 15.9 C 16.1 km/h
2791 19-06-2020 17:35:00 16.1 C 13.02 g/m*3 16.1 C 8.1 km/h
2792 19-06-2020 17:40:00 16.3 C 13.18 g/m*3 16.3 C 8.1 km/h
2793 19-06-2020 17:45:00 16.9 C 13.81 g/m*3 16.9 C 3.2 km/h
2794 19-06-2020 17:50:00 17.9 C 14.81 g/m*3 17.9 C 3.2 km/h
2795 19-06-2020 17:55:00 17.8 C 14.42 g/m*3 17.8 C 6.4 km/h
2796 19-06-2020 18:00:00 17.7 C 14.18 g/m*3 17.7 C 4.8 km/h
2797 19-06-2020 18:05:00 17.6 C 13.95 g/m*3 17.6 C 4.8 km/h
2798 19-06-2020 18:10:00 17.4 C 13.63 g/m*3 17.4 C 8.1 km/h
2799 19-06-2020 18:15:00 17.3 C 13.55 g/m*3 17.3 C 4.8 km/h
2800 19-06-2020 18:20:00 17.4 C 13.78 g/m*3 17.4 C 0 km/h
Sensor: Nr:Datum:Temp:Abs-Feuchte:Windchill:Wind:
Aussen-T/F 2801 19-06-2020 18:25:00 17.6 C 14.1 g/m*3 17.6 C 3.2 km/h
2802 19-06-2020 18:30:00 18.1 C 14.68 g/m*3 18.1 C 1.6 km/h
2803 19-06-2020 18:35:00 18.2 C 14.3 g/m*3 18.2 C 4.8 km/h
2804 19-06-2020 18:40:00 18.5 C 14.71 g/m*3 18.5 C 3.2 km/h
2805 19-06-2020 18:45:00 19.1 C 15.41 g/m*3 19.1 C 6.4 km/h
2806 19-06-2020 18:50:00 19.2 C 14.51 g/m*3 19.2 C 4.8 km/h
2807 19-06-2020 18:55:00 19.3 C 13.77 g/m*3 19.3 C 6.4 km/h
2808 19-06-2020 19:00:00 19.3 C 13.6 g/m*3 19.3 C 4.8 km/h
2809 19-06-2020 19:05:00 19.3 C 14.26 g/m*3 19.3 C 0 km/h
2810 19-06-2020 19:10:00 19.4 C 14.68 g/m*3 19.4 C 1.6 km/h
2811 19-06-2020 19:15:00 19.3 C 14.6 g/m*3 19.3 C 3.2 km/h
2812 19-06-2020 19:20:00 19.3 C 14.76 g/m*3 19.3 C 4.8 km/h
2813 19-06-2020 19:25:00 19.1 C 14.43 g/m*3 19.1 C 1.6 km/h
2814 19-06-2020 19:30:00 18.9 C 14.26 g/m*3 18.9 C 1.6 km/h
2815 19-06-2020 19:35:00 18.6 C 14.01 g/m*3 18.6 C 1.6 km/h
2816 19-06-2020 19:40:00 18.4 C 14 g/m*3 18.4 C 4.8 km/h
2817 19-06-2020 19:45:00 18.3 C 14.07 g/m*3 18.3 C 4.8 km/h
2818 19-06-2020 19:50:00 18.4 C 14.47 g/m*3 18.4 C 4.8 km/h
2819 19-06-2020 19:55:00 18.6 C 14.64 g/m*3 18.6 C 3.2 km/h
2820 19-06-2020 20:00:00 18.8 C 14.98 g/m*3 18.8 C 3.2 km/h
2821 19-06-2020 20:05:00 19.1 C 15.08 g/m*3 19.1 C 0 km/h
2822 19-06-2020 20:10:00 18.9 C 14.58 g/m*3 18.9 C 0 km/h
2823 19-06-2020 20:15:00 18.7 C 14.25 g/m*3 18.7 C 6.4 km/h
2824 19-06-2020 20:20:00 18.3 C 13.76 g/m*3 18.3 C 8.1 km/h
2825 19-06-2020 20:25:00 18.1 C 13.91 g/m*3 18.1 C 8.1 km/h
Sensor: Nr:Datum:Temp:Abs-Feuchte:Windchill:Wind:
Aussen-T/F 2826 19-06-2020 20:30:00 17.9 C 13.74 g/m*3 17.9 C 8.1 km/h
2827 19-06-2020 20:35:00 17.9 C 13.89 g/m*3 17.9 C 8.1 km/h
2828 19-06-2020 20:40:00 17.8 C 13.81 g/m*3 17.8 C 8.1 km/h
2829 19-06-2020 20:45:00 17.7 C 13.58 g/m*3 17.7 C 6.4 km/h
2830 19-06-2020 20:50:00 17.5 C 13.42 g/m*3 17.5 C 8.1 km/h
2831 19-06-2020 20:55:00 17.3 C 13.26 g/m*3 17.3 C 8.1 km/h
2832 19-06-2020 21:00:00 17.1 C 13.1 g/m*3 17.1 C 8.1 km/h
2833 19-06-2020 21:05:00 16.8 C 12.87 g/m*3 16.8 C 8.1 km/h
2834 19-06-2020 21:10:00 16.6 C 12.71 g/m*3 16.6 C 8.1 km/h
2835 19-06-2020 21:15:00 16.3 C 12.62 g/m*3 16.3 C 8.1 km/h
2836 19-06-2020 21:20:00 16.2 C 12.55 g/m*3 16.2 C 8.1 km/h
2837 19-06-2020 21:25:00 16 C 12.53 g/m*3 16 C 8.1 km/h
2838 19-06-2020 21:30:00 15.9 C 12.46 g/m*3 15.9 C 6.4 km/h
2839 19-06-2020 21:35:00 15.8 C 12.38 g/m*3 15.8 C 8.1 km/h
2840 19-06-2020 21:40:00 15.7 C 12.31 g/m*3 15.7 C 3.2 km/h
2841 19-06-2020 21:45:00 15.6 C 12.37 g/m*3 15.6 C 8.1 km/h
2842 19-06-2020 21:50:00 15.5 C 12.29 g/m*3 15.5 C 8.1 km/h
2843 19-06-2020 21:55:00 15.4 C 12.22 g/m*3 15.4 C 6.4 km/h
2844 19-06-2020 22:00:00 15.3 C 12.14 g/m*3 15.3 C 6.4 km/h
2845 19-06-2020 22:05:00 15.2 C 12.07 g/m*3 15.2 C 4.8 km/h
2846 19-06-2020 22:10:00 15 C 11.93 g/m*3 15 C 4.8 km/h
2847 19-06-2020 22:15:00 14.9 C 11.85 g/m*3 14.9 C 4.8 km/h
2848 19-06-2020 22:20:00 14.8 C 11.91 g/m*3 14.8 C 3.2 km/h
2849 19-06-2020 22:25:00 14.8 C 11.91 g/m*3 14.8 C 3.2 km/h
2850 19-06-2020 22:30:00 14.7 C 11.83 g/m*3 14.7 C 3.2 km/h
Sensor: Nr:Datum:Temp:Abs-Feuchte:Windchill:Wind:
Aussen-T/F 2851 19-06-2020 22:35:00 14.7 C 11.83 g/m*3 14.7 C 4.8 km/h
2852 19-06-2020 22:40:00 14.6 C 11.76 g/m*3 14.6 C 4.8 km/h
2853 19-06-2020 22:45:00 14.6 C 11.76 g/m*3 14.6 C 0 km/h
2854 19-06-2020 22:50:00 14.6 C 11.89 g/m*3 14.6 C 3.2 km/h
2855 19-06-2020 22:55:00 14.6 C 11.76 g/m*3 14.6 C 1.6 km/h
2856 19-06-2020 23:00:00 14.5 C 11.69 g/m*3 14.5 C 0 km/h
2857 19-06-2020 23:05:00 14.4 C 11.62 g/m*3 14.4 C 3.2 km/h
2858 19-06-2020 23:10:00 14.3 C 11.55 g/m*3 14.3 C 3.2 km/h
2859 19-06-2020 23:15:00 14.3 C 11.55 g/m*3 14.3 C 0 km/h
2860 19-06-2020 23:20:00 14.2 C 11.6 g/m*3 14.2 C 0 km/h
2861 19-06-2020 23:25:00 14.2 C 11.6 g/m*3 14.2 C 0 km/h
2862 19-06-2020 23:30:00 14.1 C 11.53 g/m*3 14.1 C 0 km/h
2863 19-06-2020 23:35:00 14.1 C 11.53 g/m*3 14.1 C 0 km/h
2864 19-06-2020 23:40:00 14.1 C 11.53 g/m*3 14.1 C 0 km/h
2865 19-06-2020 23:45:00 14 C 11.46 g/m*3 14 C 0 km/h
2866 19-06-2020 23:50:00 14 C 11.46 g/m*3 14 C 0 km/h
2867 19-06-2020 23:55:00 13.9 C 11.39 g/m*3 13.9 C 0 km/h
2868 20-06-2020 00:00:00 13.9 C 11.39 g/m*3 13.9 C 0 km/h
2869 20-06-2020 00:05:00 13.9 C 11.39 g/m*3 13.9 C 0 km/h
2870 20-06-2020 00:10:00 13.8 C 11.32 g/m*3 13.8 C 0 km/h
2871 20-06-2020 00:15:00 13.8 C 11.32 g/m*3 13.8 C 0 km/h
2872 20-06-2020 00:20:00 13.7 C 11.25 g/m*3 13.7 C 0 km/h
2873 20-06-2020 00:25:00 13.6 C 11.18 g/m*3 13.6 C 1.6 km/h
2874 20-06-2020 00:30:00 13.5 C 11.11 g/m*3 13.5 C 0 km/h
2875 20-06-2020 00:35:00 13.4 C 11.04 g/m*3 13.4 C 0 km/h
Sensor: Nr:Datum:Temp:Abs-Feuchte:Windchill:Wind:
Aussen-T/F 2876 20-06-2020 00:40:00 13.4 C 11.04 g/m*3 13.4 C 0 km/h
2877 20-06-2020 00:45:00 13.4 C 11.04 g/m*3 13.4 C 0 km/h
2878 20-06-2020 00:50:00 13.3 C 10.98 g/m*3 13.3 C 0 km/h
2879 20-06-2020 00:55:00 13.3 C 11.09 g/m*3 13.3 C 0 km/h
2880 20-06-2020 01:00:00 13.3 C 11.09 g/m*3 13.3 C 0 km/h
2881 20-06-2020 01:05:00 13.4 C 11.16 g/m*3 13.4 C 0 km/h
2882 20-06-2020 01:10:00 13.4 C 11.16 g/m*3 13.4 C 0 km/h
2883 20-06-2020 01:15:00 13.4 C 11.16 g/m*3 13.4 C 0 km/h
2884 20-06-2020 01:20:00 13.5 C 11.23 g/m*3 13.5 C 0 km/h
2885 20-06-2020 01:25:00 13.5 C 11.23 g/m*3 13.5 C 0 km/h
2886 20-06-2020 01:30:00 13.5 C 11.23 g/m*3 13.5 C 0 km/h
2887 20-06-2020 01:35:00 13.5 C 11.23 g/m*3 13.5 C 0 km/h
2888 20-06-2020 01:40:00 13.5 C 11.23 g/m*3 13.5 C 0 km/h
2889 20-06-2020 01:45:00 13.5 C 11.23 g/m*3 13.5 C 0 km/h
2890 20-06-2020 01:50:00 13.6 C 11.3 g/m*3 13.6 C 0 km/h
2891 20-06-2020 01:55:00 13.6 C 11.3 g/m*3 13.6 C 1.6 km/h
2892 20-06-2020 02:00:00 13.6 C 11.3 g/m*3 13.6 C 1.6 km/h
2893 20-06-2020 02:05:00 13.6 C 11.3 g/m*3 13.6 C 0 km/h
2894 20-06-2020 02:10:00 13.6 C 11.3 g/m*3 13.6 C 0 km/h
2895 20-06-2020 02:15:00 13.5 C 11.23 g/m*3 13.5 C 0 km/h
2896 20-06-2020 02:20:00 13.4 C 11.16 g/m*3 13.4 C 0 km/h
2897 20-06-2020 02:25:00 13.3 C 11.09 g/m*3 13.3 C 0 km/h
2898 20-06-2020 02:30:00 13.3 C 11.09 g/m*3 13.3 C 0 km/h
2899 20-06-2020 02:35:00 13.2 C 11.02 g/m*3 13.2 C 3.2 km/h
2900 20-06-2020 02:40:00 13.2 C 11.02 g/m*3 13.2 C 3.2 km/h
Sensor: Nr:Datum:Temp:Abs-Feuchte:Windchill:Wind:
Aussen-T/F 2901 20-06-2020 02:45:00 13.2 C 11.02 g/m*3 13.2 C 0 km/h
2902 20-06-2020 02:50:00 13.2 C 11.02 g/m*3 13.2 C 0 km/h
2903 20-06-2020 02:55:00 13.2 C 11.02 g/m*3 13.2 C 0 km/h
2904 20-06-2020 03:00:00 13.2 C 11.02 g/m*3 13.2 C 0 km/h
2905 20-06-2020 03:05:00 13.1 C 10.95 g/m*3 13.1 C 0 km/h
2906 20-06-2020 03:10:00 13.1 C 10.95 g/m*3 13.1 C 0 km/h
2907 20-06-2020 03:15:00 13 C 10.89 g/m*3 13 C 0 km/h
2908 20-06-2020 03:20:00 13 C 10.89 g/m*3 13 C 0 km/h
2909 20-06-2020 03:25:00 12.9 C 10.82 g/m*3 12.9 C 0 km/h
2910 20-06-2020 03:30:00 12.9 C 10.82 g/m*3 12.9 C 0 km/h
2911 20-06-2020 03:35:00 12.9 C 10.82 g/m*3 12.9 C 0 km/h
2912 20-06-2020 03:40:00 12.9 C 10.82 g/m*3 12.9 C 0 km/h
2913 20-06-2020 03:45:00 12.9 C 10.82 g/m*3 12.9 C 0 km/h
2914 20-06-2020 03:50:00 12.8 C 10.75 g/m*3 12.8 C 0 km/h
2915 20-06-2020 03:55:00 12.8 C 10.75 g/m*3 12.8 C 0 km/h
2916 20-06-2020 04:00:00 12.8 C 10.75 g/m*3 12.8 C 0 km/h
2917 20-06-2020 04:05:00 12.7 C 10.69 g/m*3 12.7 C 0 km/h
2918 20-06-2020 04:10:00 12.7 C 10.69 g/m*3 12.7 C 3.2 km/h
2919 20-06-2020 04:15:00 12.7 C 10.69 g/m*3 12.7 C 0 km/h
2920 20-06-2020 04:20:00 12.6 C 10.62 g/m*3 12.6 C 0 km/h
2921 20-06-2020 04:25:00 12.6 C 10.62 g/m*3 12.6 C 1.6 km/h
2922 20-06-2020 04:30:00 12.6 C 10.62 g/m*3 12.6 C 0 km/h
2923 20-06-2020 04:35:00 12.5 C 10.55 g/m*3 12.5 C 0 km/h
2924 20-06-2020 04:40:00 12.5 C 10.66 g/m*3 12.5 C 0 km/h
2925 20-06-2020 04:45:00 12.4 C 10.6 g/m*3 12.4 C 0 km/h
Sensor: Nr:Datum:Temp:Abs-Feuchte:Windchill:Wind:
Aussen-T/F 2926 20-06-2020 04:50:00 12.5 C 10.66 g/m*3 12.5 C 0 km/h
2927 20-06-2020 04:55:00 12.5 C 10.66 g/m*3 12.5 C 0 km/h
2928 20-06-2020 05:00:00 12.6 C 10.73 g/m*3 12.6 C 1.6 km/h
2929 20-06-2020 05:05:00 12.6 C 10.73 g/m*3 12.6 C 0 km/h
2930 20-06-2020 05:10:00 12.6 C 10.73 g/m*3 12.6 C 0 km/h
2931 20-06-2020 05:15:00 12.6 C 10.73 g/m*3 12.6 C 0 km/h
2932 20-06-2020 05:20:00 12.6 C 10.73 g/m*3 12.6 C 0 km/h
2933 20-06-2020 05:25:00 12.6 C 10.73 g/m*3 12.6 C 0 km/h
2934 20-06-2020 05:30:00 12.5 C 10.66 g/m*3 12.5 C 0 km/h
2935 20-06-2020 05:35:00 12.4 C 10.6 g/m*3 12.4 C 1.6 km/h
2936 20-06-2020 05:40:00 12.3 C 10.42 g/m*3 12.3 C 0 km/h
2937 20-06-2020 05:45:00 12.3 C 10.42 g/m*3 12.3 C 0 km/h
2938 20-06-2020 05:50:00 12.3 C 10.53 g/m*3 12.3 C 3.2 km/h
2939 20-06-2020 05:55:00 12.3 C 10.53 g/m*3 12.3 C 1.6 km/h
2940 20-06-2020 06:00:00 12.3 C 10.53 g/m*3 12.3 C 3.2 km/h
2941 20-06-2020 06:05:00 12.5 C 10.66 g/m*3 12.5 C 1.6 km/h
2942 20-06-2020 06:10:00 12.6 C 10.73 g/m*3 12.6 C 0 km/h
2943 20-06-2020 06:15:00 12.6 C 10.73 g/m*3 12.6 C 0 km/h
2944 20-06-2020 06:20:00 12.6 C 10.73 g/m*3 12.6 C 3.2 km/h
2945 20-06-2020 06:25:00 12.6 C 10.73 g/m*3 12.6 C 3.2 km/h
2946 20-06-2020 06:30:00 12.7 C 10.8 g/m*3 12.7 C 6.4 km/h
2947 20-06-2020 06:35:00 12.7 C 10.8 g/m*3 12.7 C 6.4 km/h
2948 20-06-2020 06:40:00 12.7 C 10.8 g/m*3 12.7 C 3.2 km/h
2949 20-06-2020 06:45:00 12.8 C 10.87 g/m*3 12.8 C 3.2 km/h
2950 20-06-2020 06:50:00 12.8 C 10.87 g/m*3 12.8 C 6.4 km/h
Sensor: Nr:Datum:Temp:Abs-Feuchte:Windchill:Wind:
Aussen-T/F 2951 20-06-2020 06:55:00 12.8 C 10.87 g/m*3 12.8 C 8.1 km/h
2952 20-06-2020 07:00:00 12.8 C 10.87 g/m*3 12.8 C 8.1 km/h
2953 20-06-2020 07:05:00 12.9 C 10.93 g/m*3 12.9 C 6.4 km/h
2954 20-06-2020 07:10:00 12.9 C 10.93 g/m*3 12.9 C 6.4 km/h
2955 20-06-2020 07:15:00 13 C 11 g/m*3 13 C 6.4 km/h
2956 20-06-2020 07:20:00 13 C 11 g/m*3 13 C 4.8 km/h
2957 20-06-2020 07:25:00 13 C 11 g/m*3 13 C 3.2 km/h
2958 20-06-2020 07:30:00 13.1 C 11.07 g/m*3 13.1 C 6.4 km/h
2959 20-06-2020 07:35:00 13.1 C 11.07 g/m*3 13.1 C 3.2 km/h
2960 20-06-2020 07:40:00 13.1 C 11.07 g/m*3 13.1 C 3.2 km/h
2961 20-06-2020 07:45:00 13.2 C 11.14 g/m*3 13.2 C 0 km/h
2962 20-06-2020 07:50:00 13.2 C 11.14 g/m*3 13.2 C 0 km/h
2963 20-06-2020 07:55:00 13.3 C 11.21 g/m*3 13.3 C 0 km/h
2964 20-06-2020 08:00:00 13.3 C 11.21 g/m*3 13.3 C 0 km/h
2965 20-06-2020 08:05:00 13.4 C 11.28 g/m*3 13.4 C 0 km/h
2966 20-06-2020 08:10:00 13.6 C 11.42 g/m*3 13.6 C 0 km/h
2967 20-06-2020 08:15:00 13.7 C 11.49 g/m*3 13.7 C 0 km/h
2968 20-06-2020 08:20:00 14 C 11.82 g/m*3 14 C 0 km/h
2969 20-06-2020 08:25:00 14.1 C 11.89 g/m*3 14.1 C 0 km/h
2970 20-06-2020 08:30:00 14.3 C 12.04 g/m*3 14.3 C 0 km/h
2971 20-06-2020 08:35:00 14.4 C 12.11 g/m*3 14.4 C 1.6 km/h
2972 20-06-2020 08:40:00 14.6 C 12.26 g/m*3 14.6 C 0 km/h
2973 20-06-2020 08:45:00 14.7 C 12.34 g/m*3 14.7 C 1.6 km/h
2974 20-06-2020 08:50:00 14.7 C 12.34 g/m*3 14.7 C 1.6 km/h
2975 20-06-2020 08:55:00 14.7 C 12.34 g/m*3 14.7 C 0 km/h
Sensor: Nr:Datum:Temp:Abs-Feuchte:Windchill:Wind:
Aussen-T/F 2976 20-06-2020 09:00:00 14.8 C 12.29 g/m*3 14.8 C 0 km/h
2977 20-06-2020 09:05:00 14.8 C 12.29 g/m*3 14.8 C 0 km/h
2978 20-06-2020 09:10:00 14.8 C 12.29 g/m*3 14.8 C 0 km/h
2979 20-06-2020 09:15:00 14.9 C 12.36 g/m*3 14.9 C 3.2 km/h
2980 20-06-2020 09:20:00 15.1 C 12.51 g/m*3 15.1 C 1.6 km/h
2981 20-06-2020 09:25:00 15.2 C 12.59 g/m*3 15.2 C 0 km/h
2982 20-06-2020 09:30:00 15.4 C 12.74 g/m*3 15.4 C 0 km/h
2983 20-06-2020 09:35:00 15.6 C 12.9 g/m*3 15.6 C 0 km/h
2984 20-06-2020 09:40:00 15.7 C 12.84 g/m*3 15.7 C 0 km/h
2985 20-06-2020 09:45:00 15.8 C 12.92 g/m*3 15.8 C 1.6 km/h
2986 20-06-2020 09:50:00 16 C 13.08 g/m*3 16 C 1.6 km/h
2987 20-06-2020 09:55:00 16.2 C 13.1 g/m*3 16.2 C 1.6 km/h
2988 20-06-2020 10:00:00 16.3 C 13.18 g/m*3 16.3 C 0 km/h
2989 20-06-2020 10:05:00 16.4 C 13.26 g/m*3 16.4 C 0 km/h
2990 20-06-2020 10:10:00 16.5 C 13.34 g/m*3 16.5 C 0 km/h
2991 20-06-2020 10:15:00 16.7 C 13.5 g/m*3 16.7 C 0 km/h
2992 20-06-2020 10:20:00 16.8 C 13.15 g/m*3 16.8 C 6.4 km/h
2993 20-06-2020 10:25:00 17.2 C 13.18 g/m*3 17.2 C 6.4 km/h
2994 20-06-2020 10:30:00 17.7 C 13.73 g/m*3 17.7 C 0 km/h
2995 20-06-2020 10:35:00 18 C 13.82 g/m*3 18 C 0 km/h
2996 20-06-2020 10:40:00 18.3 C 13.13 g/m*3 18.3 C 1.6 km/h
2997 20-06-2020 10:45:00 18.7 C 13.13 g/m*3 18.7 C 0 km/h
2998 20-06-2020 10:50:00 18.9 C 12.8 g/m*3 18.9 C 4.8 km/h
2999 20-06-2020 10:55:00 19.3 C 12.94 g/m*3 19.3 C 8.1 km/h
3000 20-06-2020 11:00:00 19.4 C 12.51 g/m*3 19.4 C 4.8 km/h
Sensor: Nr:Datum:Temp:Abs-Feuchte:Windchill:Wind:
Aussen-T/F 3001 20-06-2020 11:05:00 19.6 C 12.83 g/m*3 19.6 C 3.2 km/h
3002 20-06-2020 11:10:00 19.9 C 13.06 g/m*3 19.9 C 6.4 km/h
3003 20-06-2020 11:15:00 20.2 C 13.11 g/m*3 20.2 C 11.3 km/h
3004 20-06-2020 11:20:00 20.4 C 13.27 g/m*3 20.4 C 6.4 km/h
3005 20-06-2020 11:25:00 20.4 C 12.74 g/m*3 20.4 C 6.4 km/h
3006 20-06-2020 11:30:00 20.3 C 12.84 g/m*3 20.3 C 3.2 km/h
3007 20-06-2020 11:35:00 20.3 C 12.84 g/m*3 20.3 C 8.1 km/h
3008 20-06-2020 11:40:00 20.3 C 13.01 g/m*3 20.3 C 8.1 km/h
3009 20-06-2020 11:45:00 20.3 C 12.66 g/m*3 20.3 C 6.4 km/h
3010 20-06-2020 11:50:00 20.2 C 12.59 g/m*3 20.2 C 3.2 km/h
3011 20-06-2020 11:55:00 20.1 C 12.86 g/m*3 20.1 C 8.1 km/h
3012 20-06-2020 12:00:00 20 C 12.62 g/m*3 20 C 6.4 km/h
3013 20-06-2020 12:05:00 19.9 C 12.71 g/m*3 19.9 C 6.4 km/h
3014 20-06-2020 12:10:00 19.8 C 11.61 g/m*3 19.8 C 6.4 km/h
3015 20-06-2020 12:15:00 19.8 C 12.3 g/m*3 19.8 C 4.8 km/h
3016 20-06-2020 12:20:00 19.8 C 13.32 g/m*3 19.8 C 6.4 km/h
3017 20-06-2020 12:25:00 19.6 C 13 g/m*3 19.6 C 4.8 km/h
3018 20-06-2020 12:30:00 19.6 C 13 g/m*3 19.6 C 6.4 km/h
3019 20-06-2020 12:35:00 19.6 C 12.66 g/m*3 19.6 C 4.8 km/h
3020 20-06-2020 12:40:00 19.6 C 13 g/m*3 19.6 C 3.2 km/h
3021 20-06-2020 12:45:00 19.8 C 13.15 g/m*3 19.8 C 1.6 km/h
3022 20-06-2020 12:50:00 19.8 C 12.98 g/m*3 19.8 C 1.6 km/h
3023 20-06-2020 12:55:00 19.9 C 13.23 g/m*3 19.9 C 3.2 km/h
3024 20-06-2020 13:00:00 19.9 C 13.06 g/m*3 19.9 C 4.8 km/h
3025 20-06-2020 13:05:00 19.8 C 13.15 g/m*3 19.8 C 4.8 km/h
Sensor: Nr:Datum:Temp:Abs-Feuchte:Windchill:Wind:
Aussen-T/F 3026 20-06-2020 13:10:00 19.7 C 13.25 g/m*3 19.7 C 3.2 km/h
3027 20-06-2020 13:15:00 19.7 C 13.41 g/m*3 19.7 C 4.8 km/h
3028 20-06-2020 13:20:00 19.6 C 13.34 g/m*3 19.6 C 1.6 km/h
3029 20-06-2020 13:25:00 19.5 C 13.26 g/m*3 19.5 C 6.4 km/h
3030 20-06-2020 13:30:00 19.3 C 13.27 g/m*3 19.3 C 3.2 km/h
3031 20-06-2020 13:35:00 19.4 C 13.35 g/m*3 19.4 C 3.2 km/h
3032 20-06-2020 13:40:00 19.4 C 13.18 g/m*3 19.4 C 1.6 km/h
3033 20-06-2020 13:45:00 19.5 C 13.26 g/m*3 19.5 C 3.2 km/h
3034 20-06-2020 13:50:00 19.6 C 13.51 g/m*3 19.6 C 4.8 km/h
3035 20-06-2020 13:55:00 19.7 C 13.25 g/m*3 19.7 C 6.4 km/h
3036 20-06-2020 14:00:00 19.7 C 13.25 g/m*3 19.7 C 4.8 km/h
3037 20-06-2020 14:05:00 19.8 C 13.15 g/m*3 19.8 C 4.8 km/h
3038 20-06-2020 14:10:00 19.8 C 13.32 g/m*3 19.8 C 4.8 km/h
3039 20-06-2020 14:15:00 19.9 C 12.71 g/m*3 19.9 C 3.2 km/h
3040 20-06-2020 14:20:00 19.9 C 12.54 g/m*3 19.9 C 6.4 km/h
3041 20-06-2020 14:25:00 19.9 C 12.54 g/m*3 19.9 C 8.1 km/h
3042 20-06-2020 14:30:00 19.8 C 12.64 g/m*3 19.8 C 4.8 km/h
3043 20-06-2020 14:35:00 19.7 C 12.4 g/m*3 19.7 C 0 km/h
3044 20-06-2020 14:40:00 19.7 C 12.74 g/m*3 19.7 C 0 km/h
3045 20-06-2020 14:45:00 19.6 C 12.83 g/m*3 19.6 C 0 km/h
3046 20-06-2020 14:50:00 19.6 C 13.17 g/m*3 19.6 C 0 km/h
3047 20-06-2020 14:55:00 19.5 C 12.75 g/m*3 19.5 C 0 km/h
3048 20-06-2020 15:00:00 19.4 C 12.68 g/m*3 19.4 C 4.8 km/h
3049 20-06-2020 15:05:00 19.5 C 13.09 g/m*3 19.5 C 0 km/h
3050 20-06-2020 15:10:00 19.6 C 13.17 g/m*3 19.6 C 0 km/h
Sensor: Nr:Datum:Temp:Abs-Feuchte:Windchill:Wind:
Aussen-T/F 3051 20-06-2020 15:15:00 19.7 C 13.25 g/m*3 19.7 C 1.6 km/h
3052 20-06-2020 15:20:00 19.7 C 12.4 g/m*3 19.7 C 0 km/h
3053 20-06-2020 15:25:00 19.7 C 12.74 g/m*3 19.7 C 1.6 km/h
3054 20-06-2020 15:30:00 19.9 C 12.71 g/m*3 19.9 C 3.2 km/h
3055 20-06-2020 15:35:00 20.2 C 12.41 g/m*3 20.2 C 4.8 km/h
3056 20-06-2020 15:40:00 20.4 C 12.21 g/m*3 20.4 C 4.8 km/h
3057 20-06-2020 15:45:00 20.9 C 12.57 g/m*3 20.9 C 3.2 km/h
3058 20-06-2020 15:50:00 21.5 C 13.2 g/m*3 21.5 C 6.4 km/h
3059 20-06-2020 15:55:00 22 C 13.2 g/m*3 22 C 3.2 km/h
3060 20-06-2020 16:00:00 22.6 C 13.26 g/m*3 22.6 C 4.8 km/h
3061 20-06-2020 16:05:00 23.2 C 13.1 g/m*3 23.2 C 4.8 km/h
3062 20-06-2020 16:10:00 23.4 C 11.99 g/m*3 23.4 C 4.8 km/h
3063 20-06-2020 16:15:00 23.3 C 12.34 g/m*3 23.3 C 4.8 km/h
3064 20-06-2020 16:20:00 23.2 C 12.47 g/m*3 23.2 C 6.4 km/h
3065 20-06-2020 16:25:00 23.2 C 12.06 g/m*3 23.2 C 4.8 km/h
3066 20-06-2020 16:30:00 22.9 C 12.06 g/m*3 22.9 C 6.4 km/h
3067 20-06-2020 16:35:00 22.8 C 11.99 g/m*3 22.8 C 6.4 km/h
3068 20-06-2020 16:40:00 22.7 C 11.52 g/m*3 22.7 C 9.7 km/h
3069 20-06-2020 16:45:00 22.6 C 11.25 g/m*3 22.6 C 11.3 km/h
3070 20-06-2020 16:50:00 22.4 C 11.52 g/m*3 22.4 C 9.7 km/h
3071 20-06-2020 16:55:00 22.4 C 11.32 g/m*3 22.4 C 9.7 km/h
3072 20-06-2020 17:00:00 22.4 C 11.52 g/m*3 22.4 C 6.4 km/h
3073 20-06-2020 17:05:00 22.5 C 11.78 g/m*3 22.5 C 9.7 km/h
3074 20-06-2020 17:10:00 22.4 C 11.52 g/m*3 22.4 C 8.1 km/h
3075 20-06-2020 17:15:00 22.4 C 11.52 g/m*3 22.4 C 9.7 km/h
Sensor: Nr:Datum:Temp:Abs-Feuchte:Windchill:Wind:
Aussen-T/F 3076 20-06-2020 17:20:00 22.4 C 11.12 g/m*3 22.4 C 8.1 km/h
3077 20-06-2020 17:25:00 22.4 C 11.72 g/m*3 22.4 C 8.1 km/h
3078 20-06-2020 17:30:00 22.3 C 11.06 g/m*3 22.3 C 4.8 km/h
3079 20-06-2020 17:35:00 22.3 C 10.86 g/m*3 22.3 C 3.2 km/h
3080 20-06-2020 17:40:00 22.2 C 11.19 g/m*3 22.2 C 3.2 km/h
3081 20-06-2020 17:45:00 22.2 C 11.19 g/m*3 22.2 C 4.8 km/h
3082 20-06-2020 17:50:00 22.2 C 10.6 g/m*3 22.2 C 4.8 km/h
3083 20-06-2020 17:55:00 22.3 C 12.24 g/m*3 22.3 C 0 km/h
3084 20-06-2020 18:00:00 22.4 C 13.5 g/m*3 22.4 C 0 km/h
3085 20-06-2020 18:05:00 22.4 C 13.7 g/m*3 22.4 C 0 km/h
3086 20-06-2020 18:10:00 22.2 C 12.17 g/m*3 22.2 C 12.9 km/h
3087 20-06-2020 18:15:00 21.8 C 12.28 g/m*3 21.8 C 12.9 km/h
3088 20-06-2020 18:20:00 21.4 C 12.56 g/m*3 21.4 C 11.3 km/h
3089 20-06-2020 18:25:00 21 C 12.64 g/m*3 21 C 14.5 km/h
3090 20-06-2020 18:30:00 20.7 C 12.78 g/m*3 20.7 C 9.7 km/h
3091 20-06-2020 18:35:00 20.4 C 12.74 g/m*3 20.4 C 9.7 km/h
3092 20-06-2020 18:40:00 20.2 C 12.76 g/m*3 20.2 C 6.4 km/h
3093 20-06-2020 18:45:00 20.2 C 13.11 g/m*3 20.2 C 1.6 km/h
3094 20-06-2020 18:50:00 20.1 C 13.04 g/m*3 20.1 C 6.4 km/h
3095 20-06-2020 18:55:00 20 C 12.79 g/m*3 20 C 6.4 km/h
3096 20-06-2020 19:00:00 19.9 C 12.89 g/m*3 19.9 C 8.1 km/h
3097 20-06-2020 19:05:00 19.8 C 12.81 g/m*3 19.8 C 8.1 km/h
3098 20-06-2020 19:10:00 19.7 C 12.74 g/m*3 19.7 C 3.2 km/h
3099 20-06-2020 19:15:00 19.7 C 12.91 g/m*3 19.7 C 4.8 km/h
3100 20-06-2020 19:20:00 19.7 C 12.74 g/m*3 19.7 C 9.7 km/h
Sensor: Nr:Datum:Temp:Abs-Feuchte:Windchill:Wind:
Aussen-T/F 3101 20-06-2020 19:25:00 19.7 C 12.74 g/m*3 19.7 C 6.4 km/h
3102 20-06-2020 19:30:00 19.7 C 12.91 g/m*3 19.7 C 3.2 km/h
3103 20-06-2020 19:35:00 19.6 C 13 g/m*3 19.6 C 8.1 km/h
3104 20-06-2020 19:40:00 19.5 C 12.75 g/m*3 19.5 C 6.4 km/h
3105 20-06-2020 19:45:00 19.4 C 12.85 g/m*3 19.4 C 6.4 km/h
3106 20-06-2020 19:50:00 19.4 C 13.01 g/m*3 19.4 C 4.8 km/h
3107 20-06-2020 19:55:00 19.4 C 13.18 g/m*3 19.4 C 1.6 km/h
3108 20-06-2020 20:00:00 19.4 C 13.18 g/m*3 19.4 C 0 km/h
3109 20-06-2020 20:05:00 19.3 C 13.27 g/m*3 19.3 C 1.6 km/h
3110 20-06-2020 20:10:00 19.3 C 13.27 g/m*3 19.3 C 4.8 km/h
3111 20-06-2020 20:15:00 19.2 C 13.36 g/m*3 19.2 C 3.2 km/h
3112 20-06-2020 20:20:00 19.1 C 13.44 g/m*3 19.1 C 3.2 km/h
3113 20-06-2020 20:25:00 19.1 C 13.44 g/m*3 19.1 C 3.2 km/h
3114 20-06-2020 20:30:00 18.9 C 13.45 g/m*3 18.9 C 0 km/h
3115 20-06-2020 20:35:00 18.9 C 13.45 g/m*3 18.9 C 0 km/h
3116 20-06-2020 20:40:00 18.9 C 13.45 g/m*3 18.9 C 0 km/h
3117 20-06-2020 20:45:00 18.8 C 13.21 g/m*3 18.8 C 4.8 km/h
3118 20-06-2020 20:50:00 18.8 C 13.53 g/m*3 18.8 C 0 km/h
3119 20-06-2020 20:55:00 18.8 C 13.53 g/m*3 18.8 C 1.6 km/h
3120 20-06-2020 21:00:00 18.8 C 13.21 g/m*3 18.8 C 1.6 km/h
3121 20-06-2020 21:05:00 18.7 C 13.13 g/m*3 18.7 C 3.2 km/h
3122 20-06-2020 21:10:00 18.7 C 13.13 g/m*3 18.7 C 1.6 km/h
3123 20-06-2020 21:15:00 18.7 C 13.29 g/m*3 18.7 C 4.8 km/h
3124 20-06-2020 21:20:00 18.7 C 13.45 g/m*3 18.7 C 3.2 km/h
3125 20-06-2020 21:25:00 18.6 C 13.37 g/m*3 18.6 C 4.8 km/h
Sensor: Nr:Datum:Temp:Abs-Feuchte:Windchill:Wind:
Aussen-T/F 3126 20-06-2020 21:30:00 18.4 C 13.21 g/m*3 18.4 C 4.8 km/h
3127 20-06-2020 21:35:00 18.3 C 13.13 g/m*3 18.3 C 3.2 km/h
3128 20-06-2020 21:40:00 18.1 C 13.13 g/m*3 18.1 C 3.2 km/h
3129 20-06-2020 21:45:00 17.9 C 12.98 g/m*3 17.9 C 1.6 km/h
3130 20-06-2020 21:50:00 17.8 C 12.9 g/m*3 17.8 C 0 km/h
3131 20-06-2020 21:55:00 17.7 C 12.82 g/m*3 17.7 C 3.2 km/h
3132 20-06-2020 22:00:00 17.5 C 12.82 g/m*3 17.5 C 4.8 km/h
3133 20-06-2020 22:05:00 17.4 C 12.75 g/m*3 17.4 C 3.2 km/h
3134 20-06-2020 22:10:00 17.3 C 12.82 g/m*3 17.3 C 0 km/h
3135 20-06-2020 22:15:00 17.2 C 12.74 g/m*3 17.2 C 0 km/h
3136 20-06-2020 22:20:00 17.1 C 12.66 g/m*3 17.1 C 1.6 km/h
3137 20-06-2020 22:25:00 17 C 12.59 g/m*3 17 C 4.8 km/h
3138 20-06-2020 22:30:00 16.9 C 12.66 g/m*3 16.9 C 4.8 km/h
3139 20-06-2020 22:35:00 16.8 C 12.58 g/m*3 16.8 C 4.8 km/h
3140 20-06-2020 22:40:00 16.8 C 12.58 g/m*3 16.8 C 3.2 km/h
3141 20-06-2020 22:45:00 16.7 C 12.51 g/m*3 16.7 C 0 km/h
3142 20-06-2020 22:50:00 16.7 C 12.51 g/m*3 16.7 C 3.2 km/h
3143 20-06-2020 22:55:00 16.6 C 12.43 g/m*3 16.6 C 0 km/h
3144 20-06-2020 23:00:00 16.4 C 12.28 g/m*3 16.4 C 6.4 km/h
3145 20-06-2020 23:05:00 16.3 C 12.21 g/m*3 16.3 C 3.2 km/h
3146 20-06-2020 23:10:00 16.2 C 12.14 g/m*3 16.2 C 3.2 km/h
3147 20-06-2020 23:15:00 16 C 11.99 g/m*3 16 C 3.2 km/h
3148 20-06-2020 23:20:00 15.8 C 11.85 g/m*3 15.8 C 1.6 km/h
3149 20-06-2020 23:25:00 15.7 C 11.91 g/m*3 15.7 C 1.6 km/h
3150 20-06-2020 23:30:00 15.6 C 11.84 g/m*3 15.6 C 1.6 km/h
Sensor: Nr:Datum:Temp:Abs-Feuchte:Windchill:Wind:
Aussen-T/F 3151 20-06-2020 23:35:00 15.5 C 11.76 g/m*3 15.5 C 1.6 km/h
3152 20-06-2020 23:40:00 15.3 C 11.62 g/m*3 15.3 C 3.2 km/h
3153 20-06-2020 23:45:00 15.2 C 11.68 g/m*3 15.2 C 1.6 km/h
3154 20-06-2020 23:50:00 15.2 C 11.68 g/m*3 15.2 C 0 km/h
3155 20-06-2020 23:55:00 15.1 C 11.61 g/m*3 15.1 C 0 km/h
3156 21-06-2020 00:00:00 14.9 C 11.47 g/m*3 14.9 C 1.6 km/h
3157 21-06-2020 00:05:00 14.8 C 11.4 g/m*3 14.8 C 1.6 km/h
3158 21-06-2020 00:10:00 14.8 C 11.53 g/m*3 14.8 C 0 km/h
3159 21-06-2020 00:15:00 14.7 C 11.46 g/m*3 14.7 C 0 km/h
3160 21-06-2020 00:20:00 14.6 C 11.39 g/m*3 14.6 C 0 km/h
3161 21-06-2020 00:25:00 14.5 C 11.44 g/m*3 14.5 C 0 km/h
3162 21-06-2020 00:30:00 14.4 C 11.37 g/m*3 14.4 C 1.6 km/h
3163 21-06-2020 00:35:00 14.3 C 11.3 g/m*3 14.3 C 0 km/h
3164 21-06-2020 00:40:00 14.3 C 11.3 g/m*3 14.3 C 0 km/h
3165 21-06-2020 00:45:00 14.2 C 11.23 g/m*3 14.2 C 0 km/h
3166 21-06-2020 00:50:00 14.2 C 11.23 g/m*3 14.2 C 1.6 km/h
3167 21-06-2020 00:55:00 14.1 C 11.29 g/m*3 14.1 C 1.6 km/h
3168 21-06-2020 01:00:00 14.1 C 11.29 g/m*3 14.1 C 1.6 km/h
3169 21-06-2020 01:05:00 14.1 C 11.29 g/m*3 14.1 C 0 km/h
3170 21-06-2020 01:10:00 13.9 C 11.15 g/m*3 13.9 C 1.6 km/h
3171 21-06-2020 01:15:00 13.9 C 11.15 g/m*3 13.9 C 1.6 km/h
3172 21-06-2020 01:20:00 13.8 C 11.08 g/m*3 13.8 C 0 km/h
3173 21-06-2020 01:25:00 13.8 C 11.08 g/m*3 13.8 C 0 km/h
3174 21-06-2020 01:30:00 13.8 C 11.08 g/m*3 13.8 C 0 km/h
3175 21-06-2020 01:35:00 13.7 C 11.13 g/m*3 13.7 C 0 km/h
Sensor: Nr:Datum:Temp:Abs-Feuchte:Windchill:Wind:
Aussen-T/F 3176 21-06-2020 01:40:00 13.7 C 11.13 g/m*3 13.7 C 0 km/h
3177 21-06-2020 01:45:00 13.7 C 11.13 g/m*3 13.7 C 0 km/h
3178 21-06-2020 01:50:00 13.6 C 11.06 g/m*3 13.6 C 0 km/h
3179 21-06-2020 01:55:00 13.6 C 11.06 g/m*3 13.6 C 1.6 km/h
3180 21-06-2020 02:00:00 13.6 C 11.06 g/m*3 13.6 C 0 km/h
3181 21-06-2020 02:05:00 13.5 C 10.99 g/m*3 13.5 C 0 km/h
3182 21-06-2020 02:10:00 13.4 C 10.93 g/m*3 13.4 C 0 km/h
3183 21-06-2020 02:15:00 13.3 C 10.86 g/m*3 13.3 C 0 km/h
3184 21-06-2020 02:20:00 13.3 C 10.86 g/m*3 13.3 C 1.6 km/h
3185 21-06-2020 02:25:00 13.2 C 10.79 g/m*3 13.2 C 1.6 km/h
3186 21-06-2020 02:30:00 13.2 C 10.79 g/m*3 13.2 C 0 km/h
3187 21-06-2020 02:35:00 13.2 C 10.79 g/m*3 13.2 C 0 km/h
3188 21-06-2020 02:40:00 13.2 C 10.91 g/m*3 13.2 C 0 km/h
3189 21-06-2020 02:45:00 13.1 C 10.84 g/m*3 13.1 C 3.2 km/h
3190 21-06-2020 02:50:00 13 C 10.66 g/m*3 13 C 3.2 km/h
3191 21-06-2020 02:55:00 12.9 C 10.59 g/m*3 12.9 C 0 km/h
3192 21-06-2020 03:00:00 12.8 C 10.53 g/m*3 12.8 C 0 km/h
3193 21-06-2020 03:05:00 12.8 C 10.64 g/m*3 12.8 C 0 km/h
3194 21-06-2020 03:10:00 12.8 C 10.64 g/m*3 12.8 C 0 km/h
3195 21-06-2020 03:15:00 12.8 C 10.64 g/m*3 12.8 C 1.6 km/h
3196 21-06-2020 03:20:00 12.7 C 10.58 g/m*3 12.7 C 0 km/h
3197 21-06-2020 03:25:00 12.6 C 10.51 g/m*3 12.6 C 0 km/h
3198 21-06-2020 03:30:00 12.5 C 10.44 g/m*3 12.5 C 0 km/h
3199 21-06-2020 03:35:00 12.4 C 10.38 g/m*3 12.4 C 0 km/h
3200 21-06-2020 03:40:00 12.4 C 10.38 g/m*3 12.4 C 0 km/h
Sensor: Nr:Datum:Temp:Abs-Feuchte:Windchill:Wind:
Aussen-T/F 3201 21-06-2020 03:45:00 12.3 C 10.32 g/m*3 12.3 C 0 km/h
3202 21-06-2020 03:50:00 12.2 C 10.25 g/m*3 12.2 C 0 km/h
3203 21-06-2020 03:55:00 12.1 C 10.19 g/m*3 12.1 C 0 km/h
3204 21-06-2020 04:00:00 12 C 10.12 g/m*3 12 C 0 km/h
3205 21-06-2020 04:05:00 11.9 C 10.06 g/m*3 11.9 C 0 km/h
3206 21-06-2020 04:10:00 11.9 C 10.06 g/m*3 11.9 C 0 km/h